<?xml version="1.0" encoding="UTF-8"?>
<gpx xmlns="http://www.topografix.com/GPX/1/1" xmlns:dkl="http://www.gpsware.de/DKL/1/1" xmlns:rtx="http://www.bike-gps.de/RTX/1/1" version="1.1" creator="DKL Digital Map Viewer" xmlns:xsi="http://www.w3.org/2001/XMLSchema-instance" xsi:schemaLocation="http://www.topografix.com/GPX/1/1 http://www.topografix.com/GPX/1/1/gpx.xsd">
 <metadata>
 <name>KOMPASS Digital Map Track</name>
 <desc> </desc>
 <time>2010-08-11T15:41:36Z</time>
 <bounds minlat="47.273987" minlon="12.388170" maxlat="47.454178" maxlon="12.827732"/>
 </metadata>
 <trk>
 <name>2010_Pass Thurn von Kitzbühel</name>
 <cmt>Kitzbühel - Pass Thurn - Bruck/Glocknerstr.</cmt>
 <extensions>
 <dkl:dkl>
 <dkl:format_version>1.1</dkl:format_version>
 <dkl:format>
 <dkl:color>FF0000</dkl:color>
 </dkl:format>
 </dkl:dkl>
 </extensions>
 <trkseg>
 <trkpt lat="47.453964" lon="12.390540">
 <ele>757.44</ele>
 <time>2010-08-11T06:48:10Z</time>
 </trkpt>
 <trkpt lat="47.453964" lon="12.390540">
 <ele>756.77</ele>
 <time>2010-08-11T06:48:11Z</time>
 </trkpt>
 <trkpt lat="47.454178" lon="12.390479">
 <ele>756.60</ele>
 <time>2010-08-11T06:48:15Z</time>
 </trkpt>
 <trkpt lat="47.454166" lon="12.390483">
 <ele>756.70</ele>
 <time>2010-08-11T06:48:17Z</time>
 </trkpt>
 <trkpt lat="47.454166" lon="12.390483">
 <ele>756.42</ele>
 <time>2010-08-11T06:48:21Z</time>
 </trkpt>
 <trkpt lat="47.454102" lon="12.390500">
 <ele>756.34</ele>
 <time>2010-08-11T06:48:29Z</time>
 </trkpt>
 <trkpt lat="47.453979" lon="12.390140">
 <ele>756.16</ele>
 <time>2010-08-11T06:48:37Z</time>
 </trkpt>
 <trkpt lat="47.453926" lon="12.389744">
 <ele>755.79</ele>
 <time>2010-08-11T06:48:46Z</time>
 </trkpt>
 <trkpt lat="47.453835" lon="12.389396">
 <ele>755.65</ele>
 <time>2010-08-11T06:48:53Z</time>
 </trkpt>
 <trkpt lat="47.453690" lon="12.388897">
 <ele>755.46</ele>
 <time>2010-08-11T06:49:02Z</time>
 </trkpt>
 <trkpt lat="47.453568" lon="12.388470">
 <ele>755.40</ele>
 <time>2010-08-11T06:49:11Z</time>
 </trkpt>
 <trkpt lat="47.453419" lon="12.388322">
 <ele>755.46</ele>
 <time>2010-08-11T06:49:17Z</time>
 </trkpt>
 <trkpt lat="47.453384" lon="12.388286">
 <ele>755.72</ele>
 <time>2010-08-11T06:49:22Z</time>
 </trkpt>
 <trkpt lat="47.453350" lon="12.388253">
 <ele>755.11</ele>
 <time>2010-08-11T06:50:03Z</time>
 </trkpt>
 <trkpt lat="47.453342" lon="12.388245">
 <ele>755.16</ele>
 <time>2010-08-11T06:50:04Z</time>
 </trkpt>
 <trkpt lat="47.453331" lon="12.388231">
 <ele>755.33</ele>
 <time>2010-08-11T06:50:09Z</time>
 </trkpt>
 <trkpt lat="47.453373" lon="12.388170">
 <ele>755.23</ele>
 <time>2010-08-11T06:50:13Z</time>
 </trkpt>
 <trkpt lat="47.453274" lon="12.388268">
 <ele>754.95</ele>
 <time>2010-08-11T06:50:16Z</time>
 </trkpt>
 <trkpt lat="47.453167" lon="12.388375">
 <ele>755.47</ele>
 <time>2010-08-11T06:50:19Z</time>
 </trkpt>
 <trkpt lat="47.452774" lon="12.388727">
 <ele>756.33</ele>
 <time>2010-08-11T06:50:30Z</time>
 </trkpt>
 <trkpt lat="47.452423" lon="12.389000">
 <ele>756.64</ele>
 <time>2010-08-11T06:50:39Z</time>
 </trkpt>
 <trkpt lat="47.452381" lon="12.389029">
 <ele>756.56</ele>
 <time>2010-08-11T06:50:40Z</time>
 </trkpt>
 <trkpt lat="47.452175" lon="12.389169">
 <ele>756.66</ele>
 <time>2010-08-11T06:50:46Z</time>
 </trkpt>
 <trkpt lat="47.452141" lon="12.389193">
 <ele>756.78</ele>
 <time>2010-08-11T06:50:52Z</time>
 </trkpt>
 <trkpt lat="47.452141" lon="12.389193">
 <ele>756.67</ele>
 <time>2010-08-11T06:51:08Z</time>
 </trkpt>
 <trkpt lat="47.452122" lon="12.389205">
 <ele>756.75</ele>
 <time>2010-08-11T06:51:09Z</time>
 </trkpt>
 <trkpt lat="47.452034" lon="12.389264">
 <ele>756.40</ele>
 <time>2010-08-11T06:51:13Z</time>
 </trkpt>
 <trkpt lat="47.451878" lon="12.389368">
 <ele>756.39</ele>
 <time>2010-08-11T06:51:17Z</time>
 </trkpt>
 <trkpt lat="47.451744" lon="12.389450">
 <ele>756.36</ele>
 <time>2010-08-11T06:51:20Z</time>
 </trkpt>
 <trkpt lat="47.451309" lon="12.389672">
 <ele>756.55</ele>
 <time>2010-08-11T06:51:30Z</time>
 </trkpt>
 <trkpt lat="47.450970" lon="12.389844">
 <ele>756.90</ele>
 <time>2010-08-11T06:51:38Z</time>
 </trkpt>
 <trkpt lat="47.450760" lon="12.389950">
 <ele>757.76</ele>
 <time>2010-08-11T06:51:45Z</time>
 </trkpt>
 <trkpt lat="47.450733" lon="12.389965">
 <ele>758.13</ele>
 <time>2010-08-11T06:51:48Z</time>
 </trkpt>
 <trkpt lat="47.450729" lon="12.389967">
 <ele>757.71</ele>
 <time>2010-08-11T06:52:05Z</time>
 </trkpt>
 <trkpt lat="47.450710" lon="12.389976">
 <ele>757.68</ele>
 <time>2010-08-11T06:52:06Z</time>
 </trkpt>
 <trkpt lat="47.450623" lon="12.390020">
 <ele>757.41</ele>
 <time>2010-08-11T06:52:09Z</time>
 </trkpt>
 <trkpt lat="47.450500" lon="12.390081">
 <ele>757.30</ele>
 <time>2010-08-11T06:52:12Z</time>
 </trkpt>
 <trkpt lat="47.450443" lon="12.390111">
 <ele>757.44</ele>
 <time>2010-08-11T06:52:14Z</time>
 </trkpt>
 <trkpt lat="47.450287" lon="12.390313">
 <ele>757.71</ele>
 <time>2010-08-11T06:52:19Z</time>
 </trkpt>
 <trkpt lat="47.450016" lon="12.390750">
 <ele>757.81</ele>
 <time>2010-08-11T06:52:28Z</time>
 </trkpt>
 <trkpt lat="47.449825" lon="12.391195">
 <ele>758.16</ele>
 <time>2010-08-11T06:52:36Z</time>
 </trkpt>
 <trkpt lat="47.449718" lon="12.391448">
 <ele>758.43</ele>
 <time>2010-08-11T06:52:42Z</time>
 </trkpt>
 <trkpt lat="47.449589" lon="12.391750">
 <ele>758.70</ele>
 <time>2010-08-11T06:52:48Z</time>
 </trkpt>
 <trkpt lat="47.449406" lon="12.392170">
 <ele>758.56</ele>
 <time>2010-08-11T06:52:56Z</time>
 </trkpt>
 <trkpt lat="47.449295" lon="12.392393">
 <ele>759.29</ele>
 <time>2010-08-11T06:53:01Z</time>
 </trkpt>
 <trkpt lat="47.449146" lon="12.392691">
 <ele>758.91</ele>
 <time>2010-08-11T06:53:07Z</time>
 </trkpt>
 <trkpt lat="47.448940" lon="12.393114">
 <ele>759.33</ele>
 <time>2010-08-11T06:53:14Z</time>
 </trkpt>
 <trkpt lat="47.448704" lon="12.393586">
 <ele>760.35</ele>
 <time>2010-08-11T06:53:23Z</time>
 </trkpt>
 <trkpt lat="47.448421" lon="12.394162">
 <ele>761.34</ele>
 <time>2010-08-11T06:53:34Z</time>
 </trkpt>
 <trkpt lat="47.448116" lon="12.394774">
 <ele>761.99</ele>
 <time>2010-08-11T06:53:45Z</time>
 </trkpt>
 <trkpt lat="47.447773" lon="12.395473">
 <ele>763.13</ele>
 <time>2010-08-11T06:53:58Z</time>
 </trkpt>
 <trkpt lat="47.447430" lon="12.396088">
 <ele>764.30</ele>
 <time>2010-08-11T06:54:10Z</time>
 </trkpt>
 <trkpt lat="47.447079" lon="12.396607">
 <ele>765.23</ele>
 <time>2010-08-11T06:54:21Z</time>
 </trkpt>
 <trkpt lat="47.446705" lon="12.397141">
 <ele>764.78</ele>
 <time>2010-08-11T06:54:31Z</time>
 </trkpt>
 <trkpt lat="47.446274" lon="12.397631">
 <ele>764.83</ele>
 <time>2010-08-11T06:54:41Z</time>
 </trkpt>
 <trkpt lat="47.445854" lon="12.398053">
 <ele>764.07</ele>
 <time>2010-08-11T06:54:49Z</time>
 </trkpt>
 <trkpt lat="47.445377" lon="12.398300">
 <ele>763.37</ele>
 <time>2010-08-11T06:54:57Z</time>
 </trkpt>
 <trkpt lat="47.444916" lon="12.398446">
 <ele>763.32</ele>
 <time>2010-08-11T06:55:05Z</time>
 </trkpt>
 <trkpt lat="47.444618" lon="12.398539">
 <ele>763.80</ele>
 <time>2010-08-11T06:55:11Z</time>
 </trkpt>
 <trkpt lat="47.444485" lon="12.398582">
 <ele>763.90</ele>
 <time>2010-08-11T06:55:15Z</time>
 </trkpt>
 <trkpt lat="47.444408" lon="12.398605">
 <ele>763.88</ele>
 <time>2010-08-11T06:55:19Z</time>
 </trkpt>
 <trkpt lat="47.444248" lon="12.398655">
 <ele>764.00</ele>
 <time>2010-08-11T06:55:25Z</time>
 </trkpt>
 <trkpt lat="47.444027" lon="12.398725">
 <ele>764.28</ele>
 <time>2010-08-11T06:55:34Z</time>
 </trkpt>
 <trkpt lat="47.443882" lon="12.398652">
 <ele>764.42</ele>
 <time>2010-08-11T06:55:38Z</time>
 </trkpt>
 <trkpt lat="47.443851" lon="12.398582">
 <ele>764.61</ele>
 <time>2010-08-11T06:55:44Z</time>
 </trkpt>
 <trkpt lat="47.443832" lon="12.398571">
 <ele>764.60</ele>
 <time>2010-08-11T06:55:45Z</time>
 </trkpt>
 <trkpt lat="47.443726" lon="12.398544">
 <ele>764.56</ele>
 <time>2010-08-11T06:55:50Z</time>
 </trkpt>
 <trkpt lat="47.443687" lon="12.398567">
 <ele>764.54</ele>
 <time>2010-08-11T06:55:52Z</time>
 </trkpt>
 <trkpt lat="47.443596" lon="12.398846">
 <ele>764.45</ele>
 <time>2010-08-11T06:55:57Z</time>
 </trkpt>
 <trkpt lat="47.443520" lon="12.398870">
 <ele>764.17</ele>
 <time>2010-08-11T06:55:59Z</time>
 </trkpt>
 <trkpt lat="47.443054" lon="12.399017">
 <ele>765.34</ele>
 <time>2010-08-11T06:56:10Z</time>
 </trkpt>
 <trkpt lat="47.442524" lon="12.399181">
 <ele>765.97</ele>
 <time>2010-08-11T06:56:22Z</time>
 </trkpt>
 <trkpt lat="47.442120" lon="12.399302">
 <ele>766.10</ele>
 <time>2010-08-11T06:56:31Z</time>
 </trkpt>
 <trkpt lat="47.441746" lon="12.399414">
 <ele>766.54</ele>
 <time>2010-08-11T06:56:39Z</time>
 </trkpt>
 <trkpt lat="47.441368" lon="12.399529">
 <ele>766.77</ele>
 <time>2010-08-11T06:56:47Z</time>
 </trkpt>
 <trkpt lat="47.440948" lon="12.399664">
 <ele>767.07</ele>
 <time>2010-08-11T06:56:56Z</time>
 </trkpt>
 <trkpt lat="47.440411" lon="12.399880">
 <ele>768.09</ele>
 <time>2010-08-11T06:57:08Z</time>
 </trkpt>
 <trkpt lat="47.440102" lon="12.400043">
 <ele>768.54</ele>
 <time>2010-08-11T06:57:15Z</time>
 </trkpt>
 <trkpt lat="47.439827" lon="12.399894">
 <ele>768.91</ele>
 <time>2010-08-11T06:57:20Z</time>
 </trkpt>
 <trkpt lat="47.439617" lon="12.400005">
 <ele>769.36</ele>
 <time>2010-08-11T06:57:25Z</time>
 </trkpt>
 <trkpt lat="47.439293" lon="12.400259">
 <ele>770.15</ele>
 <time>2010-08-11T06:57:34Z</time>
 </trkpt>
 <trkpt lat="47.439045" lon="12.400452">
 <ele>771.24</ele>
 <time>2010-08-11T06:57:41Z</time>
 </trkpt>
 <trkpt lat="47.438721" lon="12.400704">
 <ele>771.91</ele>
 <time>2010-08-11T06:57:50Z</time>
 </trkpt>
 <trkpt lat="47.438362" lon="12.400982">
 <ele>773.05</ele>
 <time>2010-08-11T06:58:00Z</time>
 </trkpt>
 <trkpt lat="47.438015" lon="12.401251">
 <ele>774.15</ele>
 <time>2010-08-11T06:58:10Z</time>
 </trkpt>
 <trkpt lat="47.437611" lon="12.401567">
 <ele>775.53</ele>
 <time>2010-08-11T06:58:22Z</time>
 </trkpt>
 <trkpt lat="47.437222" lon="12.401869">
 <ele>777.03</ele>
 <time>2010-08-11T06:58:33Z</time>
 </trkpt>
 <trkpt lat="47.437187" lon="12.402556">
 <ele>776.86</ele>
 <time>2010-08-11T06:58:40Z</time>
 </trkpt>
 <trkpt lat="47.437012" lon="12.403135">
 <ele>775.68</ele>
 <time>2010-08-11T06:58:48Z</time>
 </trkpt>
 <trkpt lat="47.436790" lon="12.403966">
 <ele>775.01</ele>
 <time>2010-08-11T06:58:58Z</time>
 </trkpt>
 <trkpt lat="47.436543" lon="12.404463">
 <ele>774.11</ele>
 <time>2010-08-11T06:59:05Z</time>
 </trkpt>
 <trkpt lat="47.436184" lon="12.405053">
 <ele>774.58</ele>
 <time>2010-08-11T06:59:15Z</time>
 </trkpt>
 <trkpt lat="47.435760" lon="12.405545">
 <ele>775.29</ele>
 <time>2010-08-11T06:59:25Z</time>
 </trkpt>
 <trkpt lat="47.435253" lon="12.405975">
 <ele>776.05</ele>
 <time>2010-08-11T06:59:36Z</time>
 </trkpt>
 <trkpt lat="47.434669" lon="12.406353">
 <ele>776.20</ele>
 <time>2010-08-11T06:59:48Z</time>
 </trkpt>
 <trkpt lat="47.434090" lon="12.406716">
 <ele>777.01</ele>
 <time>2010-08-11T07:00:00Z</time>
 </trkpt>
 <trkpt lat="47.433365" lon="12.407171">
 <ele>777.73</ele>
 <time>2010-08-11T07:00:15Z</time>
 </trkpt>
 <trkpt lat="47.432648" lon="12.407616">
 <ele>778.33</ele>
 <time>2010-08-11T07:00:30Z</time>
 </trkpt>
 <trkpt lat="47.431911" lon="12.408075">
 <ele>779.47</ele>
 <time>2010-08-11T07:00:46Z</time>
 </trkpt>
 <trkpt lat="47.431145" lon="12.408526">
 <ele>780.49</ele>
 <time>2010-08-11T07:01:02Z</time>
 </trkpt>
 <trkpt lat="47.430466" lon="12.408921">
 <ele>781.42</ele>
 <time>2010-08-11T07:01:16Z</time>
 </trkpt>
 <trkpt lat="47.429855" lon="12.409317">
 <ele>781.66</ele>
 <time>2010-08-11T07:01:29Z</time>
 </trkpt>
 <trkpt lat="47.429214" lon="12.409729">
 <ele>782.55</ele>
 <time>2010-08-11T07:01:43Z</time>
 </trkpt>
 <trkpt lat="47.429058" lon="12.409817">
 <ele>783.12</ele>
 <time>2010-08-11T07:01:47Z</time>
 </trkpt>
 <trkpt lat="47.429043" lon="12.409827">
 <ele>783.52</ele>
 <time>2010-08-11T07:01:48Z</time>
 </trkpt>
 <trkpt lat="47.429222" lon="12.409723">
 <ele>784.07</ele>
 <time>2010-08-11T07:01:54Z</time>
 </trkpt>
 <trkpt lat="47.429226" lon="12.409727">
 <ele>784.07</ele>
 <time>2010-08-11T07:01:55Z</time>
 </trkpt>
 <trkpt lat="47.428951" lon="12.409878">
 <ele>783.52</ele>
 <time>2010-08-11T07:02:00Z</time>
 </trkpt>
 <trkpt lat="47.428925" lon="12.409895">
 <ele>783.59</ele>
 <time>2010-08-11T07:02:06Z</time>
 </trkpt>
 <trkpt lat="47.428631" lon="12.410068">
 <ele>783.92</ele>
 <time>2010-08-11T07:02:09Z</time>
 </trkpt>
 <trkpt lat="47.428509" lon="12.410143">
 <ele>783.85</ele>
 <time>2010-08-11T07:02:12Z</time>
 </trkpt>
 <trkpt lat="47.428360" lon="12.410241">
 <ele>784.21</ele>
 <time>2010-08-11T07:02:16Z</time>
 </trkpt>
 <trkpt lat="47.428242" lon="12.410319">
 <ele>784.13</ele>
 <time>2010-08-11T07:02:20Z</time>
 </trkpt>
 <trkpt lat="47.427917" lon="12.410537">
 <ele>784.68</ele>
 <time>2010-08-11T07:02:32Z</time>
 </trkpt>
 <trkpt lat="47.427822" lon="12.410594">
 <ele>784.80</ele>
 <time>2010-08-11T07:02:38Z</time>
 </trkpt>
 <trkpt lat="47.427704" lon="12.410668">
 <ele>785.22</ele>
 <time>2010-08-11T07:02:43Z</time>
 </trkpt>
 <trkpt lat="47.427692" lon="12.410675">
 <ele>784.79</ele>
 <time>2010-08-11T07:03:50Z</time>
 </trkpt>
 <trkpt lat="47.427567" lon="12.410749">
 <ele>784.93</ele>
 <time>2010-08-11T07:03:53Z</time>
 </trkpt>
 <trkpt lat="47.427528" lon="12.410775">
 <ele>784.96</ele>
 <time>2010-08-11T07:03:54Z</time>
 </trkpt>
 <trkpt lat="47.427483" lon="12.410801">
 <ele>784.83</ele>
 <time>2010-08-11T07:03:55Z</time>
 </trkpt>
 <trkpt lat="47.426888" lon="12.411165">
 <ele>785.65</ele>
 <time>2010-08-11T07:04:09Z</time>
 </trkpt>
 <trkpt lat="47.426209" lon="12.411654">
 <ele>779.94</ele>
 <time>1970-01-01T00:00:00Z</time>
 </trkpt>
 <trkpt lat="47.425881" lon="12.412007">
 <ele>779.00</ele>
 <time>1970-01-01T00:00:00Z</time>
 </trkpt>
 <trkpt lat="47.425332" lon="12.412299">
 <ele>779.00</ele>
 <time>1970-01-01T00:00:00Z</time>
 </trkpt>
 <trkpt lat="47.424785" lon="12.412544">
 <ele>779.00</ele>
 <time>1970-01-01T00:00:00Z</time>
 </trkpt>
 <trkpt lat="47.424365" lon="12.412798">
 <ele>780.00</ele>
 <time>1970-01-01T00:00:00Z</time>
 </trkpt>
 <trkpt lat="47.423977" lon="12.413007">
 <ele>780.00</ele>
 <time>1970-01-01T00:00:00Z</time>
 </trkpt>
 <trkpt lat="47.423586" lon="12.413356">
 <ele>780.82</ele>
 <time>1970-01-01T00:00:00Z</time>
 </trkpt>
 <trkpt lat="47.423170" lon="12.413469">
 <ele>784.55</ele>
 <time>1970-01-01T00:00:00Z</time>
 </trkpt>
 <trkpt lat="47.422748" lon="12.413770">
 <ele>790.39</ele>
 <time>1970-01-01T00:00:00Z</time>
 </trkpt>
 <trkpt lat="47.422449" lon="12.414218">
 <ele>797.02</ele>
 <time>1970-01-01T00:00:00Z</time>
 </trkpt>
 <trkpt lat="47.422213" lon="12.414671">
 <ele>799.98</ele>
 <time>1970-01-01T00:00:00Z</time>
 </trkpt>
 <trkpt lat="47.422015" lon="12.414939">
 <ele>801.07</ele>
 <time>1970-01-01T00:00:00Z</time>
 </trkpt>
 <trkpt lat="47.421919" lon="12.414932">
 <ele>802.07</ele>
 <time>1970-01-01T00:00:00Z</time>
 </trkpt>
 <trkpt lat="47.421741" lon="12.415212">
 <ele>798.69</ele>
 <time>2010-08-11T07:06:36Z</time>
 </trkpt>
 <trkpt lat="47.421665" lon="12.415330">
 <ele>798.85</ele>
 <time>2010-08-11T07:06:41Z</time>
 </trkpt>
 <trkpt lat="47.421619" lon="12.415404">
 <ele>798.97</ele>
 <time>2010-08-11T07:06:44Z</time>
 </trkpt>
 <trkpt lat="47.421520" lon="12.415562">
 <ele>798.13</ele>
 <time>2010-08-11T07:06:49Z</time>
 </trkpt>
 <trkpt lat="47.421227" lon="12.416031">
 <ele>797.66</ele>
 <time>2010-08-11T07:06:59Z</time>
 </trkpt>
 <trkpt lat="47.420929" lon="12.416508">
 <ele>797.50</ele>
 <time>2010-08-11T07:07:09Z</time>
 </trkpt>
 <trkpt lat="47.420696" lon="12.416880">
 <ele>798.07</ele>
 <time>2010-08-11T07:07:17Z</time>
 </trkpt>
 <trkpt lat="47.420475" lon="12.417235">
 <ele>797.95</ele>
 <time>2010-08-11T07:07:25Z</time>
 </trkpt>
 <trkpt lat="47.420349" lon="12.417437">
 <ele>798.33</ele>
 <time>2010-08-11T07:07:30Z</time>
 </trkpt>
 <trkpt lat="47.420326" lon="12.417471">
 <ele>798.51</ele>
 <time>2010-08-11T07:07:31Z</time>
 </trkpt>
 <trkpt lat="47.420189" lon="12.417695">
 <ele>798.64</ele>
 <time>2010-08-11T07:07:36Z</time>
 </trkpt>
 <trkpt lat="47.419792" lon="12.418377">
 <ele>799.22</ele>
 <time>2010-08-11T07:07:49Z</time>
 </trkpt>
 <trkpt lat="47.419460" lon="12.418943">
 <ele>799.85</ele>
 <time>2010-08-11T07:08:00Z</time>
 </trkpt>
 <trkpt lat="47.419102" lon="12.419553">
 <ele>800.91</ele>
 <time>2010-08-11T07:08:12Z</time>
 </trkpt>
 <trkpt lat="47.418808" lon="12.420107">
 <ele>801.91</ele>
 <time>2010-08-11T07:08:23Z</time>
 </trkpt>
 <trkpt lat="47.418625" lon="12.420586">
 <ele>803.03</ele>
 <time>2010-08-11T07:08:32Z</time>
 </trkpt>
 <trkpt lat="47.418453" lon="12.421089">
 <ele>803.51</ele>
 <time>2010-08-11T07:08:41Z</time>
 </trkpt>
 <trkpt lat="47.418243" lon="12.421843">
 <ele>803.71</ele>
 <time>2010-08-11T07:08:53Z</time>
 </trkpt>
 <trkpt lat="47.418076" lon="12.422438">
 <ele>803.63</ele>
 <time>2010-08-11T07:09:02Z</time>
 </trkpt>
 <trkpt lat="47.417885" lon="12.422972">
 <ele>803.92</ele>
 <time>2010-08-11T07:09:10Z</time>
 </trkpt>
 <trkpt lat="47.417526" lon="12.423807">
 <ele>804.15</ele>
 <time>2010-08-11T07:09:23Z</time>
 </trkpt>
 <trkpt lat="47.417179" lon="12.424315">
 <ele>804.37</ele>
 <time>2010-08-11T07:09:33Z</time>
 </trkpt>
 <trkpt lat="47.416817" lon="12.424799">
 <ele>804.84</ele>
 <time>2010-08-11T07:09:43Z</time>
 </trkpt>
 <trkpt lat="47.416279" lon="12.425310">
 <ele>805.96</ele>
 <time>2010-08-11T07:09:56Z</time>
 </trkpt>
 <trkpt lat="47.415760" lon="12.425710">
 <ele>806.54</ele>
 <time>2010-08-11T07:10:08Z</time>
 </trkpt>
 <trkpt lat="47.415157" lon="12.425955">
 <ele>807.10</ele>
 <time>2010-08-11T07:10:21Z</time>
 </trkpt>
 <trkpt lat="47.414703" lon="12.426122">
 <ele>808.53</ele>
 <time>2010-08-11T07:10:31Z</time>
 </trkpt>
 <trkpt lat="47.414146" lon="12.426326">
 <ele>809.40</ele>
 <time>2010-08-11T07:10:43Z</time>
 </trkpt>
 <trkpt lat="47.413509" lon="12.426562">
 <ele>810.55</ele>
 <time>2010-08-11T07:10:57Z</time>
 </trkpt>
 <trkpt lat="47.412876" lon="12.426789">
 <ele>811.63</ele>
 <time>2010-08-11T07:11:11Z</time>
 </trkpt>
 <trkpt lat="47.412254" lon="12.427013">
 <ele>812.66</ele>
 <time>2010-08-11T07:11:25Z</time>
 </trkpt>
 <trkpt lat="47.411819" lon="12.427190">
 <ele>813.18</ele>
 <time>2010-08-11T07:11:35Z</time>
 </trkpt>
 <trkpt lat="47.411213" lon="12.427449">
 <ele>814.19</ele>
 <time>2010-08-11T07:11:49Z</time>
 </trkpt>
 <trkpt lat="47.410652" lon="12.427603">
 <ele>814.83</ele>
 <time>2010-08-11T07:12:02Z</time>
 </trkpt>
 <trkpt lat="47.410110" lon="12.427746">
 <ele>815.98</ele>
 <time>2010-08-11T07:12:14Z</time>
 </trkpt>
 <trkpt lat="47.409504" lon="12.427674">
 <ele>817.19</ele>
 <time>2010-08-11T07:12:27Z</time>
 </trkpt>
 <trkpt lat="47.408974" lon="12.427601">
 <ele>817.65</ele>
 <time>2010-08-11T07:12:38Z</time>
 </trkpt>
 <trkpt lat="47.408562" lon="12.427483">
 <ele>818.20</ele>
 <time>2010-08-11T07:12:47Z</time>
 </trkpt>
 <trkpt lat="47.407974" lon="12.427301">
 <ele>818.99</ele>
 <time>2010-08-11T07:13:00Z</time>
 </trkpt>
 <trkpt lat="47.407398" lon="12.427061">
 <ele>819.99</ele>
 <time>2010-08-11T07:13:13Z</time>
 </trkpt>
 <trkpt lat="47.406841" lon="12.426795">
 <ele>820.73</ele>
 <time>2010-08-11T07:13:26Z</time>
 </trkpt>
 <trkpt lat="47.406281" lon="12.426526">
 <ele>821.70</ele>
 <time>2010-08-11T07:13:39Z</time>
 </trkpt>
 <trkpt lat="47.405964" lon="12.426374">
 <ele>822.73</ele>
 <time>2010-08-11T07:13:50Z</time>
 </trkpt>
 <trkpt lat="47.405270" lon="12.425920">
 <ele>823.41</ele>
 <time>2010-08-11T07:14:03Z</time>
 </trkpt>
 <trkpt lat="47.404812" lon="12.425604">
 <ele>823.97</ele>
 <time>2010-08-11T07:14:14Z</time>
 </trkpt>
 <trkpt lat="47.404415" lon="12.425283">
 <ele>825.28</ele>
 <time>2010-08-11T07:14:24Z</time>
 </trkpt>
 <trkpt lat="47.403938" lon="12.424897">
 <ele>826.03</ele>
 <time>2010-08-11T07:14:36Z</time>
 </trkpt>
 <trkpt lat="47.403336" lon="12.424408">
 <ele>827.80</ele>
 <time>2010-08-11T07:14:51Z</time>
 </trkpt>
 <trkpt lat="47.402805" lon="12.423978">
 <ele>828.87</ele>
 <time>2010-08-11T07:15:04Z</time>
 </trkpt>
 <trkpt lat="47.402256" lon="12.423532">
 <ele>830.17</ele>
 <time>2010-08-11T07:15:18Z</time>
 </trkpt>
 <trkpt lat="47.401806" lon="12.423184">
 <ele>831.32</ele>
 <time>2010-08-11T07:15:30Z</time>
 </trkpt>
 <trkpt lat="47.401394" lon="12.423025">
 <ele>833.12</ele>
 <time>2010-08-11T07:15:41Z</time>
 </trkpt>
 <trkpt lat="47.401051" lon="12.422893">
 <ele>833.87</ele>
 <time>2010-08-11T07:15:50Z</time>
 </trkpt>
 <trkpt lat="47.400963" lon="12.422877">
 <ele>834.51</ele>
 <time>2010-08-11T07:15:54Z</time>
 </trkpt>
 <trkpt lat="47.400932" lon="12.422877">
 <ele>834.97</ele>
 <time>2010-08-11T07:15:58Z</time>
 </trkpt>
 <trkpt lat="47.400909" lon="12.422877">
 <ele>834.87</ele>
 <time>2010-08-11T07:16:12Z</time>
 </trkpt>
 <trkpt lat="47.400803" lon="12.422877">
 <ele>835.18</ele>
 <time>2010-08-11T07:16:17Z</time>
 </trkpt>
 <trkpt lat="47.400421" lon="12.422896">
 <ele>835.78</ele>
 <time>2010-08-11T07:16:27Z</time>
 </trkpt>
 <trkpt lat="47.400253" lon="12.422910">
 <ele>836.12</ele>
 <time>2010-08-11T07:16:32Z</time>
 </trkpt>
 <trkpt lat="47.400238" lon="12.422911">
 <ele>836.25</ele>
 <time>2010-08-11T07:16:34Z</time>
 </trkpt>
 <trkpt lat="47.400166" lon="12.422917">
 <ele>836.17</ele>
 <time>2010-08-11T07:16:39Z</time>
 </trkpt>
 <trkpt lat="47.399986" lon="12.422933">
 <ele>835.86</ele>
 <time>2010-08-11T07:16:45Z</time>
 </trkpt>
 <trkpt lat="47.399712" lon="12.422952">
 <ele>835.93</ele>
 <time>2010-08-11T07:16:52Z</time>
 </trkpt>
 <trkpt lat="47.399250" lon="12.422981">
 <ele>836.62</ele>
 <time>2010-08-11T07:17:03Z</time>
 </trkpt>
 <trkpt lat="47.398834" lon="12.423006">
 <ele>837.38</ele>
 <time>2010-08-11T07:17:13Z</time>
 </trkpt>
 <trkpt lat="47.398380" lon="12.423034">
 <ele>838.18</ele>
 <time>2010-08-11T07:17:24Z</time>
 </trkpt>
 <trkpt lat="47.397968" lon="12.423078">
 <ele>839.05</ele>
 <time>2010-08-11T07:17:34Z</time>
 </trkpt>
 <trkpt lat="47.397594" lon="12.423138">
 <ele>840.04</ele>
 <time>2010-08-11T07:17:43Z</time>
 </trkpt>
 <trkpt lat="47.397175" lon="12.423206">
 <ele>840.92</ele>
 <time>2010-08-11T07:17:53Z</time>
 </trkpt>
 <trkpt lat="47.396763" lon="12.423279">
 <ele>841.68</ele>
 <time>2010-08-11T07:18:03Z</time>
 </trkpt>
 <trkpt lat="47.396362" lon="12.423421">
 <ele>842.85</ele>
 <time>2010-08-11T07:18:13Z</time>
 </trkpt>
 <trkpt lat="47.395878" lon="12.423629">
 <ele>843.75</ele>
 <time>2010-08-11T07:18:25Z</time>
 </trkpt>
 <trkpt lat="47.395473" lon="12.423802">
 <ele>844.85</ele>
 <time>2010-08-11T07:18:35Z</time>
 </trkpt>
 <trkpt lat="47.395069" lon="12.423974">
 <ele>845.63</ele>
 <time>2010-08-11T07:18:45Z</time>
 </trkpt>
 <trkpt lat="47.394414" lon="12.424591">
 <ele>844.61</ele>
 <time>1970-01-01T00:00:00Z</time>
 </trkpt>
 <trkpt lat="47.394051" lon="12.424830">
 <ele>847.28</ele>
 <time>2010-08-11T07:19:09Z</time>
 </trkpt>
 <trkpt lat="47.393506" lon="12.425234">
 <ele>850.69</ele>
 <time>1970-01-01T00:00:00Z</time>
 </trkpt>
 <trkpt lat="47.393093" lon="12.425254">
 <ele>848.74</ele>
 <time>1970-01-01T00:00:00Z</time>
 </trkpt>
 <trkpt lat="47.392773" lon="12.425327">
 <ele>849.75</ele>
 <time>1970-01-01T00:00:00Z</time>
 </trkpt>
 <trkpt lat="47.392617" lon="12.425223">
 <ele>847.34</ele>
 <time>1970-01-01T00:00:00Z</time>
 </trkpt>
 <trkpt lat="47.392364" lon="12.425207">
 <ele>844.73</ele>
 <time>1970-01-01T00:00:00Z</time>
 </trkpt>
 <trkpt lat="47.392227" lon="12.424146">
 <ele>851.93</ele>
 <time>2010-08-11T07:20:02Z</time>
 </trkpt>
 <trkpt lat="47.392164" lon="12.424446">
 <ele>841.58</ele>
 <time>1970-01-01T00:00:00Z</time>
 </trkpt>
 <trkpt lat="47.391994" lon="12.424059">
 <ele>852.23</ele>
 <time>2010-08-11T07:20:13Z</time>
 </trkpt>
 <trkpt lat="47.391933" lon="12.424036">
 <ele>851.89</ele>
 <time>2010-08-11T07:20:15Z</time>
 </trkpt>
 <trkpt lat="47.391865" lon="12.424010">
 <ele>851.92</ele>
 <time>2010-08-11T07:20:17Z</time>
 </trkpt>
 <trkpt lat="47.391716" lon="12.423955">
 <ele>851.97</ele>
 <time>2010-08-11T07:20:21Z</time>
 </trkpt>
 <trkpt lat="47.391476" lon="12.423864">
 <ele>852.43</ele>
 <time>2010-08-11T07:20:27Z</time>
 </trkpt>
 <trkpt lat="47.391171" lon="12.423751">
 <ele>853.11</ele>
 <time>2010-08-11T07:20:35Z</time>
 </trkpt>
 <trkpt lat="47.391194" lon="12.423962">
 <ele>847.94</ele>
 <time>1970-01-01T00:00:00Z</time>
 </trkpt>
 <trkpt lat="47.390684" lon="12.424022">
 <ele>853.76</ele>
 <time>1970-01-01T00:00:00Z</time>
 </trkpt>
 <trkpt lat="47.390178" lon="12.423943">
 <ele>856.63</ele>
 <time>1970-01-01T00:00:00Z</time>
 </trkpt>
 <trkpt lat="47.389991" lon="12.423837">
 <ele>856.52</ele>
 <time>1970-01-01T00:00:00Z</time>
 </trkpt>
 <trkpt lat="47.389737" lon="12.423821">
 <ele>856.87</ele>
 <time>1970-01-01T00:00:00Z</time>
 </trkpt>
 <trkpt lat="47.389612" lon="12.423766">
 <ele>857.75</ele>
 <time>1970-01-01T00:00:00Z</time>
 </trkpt>
 <trkpt lat="47.389356" lon="12.423843">
 <ele>856.87</ele>
 <time>1970-01-01T00:00:00Z</time>
 </trkpt>
 <trkpt lat="47.389167" lon="12.423784">
 <ele>857.99</ele>
 <time>1970-01-01T00:00:00Z</time>
 </trkpt>
 <trkpt lat="47.388911" lon="12.423860">
 <ele>857.66</ele>
 <time>1970-01-01T00:00:00Z</time>
 </trkpt>
 <trkpt lat="47.388422" lon="12.423221">
 <ele>858.99</ele>
 <time>1970-01-01T00:00:00Z</time>
 </trkpt>
 <trkpt lat="47.388763" lon="12.423477">
 <ele>859.05</ele>
 <time>1970-01-01T00:00:00Z</time>
 </trkpt>
 <trkpt lat="47.388141" lon="12.423062">
 <ele>859.00</ele>
 <time>1970-01-01T00:00:00Z</time>
 </trkpt>
 <trkpt lat="47.388008" lon="12.422565">
 <ele>869.97</ele>
 <time>2010-08-11T07:22:29Z</time>
 </trkpt>
 <trkpt lat="47.387810" lon="12.422490">
 <ele>871.66</ele>
 <time>2010-08-11T07:22:38Z</time>
 </trkpt>
 <trkpt lat="47.387699" lon="12.422448">
 <ele>872.43</ele>
 <time>2010-08-11T07:22:43Z</time>
 </trkpt>
 <trkpt lat="47.387497" lon="12.422372">
 <ele>873.96</ele>
 <time>2010-08-11T07:22:52Z</time>
 </trkpt>
 <trkpt lat="47.387150" lon="12.421383">
 <ele>880.21</ele>
 <time>2010-08-11T07:24:30Z</time>
 </trkpt>
 <trkpt lat="47.387142" lon="12.421368">
 <ele>880.18</ele>
 <time>2010-08-11T07:24:31Z</time>
 </trkpt>
 <trkpt lat="47.387081" lon="12.421220">
 <ele>880.09</ele>
 <time>2010-08-11T07:24:38Z</time>
 </trkpt>
 <trkpt lat="47.387173" lon="12.421489">
 <ele>879.95</ele>
 <time>2010-08-11T07:25:50Z</time>
 </trkpt>
 <trkpt lat="47.387093" lon="12.421249">
 <ele>880.03</ele>
 <time>2010-08-11T07:25:52Z</time>
 </trkpt>
 <trkpt lat="47.386944" lon="12.420892">
 <ele>882.09</ele>
 <time>2010-08-11T07:26:03Z</time>
 </trkpt>
 <trkpt lat="47.386879" lon="12.420732">
 <ele>882.81</ele>
 <time>2010-08-11T07:26:08Z</time>
 </trkpt>
 <trkpt lat="47.386787" lon="12.420512">
 <ele>884.09</ele>
 <time>2010-08-11T07:26:15Z</time>
 </trkpt>
 <trkpt lat="47.386738" lon="12.420390">
 <ele>884.64</ele>
 <time>2010-08-11T07:26:19Z</time>
 </trkpt>
 <trkpt lat="47.386604" lon="12.420062">
 <ele>886.18</ele>
 <time>2010-08-11T07:26:30Z</time>
 </trkpt>
 <trkpt lat="47.386471" lon="12.419736">
 <ele>887.95</ele>
 <time>2010-08-11T07:26:41Z</time>
 </trkpt>
 <trkpt lat="47.386360" lon="12.419476">
 <ele>889.13</ele>
 <time>2010-08-11T07:26:50Z</time>
 </trkpt>
 <trkpt lat="47.386227" lon="12.419150">
 <ele>890.89</ele>
 <time>2010-08-11T07:27:01Z</time>
 </trkpt>
 <trkpt lat="47.386108" lon="12.418859">
 <ele>892.22</ele>
 <time>2010-08-11T07:27:11Z</time>
 </trkpt>
 <trkpt lat="47.386002" lon="12.418603">
 <ele>893.97</ele>
 <time>2010-08-11T07:27:20Z</time>
 </trkpt>
 <trkpt lat="47.385899" lon="12.418350">
 <ele>895.27</ele>
 <time>2010-08-11T07:27:29Z</time>
 </trkpt>
 <trkpt lat="47.385757" lon="12.418073">
 <ele>896.16</ele>
 <time>2010-08-11T07:27:39Z</time>
 </trkpt>
 <trkpt lat="47.385620" lon="12.417809">
 <ele>898.74</ele>
 <time>2010-08-11T07:27:49Z</time>
 </trkpt>
 <trkpt lat="47.385391" lon="12.417601">
 <ele>900.38</ele>
 <time>2010-08-11T07:28:01Z</time>
 </trkpt>
 <trkpt lat="47.385201" lon="12.417543">
 <ele>901.76</ele>
 <time>2010-08-11T07:28:10Z</time>
 </trkpt>
 <trkpt lat="47.385025" lon="12.417525">
 <ele>903.40</ele>
 <time>2010-08-11T07:28:18Z</time>
 </trkpt>
 <trkpt lat="47.384838" lon="12.417514">
 <ele>904.20</ele>
 <time>2010-08-11T07:28:26Z</time>
 </trkpt>
 <trkpt lat="47.384686" lon="12.417561">
 <ele>905.59</ele>
 <time>2010-08-11T07:28:33Z</time>
 </trkpt>
 <trkpt lat="47.384457" lon="12.417653">
 <ele>907.34</ele>
 <time>2010-08-11T07:28:42Z</time>
 </trkpt>
 <trkpt lat="47.384216" lon="12.417747">
 <ele>908.90</ele>
 <time>2010-08-11T07:28:52Z</time>
 </trkpt>
 <trkpt lat="47.383953" lon="12.417852">
 <ele>910.71</ele>
 <time>2010-08-11T07:29:03Z</time>
 </trkpt>
 <trkpt lat="47.383743" lon="12.417939">
 <ele>912.19</ele>
 <time>2010-08-11T07:29:12Z</time>
 </trkpt>
 <trkpt lat="47.383537" lon="12.418023">
 <ele>913.17</ele>
 <time>2010-08-11T07:29:21Z</time>
 </trkpt>
 <trkpt lat="47.383320" lon="12.418111">
 <ele>914.86</ele>
 <time>2010-08-11T07:29:31Z</time>
 </trkpt>
 <trkpt lat="47.383080" lon="12.418209">
 <ele>916.06</ele>
 <time>2010-08-11T07:29:42Z</time>
 </trkpt>
 <trkpt lat="47.382851" lon="12.418302">
 <ele>917.76</ele>
 <time>2010-08-11T07:29:52Z</time>
 </trkpt>
 <trkpt lat="47.382607" lon="12.418403">
 <ele>918.90</ele>
 <time>2010-08-11T07:30:03Z</time>
 </trkpt>
 <trkpt lat="47.382355" lon="12.418505">
 <ele>920.45</ele>
 <time>2010-08-11T07:30:14Z</time>
 </trkpt>
 <trkpt lat="47.382095" lon="12.418611">
 <ele>921.81</ele>
 <time>2010-08-11T07:30:25Z</time>
 </trkpt>
 <trkpt lat="47.381840" lon="12.418715">
 <ele>923.11</ele>
 <time>2010-08-11T07:30:36Z</time>
 </trkpt>
 <trkpt lat="47.381611" lon="12.418810">
 <ele>924.51</ele>
 <time>2010-08-11T07:30:46Z</time>
 </trkpt>
 <trkpt lat="47.381306" lon="12.418935">
 <ele>925.99</ele>
 <time>2010-08-11T07:30:59Z</time>
 </trkpt>
 <trkpt lat="47.381088" lon="12.419023">
 <ele>927.00</ele>
 <time>2010-08-11T07:31:08Z</time>
 </trkpt>
 <trkpt lat="47.380791" lon="12.419145">
 <ele>929.18</ele>
 <time>2010-08-11T07:31:21Z</time>
 </trkpt>
 <trkpt lat="47.380669" lon="12.420198">
 <ele>930.76</ele>
 <time>2010-08-11T07:31:31Z</time>
 </trkpt>
 <trkpt lat="47.380482" lon="12.420246">
 <ele>932.09</ele>
 <time>2010-08-11T07:31:39Z</time>
 </trkpt>
 <trkpt lat="47.380302" lon="12.420290">
 <ele>932.89</ele>
 <time>2010-08-11T07:31:47Z</time>
 </trkpt>
 <trkpt lat="47.380108" lon="12.420339">
 <ele>934.06</ele>
 <time>2010-08-11T07:31:56Z</time>
 </trkpt>
 <trkpt lat="47.380062" lon="12.420351">
 <ele>934.20</ele>
 <time>2010-08-11T07:31:58Z</time>
 </trkpt>
 <trkpt lat="47.380035" lon="12.420357">
 <ele>934.28</ele>
 <time>2010-08-11T07:31:59Z</time>
 </trkpt>
 <trkpt lat="47.379955" lon="12.420377">
 <ele>934.26</ele>
 <time>2010-08-11T07:32:02Z</time>
 </trkpt>
 <trkpt lat="47.379875" lon="12.420397">
 <ele>934.68</ele>
 <time>2010-08-11T07:32:06Z</time>
 </trkpt>
 <trkpt lat="47.379593" lon="12.419443">
 <ele>935.12</ele>
 <time>2010-08-11T07:32:12Z</time>
 </trkpt>
 <trkpt lat="47.379311" lon="12.419443">
 <ele>935.36</ele>
 <time>2010-08-11T07:32:21Z</time>
 </trkpt>
 <trkpt lat="47.379189" lon="12.419433">
 <ele>935.64</ele>
 <time>2010-08-11T07:32:26Z</time>
 </trkpt>
 <trkpt lat="47.378971" lon="12.419415">
 <ele>935.95</ele>
 <time>2010-08-11T07:32:33Z</time>
 </trkpt>
 <trkpt lat="47.378628" lon="12.419387">
 <ele>936.25</ele>
 <time>2010-08-11T07:32:43Z</time>
 </trkpt>
 <trkpt lat="47.378185" lon="12.419355">
 <ele>936.59</ele>
 <time>2010-08-11T07:32:55Z</time>
 </trkpt>
 <trkpt lat="47.377865" lon="12.419342">
 <ele>936.55</ele>
 <time>2010-08-11T07:33:04Z</time>
 </trkpt>
 <trkpt lat="47.377563" lon="12.419331">
 <ele>936.93</ele>
 <time>2010-08-11T07:33:12Z</time>
 </trkpt>
 <trkpt lat="47.377174" lon="12.419317">
 <ele>936.62</ele>
 <time>2010-08-11T07:33:21Z</time>
 </trkpt>
 <trkpt lat="47.376682" lon="12.419298">
 <ele>936.22</ele>
 <time>2010-08-11T07:33:31Z</time>
 </trkpt>
 <trkpt lat="47.376102" lon="12.419276">
 <ele>937.02</ele>
 <time>2010-08-11T07:33:43Z</time>
 </trkpt>
 <trkpt lat="47.375599" lon="12.419258">
 <ele>937.89</ele>
 <time>2010-08-11T07:33:54Z</time>
 </trkpt>
 <trkpt lat="47.375263" lon="12.419245">
 <ele>938.71</ele>
 <time>2010-08-11T07:34:02Z</time>
 </trkpt>
 <trkpt lat="47.374886" lon="12.419231">
 <ele>940.43</ele>
 <time>2010-08-11T07:34:12Z</time>
 </trkpt>
 <trkpt lat="47.374557" lon="12.419219">
 <ele>941.42</ele>
 <time>2010-08-11T07:34:21Z</time>
 </trkpt>
 <trkpt lat="47.374306" lon="12.419209">
 <ele>942.63</ele>
 <time>2010-08-11T07:34:28Z</time>
 </trkpt>
 <trkpt lat="47.374084" lon="12.419191">
 <ele>943.16</ele>
 <time>2010-08-11T07:34:34Z</time>
 </trkpt>
 <trkpt lat="47.373737" lon="12.419159">
 <ele>943.91</ele>
 <time>2010-08-11T07:34:44Z</time>
 </trkpt>
 <trkpt lat="47.373444" lon="12.419131">
 <ele>945.26</ele>
 <time>2010-08-11T07:34:53Z</time>
 </trkpt>
 <trkpt lat="47.373283" lon="12.419116">
 <ele>946.24</ele>
 <time>2010-08-11T07:35:00Z</time>
 </trkpt>
 <trkpt lat="47.373196" lon="12.419108">
 <ele>946.48</ele>
 <time>2010-08-11T07:35:06Z</time>
 </trkpt>
 <trkpt lat="47.372944" lon="12.419008">
 <ele>947.44</ele>
 <time>2010-08-11T07:35:15Z</time>
 </trkpt>
 <trkpt lat="47.372677" lon="12.418863">
 <ele>948.32</ele>
 <time>2010-08-11T07:35:24Z</time>
 </trkpt>
 <trkpt lat="47.372440" lon="12.418693">
 <ele>948.89</ele>
 <time>2010-08-11T07:35:32Z</time>
 </trkpt>
 <trkpt lat="47.372204" lon="12.418503">
 <ele>949.30</ele>
 <time>2010-08-11T07:35:41Z</time>
 </trkpt>
 <trkpt lat="47.371952" lon="12.418297">
 <ele>950.10</ele>
 <time>2010-08-11T07:35:50Z</time>
 </trkpt>
 <trkpt lat="47.371723" lon="12.418114">
 <ele>950.92</ele>
 <time>2010-08-11T07:35:58Z</time>
 </trkpt>
 <trkpt lat="47.371441" lon="12.417881">
 <ele>951.49</ele>
 <time>2010-08-11T07:36:08Z</time>
 </trkpt>
 <trkpt lat="47.371040" lon="12.417559">
 <ele>952.65</ele>
 <time>2010-08-11T07:36:20Z</time>
 </trkpt>
 <trkpt lat="47.370567" lon="12.417173">
 <ele>952.99</ele>
 <time>2010-08-11T07:36:33Z</time>
 </trkpt>
 <trkpt lat="47.370071" lon="12.416772">
 <ele>953.41</ele>
 <time>2010-08-11T07:36:45Z</time>
 </trkpt>
 <trkpt lat="47.369637" lon="12.416418">
 <ele>954.50</ele>
 <time>2010-08-11T07:36:56Z</time>
 </trkpt>
 <trkpt lat="47.369221" lon="12.416335">
 <ele>955.03</ele>
 <time>2010-08-11T07:37:05Z</time>
 </trkpt>
 <trkpt lat="47.368801" lon="12.416251">
 <ele>956.36</ele>
 <time>2010-08-11T07:37:15Z</time>
 </trkpt>
 <trkpt lat="47.368210" lon="12.416138">
 <ele>957.99</ele>
 <time>2010-08-11T07:37:29Z</time>
 </trkpt>
 <trkpt lat="47.368038" lon="12.416132">
 <ele>958.43</ele>
 <time>2010-08-11T07:37:33Z</time>
 </trkpt>
 <trkpt lat="47.367577" lon="12.416116">
 <ele>959.68</ele>
 <time>2010-08-11T07:37:44Z</time>
 </trkpt>
 <trkpt lat="47.367290" lon="12.416105">
 <ele>960.60</ele>
 <time>2010-08-11T07:37:51Z</time>
 </trkpt>
 <trkpt lat="47.366863" lon="12.416091">
 <ele>961.68</ele>
 <time>2010-08-11T07:38:01Z</time>
 </trkpt>
 <trkpt lat="47.366405" lon="12.416075">
 <ele>962.78</ele>
 <time>2010-08-11T07:38:12Z</time>
 </trkpt>
 <trkpt lat="47.365948" lon="12.415792">
 <ele>964.63</ele>
 <time>2010-08-11T07:38:24Z</time>
 </trkpt>
 <trkpt lat="47.365517" lon="12.415522">
 <ele>966.32</ele>
 <time>2010-08-11T07:38:36Z</time>
 </trkpt>
 <trkpt lat="47.365475" lon="12.415494">
 <ele>966.73</ele>
 <time>2010-08-11T07:38:40Z</time>
 </trkpt>
 <trkpt lat="47.365459" lon="12.415485">
 <ele>966.63</ele>
 <time>2010-08-11T07:38:47Z</time>
 </trkpt>
 <trkpt lat="47.365475" lon="12.415495">
 <ele>967.02</ele>
 <time>2010-08-11T07:38:54Z</time>
 </trkpt>
 <trkpt lat="47.365475" lon="12.415495">
 <ele>967.04</ele>
 <time>2010-08-11T07:38:56Z</time>
 </trkpt>
 <trkpt lat="47.365475" lon="12.415495">
 <ele>967.28</ele>
 <time>2010-08-11T07:39:32Z</time>
 </trkpt>
 <trkpt lat="47.365475" lon="12.415495">
 <ele>967.36</ele>
 <time>2010-08-11T07:39:36Z</time>
 </trkpt>
 <trkpt lat="47.365417" lon="12.415516">
 <ele>968.06</ele>
 <time>2010-08-11T07:41:18Z</time>
 </trkpt>
 <trkpt lat="47.365337" lon="12.415408">
 <ele>968.53</ele>
 <time>2010-08-11T07:41:27Z</time>
 </trkpt>
 <trkpt lat="47.365082" lon="12.415249">
 <ele>969.29</ele>
 <time>2010-08-11T07:41:36Z</time>
 </trkpt>
 <trkpt lat="47.364761" lon="12.415046">
 <ele>970.46</ele>
 <time>2010-08-11T07:41:46Z</time>
 </trkpt>
 <trkpt lat="47.364491" lon="12.414877">
 <ele>971.42</ele>
 <time>2010-08-11T07:41:54Z</time>
 </trkpt>
 <trkpt lat="47.364185" lon="12.414683">
 <ele>971.97</ele>
 <time>2010-08-11T07:42:03Z</time>
 </trkpt>
 <trkpt lat="47.363693" lon="12.414374">
 <ele>973.30</ele>
 <time>2010-08-11T07:42:17Z</time>
 </trkpt>
 <trkpt lat="47.363407" lon="12.414194">
 <ele>974.43</ele>
 <time>2010-08-11T07:42:25Z</time>
 </trkpt>
 <trkpt lat="47.363091" lon="12.413995">
 <ele>975.32</ele>
 <time>2010-08-11T07:42:34Z</time>
 </trkpt>
 <trkpt lat="47.362720" lon="12.413859">
 <ele>976.59</ele>
 <time>2010-08-11T07:42:44Z</time>
 </trkpt>
 <trkpt lat="47.362499" lon="12.413800">
 <ele>976.90</ele>
 <time>2010-08-11T07:42:50Z</time>
 </trkpt>
 <trkpt lat="47.362064" lon="12.413685">
 <ele>978.13</ele>
 <time>2010-08-11T07:43:02Z</time>
 </trkpt>
 <trkpt lat="47.361618" lon="12.413692">
 <ele>979.23</ele>
 <time>2010-08-11T07:43:14Z</time>
 </trkpt>
 <trkpt lat="47.361240" lon="12.413743">
 <ele>980.42</ele>
 <time>2010-08-11T07:43:24Z</time>
 </trkpt>
 <trkpt lat="47.360828" lon="12.413798">
 <ele>981.80</ele>
 <time>2010-08-11T07:43:35Z</time>
 </trkpt>
 <trkpt lat="47.360264" lon="12.413874">
 <ele>983.30</ele>
 <time>2010-08-11T07:43:50Z</time>
 </trkpt>
 <trkpt lat="47.359741" lon="12.413944">
 <ele>984.91</ele>
 <time>2010-08-11T07:44:04Z</time>
 </trkpt>
 <trkpt lat="47.359341" lon="12.413990">
 <ele>986.43</ele>
 <time>2010-08-11T07:44:15Z</time>
 </trkpt>
 <trkpt lat="47.358944" lon="12.413955">
 <ele>988.07</ele>
 <time>2010-08-11T07:44:26Z</time>
 </trkpt>
 <trkpt lat="47.358402" lon="12.413908">
 <ele>990.23</ele>
 <time>2010-08-11T07:44:41Z</time>
 </trkpt>
 <trkpt lat="47.357941" lon="12.413794">
 <ele>992.20</ele>
 <time>2010-08-11T07:44:54Z</time>
 </trkpt>
 <trkpt lat="47.357525" lon="12.413690">
 <ele>993.90</ele>
 <time>2010-08-11T07:45:06Z</time>
 </trkpt>
 <trkpt lat="47.357208" lon="12.413634">
 <ele>995.45</ele>
 <time>2010-08-11T07:45:15Z</time>
 </trkpt>
 <trkpt lat="47.356815" lon="12.413667">
 <ele>997.22</ele>
 <time>2010-08-11T07:45:26Z</time>
 </trkpt>
 <trkpt lat="47.356411" lon="12.413728">
 <ele>997.96</ele>
 <time>2010-08-11T07:45:37Z</time>
 </trkpt>
 <trkpt lat="47.355946" lon="12.413907">
 <ele>999.64</ele>
 <time>2010-08-11T07:45:50Z</time>
 </trkpt>
 <trkpt lat="47.355476" lon="12.414087">
 <ele>1000.92</ele>
 <time>2010-08-11T07:46:03Z</time>
 </trkpt>
 <trkpt lat="47.355148" lon="12.414131">
 <ele>1001.85</ele>
 <time>2010-08-11T07:46:12Z</time>
 </trkpt>
 <trkpt lat="47.354870" lon="12.414141">
 <ele>1002.66</ele>
 <time>2010-08-11T07:46:20Z</time>
 </trkpt>
 <trkpt lat="47.354698" lon="12.414147">
 <ele>1003.21</ele>
 <time>2010-08-11T07:46:26Z</time>
 </trkpt>
 <trkpt lat="47.354698" lon="12.414147">
 <ele>1003.34</ele>
 <time>2010-08-11T07:46:28Z</time>
 </trkpt>
 <trkpt lat="47.354641" lon="12.414150">
 <ele>1003.39</ele>
 <time>2010-08-11T07:46:34Z</time>
 </trkpt>
 <trkpt lat="47.354446" lon="12.414157">
 <ele>1003.81</ele>
 <time>2010-08-11T07:46:40Z</time>
 </trkpt>
 <trkpt lat="47.354076" lon="12.414116">
 <ele>1004.95</ele>
 <time>2010-08-11T07:46:50Z</time>
 </trkpt>
 <trkpt lat="47.354012" lon="12.414096">
 <ele>1005.34</ele>
 <time>2010-08-11T07:46:54Z</time>
 </trkpt>
 <trkpt lat="47.353947" lon="12.414200">
 <ele>993.57</ele>
 <time>1970-01-01T00:00:00Z</time>
 </trkpt>
 <trkpt lat="47.353856" lon="12.414054">
 <ele>997.26</ele>
 <time>1970-01-01T00:00:00Z</time>
 </trkpt>
 <trkpt lat="47.353725" lon="12.414186">
 <ele>988.46</ele>
 <time>1970-01-01T00:00:00Z</time>
 </trkpt>
 <trkpt lat="47.353316" lon="12.414066">
 <ele>1000.26</ele>
 <time>1970-01-01T00:00:00Z</time>
 </trkpt>
 <trkpt lat="47.353032" lon="12.414001">
 <ele>997.19</ele>
 <time>1970-01-01T00:00:00Z</time>
 </trkpt>
 <trkpt lat="47.352528" lon="12.413875">
 <ele>997.09</ele>
 <time>1970-01-01T00:00:00Z</time>
 </trkpt>
 <trkpt lat="47.351990" lon="12.413793">
 <ele>993.67</ele>
 <time>1970-01-01T00:00:00Z</time>
 </trkpt>
 <trkpt lat="47.351548" lon="12.413718">
 <ele>994.16</ele>
 <time>1970-01-01T00:00:00Z</time>
 </trkpt>
 <trkpt lat="47.351143" lon="12.413458">
 <ele>997.12</ele>
 <time>1970-01-01T00:00:00Z</time>
 </trkpt>
 <trkpt lat="47.350673" lon="12.413241">
 <ele>1002.63</ele>
 <time>1970-01-01T00:00:00Z</time>
 </trkpt>
 <trkpt lat="47.350234" lon="12.413073">
 <ele>1001.88</ele>
 <time>1970-01-01T00:00:00Z</time>
 </trkpt>
 <trkpt lat="47.349703" lon="12.412758">
 <ele>1008.02</ele>
 <time>1970-01-01T00:00:00Z</time>
 </trkpt>
 <trkpt lat="47.349354" lon="12.412735">
 <ele>1006.05</ele>
 <time>1970-01-01T00:00:00Z</time>
 </trkpt>
 <trkpt lat="47.349010" lon="12.412965">
 <ele>1020.50</ele>
 <time>2010-08-11T07:50:16Z</time>
 </trkpt>
 <trkpt lat="47.348568" lon="12.412760">
 <ele>1021.41</ele>
 <time>2010-08-11T07:50:28Z</time>
 </trkpt>
 <trkpt lat="47.348156" lon="12.412571">
 <ele>1022.34</ele>
 <time>2010-08-11T07:50:39Z</time>
 </trkpt>
 <trkpt lat="47.347763" lon="12.412389">
 <ele>1023.37</ele>
 <time>2010-08-11T07:50:49Z</time>
 </trkpt>
 <trkpt lat="47.347294" lon="12.412171">
 <ele>1024.70</ele>
 <time>2010-08-11T07:51:02Z</time>
 </trkpt>
 <trkpt lat="47.346940" lon="12.411692">
 <ele>1013.21</ele>
 <time>1970-01-01T00:00:00Z</time>
 </trkpt>
 <trkpt lat="47.346538" lon="12.411339">
 <ele>1012.28</ele>
 <time>1970-01-01T00:00:00Z</time>
 </trkpt>
 <trkpt lat="47.346101" lon="12.411077">
 <ele>1014.96</ele>
 <time>1970-01-01T00:00:00Z</time>
 </trkpt>
 <trkpt lat="47.345631" lon="12.410860">
 <ele>1018.66</ele>
 <time>1970-01-01T00:00:00Z</time>
 </trkpt>
 <trkpt lat="47.345222" lon="12.410740">
 <ele>1018.72</ele>
 <time>1970-01-01T00:00:00Z</time>
 </trkpt>
 <trkpt lat="47.344781" lon="12.410618">
 <ele>1019.90</ele>
 <time>1970-01-01T00:00:00Z</time>
 </trkpt>
 <trkpt lat="47.344566" lon="12.410914">
 <ele>1033.80</ele>
 <time>2010-08-11T07:52:18Z</time>
 </trkpt>
 <trkpt lat="47.344135" lon="12.410715">
 <ele>1034.69</ele>
 <time>2010-08-11T07:52:30Z</time>
 </trkpt>
 <trkpt lat="47.343761" lon="12.410541">
 <ele>1035.96</ele>
 <time>2010-08-11T07:52:40Z</time>
 </trkpt>
 <trkpt lat="47.343349" lon="12.410351">
 <ele>1036.92</ele>
 <time>2010-08-11T07:52:51Z</time>
 </trkpt>
 <trkpt lat="47.342888" lon="12.410138">
 <ele>1038.31</ele>
 <time>2010-08-11T07:53:03Z</time>
 </trkpt>
 <trkpt lat="47.342464" lon="12.409944">
 <ele>1039.44</ele>
 <time>2010-08-11T07:53:14Z</time>
 </trkpt>
 <trkpt lat="47.342010" lon="12.409734">
 <ele>1041.00</ele>
 <time>2010-08-11T07:53:26Z</time>
 </trkpt>
 <trkpt lat="47.341633" lon="12.409559">
 <ele>1042.21</ele>
 <time>2010-08-11T07:53:36Z</time>
 </trkpt>
 <trkpt lat="47.341190" lon="12.409355">
 <ele>1043.84</ele>
 <time>2010-08-11T07:53:48Z</time>
 </trkpt>
 <trkpt lat="47.340744" lon="12.409149">
 <ele>1045.20</ele>
 <time>2010-08-11T07:54:00Z</time>
 </trkpt>
 <trkpt lat="47.340385" lon="12.408983">
 <ele>1046.44</ele>
 <time>2010-08-11T07:54:10Z</time>
 </trkpt>
 <trkpt lat="47.339956" lon="12.408438">
 <ele>1031.62</ele>
 <time>1970-01-01T00:00:00Z</time>
 </trkpt>
 <trkpt lat="47.339487" lon="12.408175">
 <ele>1036.96</ele>
 <time>1970-01-01T00:00:00Z</time>
 </trkpt>
 <trkpt lat="47.339076" lon="12.408101">
 <ele>1042.94</ele>
 <time>1970-01-01T00:00:00Z</time>
 </trkpt>
 <trkpt lat="47.338543" lon="12.407880">
 <ele>1041.26</ele>
 <time>1970-01-01T00:00:00Z</time>
 </trkpt>
 <trkpt lat="47.338196" lon="12.407811">
 <ele>1042.63</ele>
 <time>1970-01-01T00:00:00Z</time>
 </trkpt>
 <trkpt lat="47.337879" lon="12.407826">
 <ele>1053.87</ele>
 <time>2010-08-11T07:55:19Z</time>
 </trkpt>
 <trkpt lat="47.337479" lon="12.407642">
 <ele>1055.19</ele>
 <time>2010-08-11T07:55:30Z</time>
 </trkpt>
 <trkpt lat="47.337074" lon="12.407455">
 <ele>1055.94</ele>
 <time>2010-08-11T07:55:41Z</time>
 </trkpt>
 <trkpt lat="47.336609" lon="12.407240">
 <ele>1057.29</ele>
 <time>2010-08-11T07:55:54Z</time>
 </trkpt>
 <trkpt lat="47.336258" lon="12.407079">
 <ele>1058.44</ele>
 <time>2010-08-11T07:56:05Z</time>
 </trkpt>
 <trkpt lat="47.335987" lon="12.406954">
 <ele>1059.90</ele>
 <time>2010-08-11T07:56:14Z</time>
 </trkpt>
 <trkpt lat="47.335606" lon="12.406777">
 <ele>1061.71</ele>
 <time>2010-08-11T07:56:27Z</time>
 </trkpt>
 <trkpt lat="47.335327" lon="12.406649">
 <ele>1063.10</ele>
 <time>2010-08-11T07:56:39Z</time>
 </trkpt>
 <trkpt lat="47.335094" lon="12.406541">
 <ele>1064.80</ele>
 <time>2010-08-11T07:56:50Z</time>
 </trkpt>
 <trkpt lat="47.334801" lon="12.406406">
 <ele>1066.81</ele>
 <time>2010-08-11T07:57:04Z</time>
 </trkpt>
 <trkpt lat="47.334484" lon="12.406424">
 <ele>1068.63</ele>
 <time>2010-08-11T07:57:16Z</time>
 </trkpt>
 <trkpt lat="47.334328" lon="12.406578">
 <ele>1070.39</ele>
 <time>2010-08-11T07:57:27Z</time>
 </trkpt>
 <trkpt lat="47.334187" lon="12.406721">
 <ele>1072.22</ele>
 <time>2010-08-11T07:57:37Z</time>
 </trkpt>
 <trkpt lat="47.334037" lon="12.406673">
 <ele>1042.95</ele>
 <time>1970-01-01T00:00:00Z</time>
 </trkpt>
 <trkpt lat="47.333748" lon="12.406794">
 <ele>1048.34</ele>
 <time>1970-01-01T00:00:00Z</time>
 </trkpt>
 <trkpt lat="47.333461" lon="12.406822">
 <ele>1050.70</ele>
 <time>1970-01-01T00:00:00Z</time>
 </trkpt>
 <trkpt lat="47.333330" lon="12.406954">
 <ele>1054.71</ele>
 <time>1970-01-01T00:00:00Z</time>
 </trkpt>
 <trkpt lat="47.333104" lon="12.407080">
 <ele>1058.89</ele>
 <time>1970-01-01T00:00:00Z</time>
 </trkpt>
 <trkpt lat="47.332914" lon="12.407067">
 <ele>1060.44</ele>
 <time>1970-01-01T00:00:00Z</time>
 </trkpt>
 <trkpt lat="47.332497" lon="12.407106">
 <ele>1083.52</ele>
 <time>2010-08-11T07:58:59Z</time>
 </trkpt>
 <trkpt lat="47.332298" lon="12.407275">
 <ele>1085.28</ele>
 <time>2010-08-11T07:59:10Z</time>
 </trkpt>
 <trkpt lat="47.332050" lon="12.407426">
 <ele>1086.76</ele>
 <time>2010-08-11T07:59:22Z</time>
 </trkpt>
 <trkpt lat="47.331787" lon="12.407480">
 <ele>1089.23</ele>
 <time>2010-08-11T07:59:35Z</time>
 </trkpt>
 <trkpt lat="47.331562" lon="12.407527">
 <ele>1090.71</ele>
 <time>2010-08-11T07:59:46Z</time>
 </trkpt>
 <trkpt lat="47.331299" lon="12.407528">
 <ele>1092.42</ele>
 <time>2010-08-11T07:59:58Z</time>
 </trkpt>
 <trkpt lat="47.331085" lon="12.407481">
 <ele>1094.52</ele>
 <time>2010-08-11T08:00:08Z</time>
 </trkpt>
 <trkpt lat="47.330853" lon="12.407428">
 <ele>1095.81</ele>
 <time>2010-08-11T08:00:19Z</time>
 </trkpt>
 <trkpt lat="47.330608" lon="12.407373">
 <ele>1097.72</ele>
 <time>2010-08-11T08:00:31Z</time>
 </trkpt>
 <trkpt lat="47.330334" lon="12.407292">
 <ele>1099.91</ele>
 <time>2010-08-11T08:00:45Z</time>
 </trkpt>
 <trkpt lat="47.330101" lon="12.407221">
 <ele>1101.90</ele>
 <time>2010-08-11T08:00:57Z</time>
 </trkpt>
 <trkpt lat="47.329845" lon="12.407141">
 <ele>1103.64</ele>
 <time>2010-08-11T08:01:10Z</time>
 </trkpt>
 <trkpt lat="47.329624" lon="12.407072">
 <ele>1105.10</ele>
 <time>2010-08-11T08:01:21Z</time>
 </trkpt>
 <trkpt lat="47.329357" lon="12.406991">
 <ele>1107.12</ele>
 <time>2010-08-11T08:01:34Z</time>
 </trkpt>
 <trkpt lat="47.329071" lon="12.406902">
 <ele>1109.44</ele>
 <time>2010-08-11T08:01:48Z</time>
 </trkpt>
 <trkpt lat="47.328869" lon="12.406838">
 <ele>1110.91</ele>
 <time>2010-08-11T08:01:58Z</time>
 </trkpt>
 <trkpt lat="47.328629" lon="12.406765">
 <ele>1112.80</ele>
 <time>2010-08-11T08:02:10Z</time>
 </trkpt>
 <trkpt lat="47.328411" lon="12.406722">
 <ele>1114.25</ele>
 <time>2010-08-11T08:02:21Z</time>
 </trkpt>
 <trkpt lat="47.328110" lon="12.406739">
 <ele>1116.33</ele>
 <time>2010-08-11T08:02:36Z</time>
 </trkpt>
 <trkpt lat="47.327866" lon="12.406752">
 <ele>1117.96</ele>
 <time>2010-08-11T08:02:48Z</time>
 </trkpt>
 <trkpt lat="47.327641" lon="12.406772">
 <ele>1119.79</ele>
 <time>2010-08-11T08:02:59Z</time>
 </trkpt>
 <trkpt lat="47.327393" lon="12.406827">
 <ele>1120.98</ele>
 <time>2010-08-11T08:03:11Z</time>
 </trkpt>
 <trkpt lat="47.327118" lon="12.406889">
 <ele>1122.79</ele>
 <time>2010-08-11T08:03:24Z</time>
 </trkpt>
 <trkpt lat="47.326805" lon="12.406959">
 <ele>1125.05</ele>
 <time>2010-08-11T08:03:39Z</time>
 </trkpt>
 <trkpt lat="47.326534" lon="12.407004">
 <ele>1126.86</ele>
 <time>2010-08-11T08:03:52Z</time>
 </trkpt>
 <trkpt lat="47.326283" lon="12.407019">
 <ele>1128.34</ele>
 <time>2010-08-11T08:04:04Z</time>
 </trkpt>
 <trkpt lat="47.326073" lon="12.406975">
 <ele>1130.10</ele>
 <time>2010-08-11T08:04:14Z</time>
 </trkpt>
 <trkpt lat="47.325825" lon="12.406886">
 <ele>1131.76</ele>
 <time>2010-08-11T08:04:26Z</time>
 </trkpt>
 <trkpt lat="47.325596" lon="12.406703">
 <ele>1133.63</ele>
 <time>2010-08-11T08:04:38Z</time>
 </trkpt>
 <trkpt lat="47.325401" lon="12.406614">
 <ele>1134.35</ele>
 <time>2010-08-11T08:04:47Z</time>
 </trkpt>
 <trkpt lat="47.325230" lon="12.406608">
 <ele>1134.97</ele>
 <time>2010-08-11T08:04:54Z</time>
 </trkpt>
 <trkpt lat="47.325108" lon="12.406718">
 <ele>1135.65</ele>
 <time>2010-08-11T08:05:00Z</time>
 </trkpt>
 <trkpt lat="47.325062" lon="12.406942">
 <ele>1136.54</ele>
 <time>2010-08-11T08:05:06Z</time>
 </trkpt>
 <trkpt lat="47.325100" lon="12.407138">
 <ele>1136.75</ele>
 <time>2010-08-11T08:05:12Z</time>
 </trkpt>
 <trkpt lat="47.325172" lon="12.407262">
 <ele>1137.02</ele>
 <time>2010-08-11T08:05:17Z</time>
 </trkpt>
 <trkpt lat="47.325417" lon="12.407360">
 <ele>1137.60</ele>
 <time>2010-08-11T08:05:25Z</time>
 </trkpt>
 <trkpt lat="47.325653" lon="12.407455">
 <ele>1138.56</ele>
 <time>2010-08-11T08:05:34Z</time>
 </trkpt>
 <trkpt lat="47.325932" lon="12.407567">
 <ele>1140.18</ele>
 <time>2010-08-11T08:05:46Z</time>
 </trkpt>
 <trkpt lat="47.326176" lon="12.407677">
 <ele>1142.10</ele>
 <time>2010-08-11T08:05:57Z</time>
 </trkpt>
 <trkpt lat="47.326488" lon="12.407878">
 <ele>1144.37</ele>
 <time>2010-08-11T08:06:12Z</time>
 </trkpt>
 <trkpt lat="47.326801" lon="12.408077">
 <ele>1145.63</ele>
 <time>2010-08-11T08:06:27Z</time>
 </trkpt>
 <trkpt lat="47.327015" lon="12.408266">
 <ele>1147.73</ele>
 <time>2010-08-11T08:06:38Z</time>
 </trkpt>
 <trkpt lat="47.327209" lon="12.408479">
 <ele>1150.18</ele>
 <time>2010-08-11T08:06:49Z</time>
 </trkpt>
 <trkpt lat="47.327423" lon="12.408708">
 <ele>1151.74</ele>
 <time>2010-08-11T08:07:01Z</time>
 </trkpt>
 <trkpt lat="47.327644" lon="12.408873">
 <ele>1154.23</ele>
 <time>2010-08-11T08:07:12Z</time>
 </trkpt>
 <trkpt lat="47.327904" lon="12.409062">
 <ele>1156.31</ele>
 <time>2010-08-11T08:07:25Z</time>
 </trkpt>
 <trkpt lat="47.328129" lon="12.409163">
 <ele>1158.15</ele>
 <time>2010-08-11T08:07:36Z</time>
 </trkpt>
 <trkpt lat="47.328362" lon="12.409204">
 <ele>1159.54</ele>
 <time>2010-08-11T08:07:47Z</time>
 </trkpt>
 <trkpt lat="47.328602" lon="12.409189">
 <ele>1161.31</ele>
 <time>2010-08-11T08:07:58Z</time>
 </trkpt>
 <trkpt lat="47.328835" lon="12.409125">
 <ele>1162.99</ele>
 <time>2010-08-11T08:08:09Z</time>
 </trkpt>
 <trkpt lat="47.329029" lon="12.409038">
 <ele>1164.43</ele>
 <time>2010-08-11T08:08:18Z</time>
 </trkpt>
 <trkpt lat="47.329258" lon="12.408870">
 <ele>1165.54</ele>
 <time>2010-08-11T08:08:29Z</time>
 </trkpt>
 <trkpt lat="47.329414" lon="12.408806">
 <ele>1166.11</ele>
 <time>2010-08-11T08:08:35Z</time>
 </trkpt>
 <trkpt lat="47.329521" lon="12.408867">
 <ele>1166.24</ele>
 <time>2010-08-11T08:08:40Z</time>
 </trkpt>
 <trkpt lat="47.329586" lon="12.409235">
 <ele>1166.93</ele>
 <time>2010-08-11T08:08:45Z</time>
 </trkpt>
 <trkpt lat="47.329353" lon="12.409415">
 <ele>1167.92</ele>
 <time>2010-08-11T08:08:52Z</time>
 </trkpt>
 <trkpt lat="47.329102" lon="12.409496">
 <ele>1169.29</ele>
 <time>2010-08-11T08:09:02Z</time>
 </trkpt>
 <trkpt lat="47.328796" lon="12.409593">
 <ele>1171.18</ele>
 <time>2010-08-11T08:09:15Z</time>
 </trkpt>
 <trkpt lat="47.328541" lon="12.409672">
 <ele>1172.66</ele>
 <time>2010-08-11T08:09:26Z</time>
 </trkpt>
 <trkpt lat="47.328182" lon="12.409771">
 <ele>1175.11</ele>
 <time>2010-08-11T08:09:41Z</time>
 </trkpt>
 <trkpt lat="47.327904" lon="12.409840">
 <ele>1176.91</ele>
 <time>2010-08-11T08:09:53Z</time>
 </trkpt>
 <trkpt lat="47.327686" lon="12.409895">
 <ele>1178.66</ele>
 <time>2010-08-11T08:10:03Z</time>
 </trkpt>
 <trkpt lat="47.327541" lon="12.409931">
 <ele>1179.46</ele>
 <time>2010-08-11T08:10:10Z</time>
 </trkpt>
 <trkpt lat="47.327320" lon="12.409978">
 <ele>1180.80</ele>
 <time>2010-08-11T08:10:20Z</time>
 </trkpt>
 <trkpt lat="47.327110" lon="12.409954">
 <ele>1182.41</ele>
 <time>2010-08-11T08:10:29Z</time>
 </trkpt>
 <trkpt lat="47.326824" lon="12.409923">
 <ele>1184.07</ele>
 <time>2010-08-11T08:10:41Z</time>
 </trkpt>
 <trkpt lat="47.326492" lon="12.409881">
 <ele>1186.18</ele>
 <time>2010-08-11T08:10:55Z</time>
 </trkpt>
 <trkpt lat="47.326180" lon="12.409826">
 <ele>1188.03</ele>
 <time>2010-08-11T08:11:09Z</time>
 </trkpt>
 <trkpt lat="47.325874" lon="12.409773">
 <ele>1190.15</ele>
 <time>2010-08-11T08:11:22Z</time>
 </trkpt>
 <trkpt lat="47.325581" lon="12.409721">
 <ele>1191.93</ele>
 <time>2010-08-11T08:11:34Z</time>
 </trkpt>
 <trkpt lat="47.325325" lon="12.409676">
 <ele>1193.74</ele>
 <time>2010-08-11T08:11:45Z</time>
 </trkpt>
 <trkpt lat="47.325027" lon="12.409623">
 <ele>1195.52</ele>
 <time>2010-08-11T08:11:58Z</time>
 </trkpt>
 <trkpt lat="47.324738" lon="12.409609">
 <ele>1197.57</ele>
 <time>2010-08-11T08:12:11Z</time>
 </trkpt>
 <trkpt lat="47.324421" lon="12.409601">
 <ele>1199.67</ele>
 <time>2010-08-11T08:12:25Z</time>
 </trkpt>
 <trkpt lat="47.324158" lon="12.409594">
 <ele>1200.72</ele>
 <time>2010-08-11T08:12:37Z</time>
 </trkpt>
 <trkpt lat="47.323822" lon="12.409585">
 <ele>1203.26</ele>
 <time>2010-08-11T08:12:52Z</time>
 </trkpt>
 <trkpt lat="47.323505" lon="12.409577">
 <ele>1204.88</ele>
 <time>2010-08-11T08:13:06Z</time>
 </trkpt>
 <trkpt lat="47.323242" lon="12.409585">
 <ele>1206.52</ele>
 <time>2010-08-11T08:13:17Z</time>
 </trkpt>
 <trkpt lat="47.322990" lon="12.409621">
 <ele>1208.73</ele>
 <time>2010-08-11T08:13:28Z</time>
 </trkpt>
 <trkpt lat="47.322765" lon="12.409653">
 <ele>1209.84</ele>
 <time>2010-08-11T08:13:38Z</time>
 </trkpt>
 <trkpt lat="47.322479" lon="12.409694">
 <ele>1211.72</ele>
 <time>2010-08-11T08:13:51Z</time>
 </trkpt>
 <trkpt lat="47.322243" lon="12.409728">
 <ele>1213.39</ele>
 <time>2010-08-11T08:14:02Z</time>
 </trkpt>
 <trkpt lat="47.322021" lon="12.409750">
 <ele>1215.31</ele>
 <time>2010-08-11T08:14:12Z</time>
 </trkpt>
 <trkpt lat="47.321793" lon="12.409763">
 <ele>1216.74</ele>
 <time>2010-08-11T08:14:22Z</time>
 </trkpt>
 <trkpt lat="47.321571" lon="12.409775">
 <ele>1218.18</ele>
 <time>2010-08-11T08:14:33Z</time>
 </trkpt>
 <trkpt lat="47.321438" lon="12.409783">
 <ele>1219.26</ele>
 <time>2010-08-11T08:14:40Z</time>
 </trkpt>
 <trkpt lat="47.321156" lon="12.409798">
 <ele>1220.89</ele>
 <time>2010-08-11T08:14:53Z</time>
 </trkpt>
 <trkpt lat="47.320896" lon="12.409804">
 <ele>1223.09</ele>
 <time>2010-08-11T08:15:06Z</time>
 </trkpt>
 <trkpt lat="47.320667" lon="12.409789">
 <ele>1224.56</ele>
 <time>2010-08-11T08:15:17Z</time>
 </trkpt>
 <trkpt lat="47.320419" lon="12.409773">
 <ele>1226.54</ele>
 <time>2010-08-11T08:15:29Z</time>
 </trkpt>
 <trkpt lat="47.320175" lon="12.409655">
 <ele>1228.39</ele>
 <time>2010-08-11T08:15:41Z</time>
 </trkpt>
 <trkpt lat="47.319962" lon="12.409474">
 <ele>1229.75</ele>
 <time>2010-08-11T08:15:52Z</time>
 </trkpt>
 <trkpt lat="47.319775" lon="12.409314">
 <ele>1231.23</ele>
 <time>2010-08-11T08:16:03Z</time>
 </trkpt>
 <trkpt lat="47.319530" lon="12.409054">
 <ele>1233.94</ele>
 <time>2010-08-11T08:16:18Z</time>
 </trkpt>
 <trkpt lat="47.319344" lon="12.408844">
 <ele>1235.55</ele>
 <time>2010-08-11T08:16:30Z</time>
 </trkpt>
 <trkpt lat="47.319168" lon="12.408647">
 <ele>1237.13</ele>
 <time>2010-08-11T08:16:41Z</time>
 </trkpt>
 <trkpt lat="47.318989" lon="12.408448">
 <ele>1238.73</ele>
 <time>2010-08-11T08:16:52Z</time>
 </trkpt>
 <trkpt lat="47.318783" lon="12.408217">
 <ele>1240.82</ele>
 <time>2010-08-11T08:17:05Z</time>
 </trkpt>
 <trkpt lat="47.318592" lon="12.408001">
 <ele>1242.65</ele>
 <time>2010-08-11T08:17:17Z</time>
 </trkpt>
 <trkpt lat="47.318401" lon="12.407789">
 <ele>1244.57</ele>
 <time>2010-08-11T08:17:29Z</time>
 </trkpt>
 <trkpt lat="47.318233" lon="12.407600">
 <ele>1246.26</ele>
 <time>2010-08-11T08:17:40Z</time>
 </trkpt>
 <trkpt lat="47.318077" lon="12.407426">
 <ele>1247.53</ele>
 <time>2010-08-11T08:17:50Z</time>
 </trkpt>
 <trkpt lat="47.317944" lon="12.407277">
 <ele>1249.47</ele>
 <time>2010-08-11T08:18:02Z</time>
 </trkpt>
 <trkpt lat="47.317944" lon="12.407277">
 <ele>1250.74</ele>
 <time>2010-08-11T08:18:11Z</time>
 </trkpt>
 <trkpt lat="47.317451" lon="12.407055">
 <ele>1252.31</ele>
 <time>2010-08-11T08:18:24Z</time>
 </trkpt>
 <trkpt lat="47.317242" lon="12.406961">
 <ele>1253.97</ele>
 <time>2010-08-11T08:18:35Z</time>
 </trkpt>
 <trkpt lat="47.317085" lon="12.406891">
 <ele>1255.23</ele>
 <time>2010-08-11T08:18:46Z</time>
 </trkpt>
 <trkpt lat="47.316753" lon="12.406881">
 <ele>1257.42</ele>
 <time>2010-08-11T08:18:59Z</time>
 </trkpt>
 <trkpt lat="47.316525" lon="12.406874">
 <ele>1258.92</ele>
 <time>2010-08-11T08:19:10Z</time>
 </trkpt>
 <trkpt lat="47.316277" lon="12.406806">
 <ele>1260.43</ele>
 <time>2010-08-11T08:19:21Z</time>
 </trkpt>
 <trkpt lat="47.316029" lon="12.406655">
 <ele>1262.28</ele>
 <time>2010-08-11T08:19:33Z</time>
 </trkpt>
 <trkpt lat="47.315807" lon="12.406521">
 <ele>1264.30</ele>
 <time>2010-08-11T08:19:45Z</time>
 </trkpt>
 <trkpt lat="47.315605" lon="12.406443">
 <ele>1265.35</ele>
 <time>2010-08-11T08:19:55Z</time>
 </trkpt>
 <trkpt lat="47.315376" lon="12.406355">
 <ele>1266.69</ele>
 <time>2010-08-11T08:20:06Z</time>
 </trkpt>
 <trkpt lat="47.315147" lon="12.406302">
 <ele>1267.79</ele>
 <time>2010-08-11T08:20:17Z</time>
 </trkpt>
 <trkpt lat="47.314785" lon="12.406275">
 <ele>1268.56</ele>
 <time>2010-08-11T08:20:31Z</time>
 </trkpt>
 <trkpt lat="47.314407" lon="12.406260">
 <ele>1269.76</ele>
 <time>2010-08-11T08:20:44Z</time>
 </trkpt>
 <trkpt lat="47.314026" lon="12.406249">
 <ele>1270.49</ele>
 <time>2010-08-11T08:20:57Z</time>
 </trkpt>
 <trkpt lat="47.313686" lon="12.406240">
 <ele>1271.40</ele>
 <time>2010-08-11T08:21:08Z</time>
 </trkpt>
 <trkpt lat="47.313366" lon="12.406231">
 <ele>1272.77</ele>
 <time>2010-08-11T08:21:19Z</time>
 </trkpt>
 <trkpt lat="47.313034" lon="12.406222">
 <ele>1273.31</ele>
 <time>2010-08-11T08:21:30Z</time>
 </trkpt>
 <trkpt lat="47.312706" lon="12.406213">
 <ele>1274.29</ele>
 <time>2010-08-11T08:21:41Z</time>
 </trkpt>
 <trkpt lat="47.312386" lon="12.406204">
 <ele>1275.32</ele>
 <time>2010-08-11T08:21:52Z</time>
 </trkpt>
 <trkpt lat="47.312141" lon="12.406239">
 <ele>1276.09</ele>
 <time>2010-08-11T08:22:01Z</time>
 </trkpt>
 <trkpt lat="47.311916" lon="12.406271">
 <ele>1276.78</ele>
 <time>2010-08-11T08:22:10Z</time>
 </trkpt>
 <trkpt lat="47.311646" lon="12.406309">
 <ele>1277.70</ele>
 <time>2010-08-11T08:22:20Z</time>
 </trkpt>
 <trkpt lat="47.311413" lon="12.406387">
 <ele>1278.50</ele>
 <time>2010-08-11T08:22:29Z</time>
 </trkpt>
 <trkpt lat="47.311115" lon="12.406619">
 <ele>1279.66</ele>
 <time>2010-08-11T08:22:41Z</time>
 </trkpt>
 <trkpt lat="47.310787" lon="12.406870">
 <ele>1280.43</ele>
 <time>2010-08-11T08:22:54Z</time>
 </trkpt>
 <trkpt lat="47.310432" lon="12.407144">
 <ele>1281.47</ele>
 <time>2010-08-11T08:23:08Z</time>
 </trkpt>
 <trkpt lat="47.310135" lon="12.407372">
 <ele>1282.54</ele>
 <time>2010-08-11T08:23:20Z</time>
 </trkpt>
 <trkpt lat="47.309864" lon="12.407582">
 <ele>1283.39</ele>
 <time>2010-08-11T08:23:31Z</time>
 </trkpt>
 <trkpt lat="47.309650" lon="12.407745">
 <ele>1283.71</ele>
 <time>2010-08-11T08:23:39Z</time>
 </trkpt>
 <trkpt lat="47.309338" lon="12.407983">
 <ele>1284.99</ele>
 <time>2010-08-11T08:23:51Z</time>
 </trkpt>
 <trkpt lat="47.309086" lon="12.408178">
 <ele>1285.78</ele>
 <time>2010-08-11T08:24:02Z</time>
 </trkpt>
 <trkpt lat="47.308857" lon="12.408351">
 <ele>1286.50</ele>
 <time>2010-08-11T08:24:11Z</time>
 </trkpt>
 <trkpt lat="47.308781" lon="12.408412">
 <ele>1286.60</ele>
 <time>2010-08-11T08:24:16Z</time>
 </trkpt>
 <trkpt lat="47.308781" lon="12.408412">
 <ele>1286.55</ele>
 <time>2010-08-11T08:24:17Z</time>
 </trkpt>
 <trkpt lat="47.308678" lon="12.408488">
 <ele>1287.52</ele>
 <time>2010-08-11T08:25:53Z</time>
 </trkpt>
 <trkpt lat="47.308666" lon="12.408497">
 <ele>1287.43</ele>
 <time>2010-08-11T08:25:54Z</time>
 </trkpt>
 <trkpt lat="47.308582" lon="12.408561">
 <ele>1288.06</ele>
 <time>2010-08-11T08:26:01Z</time>
 </trkpt>
 <trkpt lat="47.308525" lon="12.408607">
 <ele>1288.15</ele>
 <time>2010-08-11T08:26:07Z</time>
 </trkpt>
 <trkpt lat="47.308426" lon="12.408753">
 <ele>1288.28</ele>
 <time>2010-08-11T08:26:15Z</time>
 </trkpt>
 <trkpt lat="47.308296" lon="12.408940">
 <ele>1288.33</ele>
 <time>2010-08-11T08:26:22Z</time>
 </trkpt>
 <trkpt lat="47.308079" lon="12.409237">
 <ele>1287.90</ele>
 <time>2010-08-11T08:26:29Z</time>
 </trkpt>
 <trkpt lat="47.307800" lon="12.409546">
 <ele>1286.78</ele>
 <time>2010-08-11T08:26:35Z</time>
 </trkpt>
 <trkpt lat="47.307491" lon="12.409745">
 <ele>1285.47</ele>
 <time>2010-08-11T08:26:40Z</time>
 </trkpt>
 <trkpt lat="47.307346" lon="12.409793">
 <ele>1284.94</ele>
 <time>2010-08-11T08:26:42Z</time>
 </trkpt>
 <trkpt lat="47.306862" lon="12.409805">
 <ele>1282.89</ele>
 <time>2010-08-11T08:26:48Z</time>
 </trkpt>
 <trkpt lat="47.306541" lon="12.409775">
 <ele>1280.85</ele>
 <time>2010-08-11T08:26:52Z</time>
 </trkpt>
 <trkpt lat="47.306316" lon="12.409808">
 <ele>1280.15</ele>
 <time>2010-08-11T08:26:55Z</time>
 </trkpt>
 <trkpt lat="47.305962" lon="12.410070">
 <ele>1277.92</ele>
 <time>2010-08-11T08:27:00Z</time>
 </trkpt>
 <trkpt lat="47.305759" lon="12.410351">
 <ele>1276.94</ele>
 <time>2010-08-11T08:27:03Z</time>
 </trkpt>
 <trkpt lat="47.305363" lon="12.410988">
 <ele>1273.36</ele>
 <time>2010-08-11T08:27:09Z</time>
 </trkpt>
 <trkpt lat="47.305084" lon="12.411229">
 <ele>1271.41</ele>
 <time>2010-08-11T08:27:12Z</time>
 </trkpt>
 <trkpt lat="47.304615" lon="12.411371">
 <ele>1268.07</ele>
 <time>2010-08-11T08:27:17Z</time>
 </trkpt>
 <trkpt lat="47.304428" lon="12.411342">
 <ele>1267.48</ele>
 <time>2010-08-11T08:27:19Z</time>
 </trkpt>
 <trkpt lat="47.303818" lon="12.411188">
 <ele>1264.29</ele>
 <time>2010-08-11T08:27:25Z</time>
 </trkpt>
 <trkpt lat="47.303082" lon="12.410980">
 <ele>1260.32</ele>
 <time>2010-08-11T08:27:32Z</time>
 </trkpt>
 <trkpt lat="47.302647" lon="12.410911">
 <ele>1256.70</ele>
 <time>2010-08-11T08:27:36Z</time>
 </trkpt>
 <trkpt lat="47.302532" lon="12.410893">
 <ele>1255.68</ele>
 <time>2010-08-11T08:27:37Z</time>
 </trkpt>
 <trkpt lat="47.302078" lon="12.410731">
 <ele>1252.41</ele>
 <time>2010-08-11T08:27:41Z</time>
 </trkpt>
 <trkpt lat="47.301792" lon="12.410462">
 <ele>1250.65</ele>
 <time>2010-08-11T08:27:44Z</time>
 </trkpt>
 <trkpt lat="47.301266" lon="12.410023">
 <ele>1246.30</ele>
 <time>2010-08-11T08:27:50Z</time>
 </trkpt>
 <trkpt lat="47.300968" lon="12.409841">
 <ele>1243.91</ele>
 <time>2010-08-11T08:27:54Z</time>
 </trkpt>
 <trkpt lat="47.300674" lon="12.409773">
 <ele>1240.62</ele>
 <time>2010-08-11T08:27:59Z</time>
 </trkpt>
 <trkpt lat="47.300629" lon="12.409762">
 <ele>1240.10</ele>
 <time>2010-08-11T08:28:00Z</time>
 </trkpt>
 <trkpt lat="47.300331" lon="12.409743">
 <ele>1238.15</ele>
 <time>2010-08-11T08:28:07Z</time>
 </trkpt>
 <trkpt lat="47.300152" lon="12.409934">
 <ele>1236.59</ele>
 <time>2010-08-11T08:28:13Z</time>
 </trkpt>
 <trkpt lat="47.300034" lon="12.410056">
 <ele>1235.47</ele>
 <time>2010-08-11T08:28:18Z</time>
 </trkpt>
 <trkpt lat="47.299957" lon="12.410194">
 <ele>1234.48</ele>
 <time>2010-08-11T08:28:22Z</time>
 </trkpt>
 <trkpt lat="47.299866" lon="12.410561">
 <ele>1233.01</ele>
 <time>2010-08-11T08:28:27Z</time>
 </trkpt>
 <trkpt lat="47.299850" lon="12.410638">
 <ele>1232.58</ele>
 <time>2010-08-11T08:28:28Z</time>
 </trkpt>
 <trkpt lat="47.299854" lon="12.410823">
 <ele>1230.76</ele>
 <time>2010-08-11T08:28:33Z</time>
 </trkpt>
 <trkpt lat="47.299854" lon="12.410823">
 <ele>1230.45</ele>
 <time>2010-08-11T08:28:35Z</time>
 </trkpt>
 <trkpt lat="47.299866" lon="12.410894">
 <ele>1230.58</ele>
 <time>2010-08-11T08:30:09Z</time>
 </trkpt>
 <trkpt lat="47.299908" lon="12.411117">
 <ele>1229.72</ele>
 <time>2010-08-11T08:30:14Z</time>
 </trkpt>
 <trkpt lat="47.300041" lon="12.411442">
 <ele>1227.65</ele>
 <time>2010-08-11T08:30:19Z</time>
 </trkpt>
 <trkpt lat="47.300243" lon="12.411877">
 <ele>1224.95</ele>
 <time>2010-08-11T08:30:24Z</time>
 </trkpt>
 <trkpt lat="47.300323" lon="12.412049">
 <ele>1223.79</ele>
 <time>2010-08-11T08:30:26Z</time>
 </trkpt>
 <trkpt lat="47.300381" lon="12.412674">
 <ele>1220.72</ele>
 <time>2010-08-11T08:30:31Z</time>
 </trkpt>
 <trkpt lat="47.300209" lon="12.413880">
 <ele>1216.17</ele>
 <time>2010-08-11T08:30:40Z</time>
 </trkpt>
 <trkpt lat="47.300022" lon="12.414969">
 <ele>1211.78</ele>
 <time>2010-08-11T08:30:48Z</time>
 </trkpt>
 <trkpt lat="47.299999" lon="12.415093">
 <ele>1211.54</ele>
 <time>2010-08-11T08:30:49Z</time>
 </trkpt>
 <trkpt lat="47.299927" lon="12.415717">
 <ele>1209.38</ele>
 <time>2010-08-11T08:30:55Z</time>
 </trkpt>
 <trkpt lat="47.299900" lon="12.416290">
 <ele>1207.69</ele>
 <time>2010-08-11T08:31:01Z</time>
 </trkpt>
 <trkpt lat="47.299923" lon="12.416935">
 <ele>1205.25</ele>
 <time>2010-08-11T08:31:07Z</time>
 </trkpt>
 <trkpt lat="47.299934" lon="12.417285">
 <ele>1203.63</ele>
 <time>2010-08-11T08:31:10Z</time>
 </trkpt>
 <trkpt lat="47.299828" lon="12.417922">
 <ele>1200.36</ele>
 <time>2010-08-11T08:31:15Z</time>
 </trkpt>
 <trkpt lat="47.299610" lon="12.418383">
 <ele>1197.96</ele>
 <time>2010-08-11T08:31:19Z</time>
 </trkpt>
 <trkpt lat="47.299152" lon="12.418896">
 <ele>1194.82</ele>
 <time>2010-08-11T08:31:25Z</time>
 </trkpt>
 <trkpt lat="47.298859" lon="12.419471">
 <ele>1192.96</ele>
 <time>2010-08-11T08:31:30Z</time>
 </trkpt>
 <trkpt lat="47.298466" lon="12.420362">
 <ele>1188.36</ele>
 <time>2010-08-11T08:31:37Z</time>
 </trkpt>
 <trkpt lat="47.298065" lon="12.421512">
 <ele>1182.78</ele>
 <time>2010-08-11T08:31:45Z</time>
 </trkpt>
 <trkpt lat="47.297588" lon="12.423209">
 <ele>1175.20</ele>
 <time>2010-08-11T08:31:56Z</time>
 </trkpt>
 <trkpt lat="47.297215" lon="12.424431">
 <ele>1169.60</ele>
 <time>2010-08-11T08:32:04Z</time>
 </trkpt>
 <trkpt lat="47.296776" lon="12.425746">
 <ele>1163.59</ele>
 <time>2010-08-11T08:32:13Z</time>
 </trkpt>
 <trkpt lat="47.296638" lon="12.426035">
 <ele>1162.33</ele>
 <time>2010-08-11T08:32:16Z</time>
 </trkpt>
 <trkpt lat="47.296501" lon="12.426335">
 <ele>1161.70</ele>
 <time>2010-08-11T08:32:21Z</time>
 </trkpt>
 <trkpt lat="47.296333" lon="12.426718">
 <ele>1159.92</ele>
 <time>2010-08-11T08:32:26Z</time>
 </trkpt>
 <trkpt lat="47.296219" lon="12.426982">
 <ele>1158.88</ele>
 <time>2010-08-11T08:32:29Z</time>
 </trkpt>
 <trkpt lat="47.296158" lon="12.427513">
 <ele>1156.42</ele>
 <time>2010-08-11T08:32:34Z</time>
 </trkpt>
 <trkpt lat="47.296104" lon="12.428312">
 <ele>1152.38</ele>
 <time>2010-08-11T08:32:40Z</time>
 </trkpt>
 <trkpt lat="47.295891" lon="12.429023">
 <ele>1149.53</ele>
 <time>2010-08-11T08:32:45Z</time>
 </trkpt>
 <trkpt lat="47.295513" lon="12.429757">
 <ele>1145.72</ele>
 <time>2010-08-11T08:32:51Z</time>
 </trkpt>
 <trkpt lat="47.295391" lon="12.429998">
 <ele>1144.86</ele>
 <time>2010-08-11T08:32:53Z</time>
 </trkpt>
 <trkpt lat="47.294952" lon="12.430850">
 <ele>1140.87</ele>
 <time>2010-08-11T08:33:00Z</time>
 </trkpt>
 <trkpt lat="47.294624" lon="12.431497">
 <ele>1137.44</ele>
 <time>2010-08-11T08:33:05Z</time>
 </trkpt>
 <trkpt lat="47.294415" lon="12.432071">
 <ele>1134.75</ele>
 <time>2010-08-11T08:33:09Z</time>
 </trkpt>
 <trkpt lat="47.294319" lon="12.432683">
 <ele>1132.85</ele>
 <time>2010-08-11T08:33:13Z</time>
 </trkpt>
 <trkpt lat="47.294243" lon="12.433834">
 <ele>1127.24</ele>
 <time>2010-08-11T08:33:20Z</time>
 </trkpt>
 <trkpt lat="47.294189" lon="12.434650">
 <ele>1124.60</ele>
 <time>2010-08-11T08:33:25Z</time>
 </trkpt>
 <trkpt lat="47.294212" lon="12.435209">
 <ele>1122.22</ele>
 <time>2010-08-11T08:33:29Z</time>
 </trkpt>
 <trkpt lat="47.294243" lon="12.435359">
 <ele>1121.53</ele>
 <time>2010-08-11T08:33:30Z</time>
 </trkpt>
 <trkpt lat="47.294369" lon="12.436089">
 <ele>1118.53</ele>
 <time>2010-08-11T08:33:35Z</time>
 </trkpt>
 <trkpt lat="47.294270" lon="12.437357">
 <ele>1113.19</ele>
 <time>2010-08-11T08:33:43Z</time>
 </trkpt>
 <trkpt lat="47.294140" lon="12.437929">
 <ele>1110.90</ele>
 <time>2010-08-11T08:33:47Z</time>
 </trkpt>
 <trkpt lat="47.294075" lon="12.438037">
 <ele>1110.38</ele>
 <time>2010-08-11T08:33:48Z</time>
 </trkpt>
 <trkpt lat="47.293949" lon="12.438253">
 <ele>1108.99</ele>
 <time>2010-08-11T08:33:50Z</time>
 </trkpt>
 <trkpt lat="47.293716" lon="12.438661">
 <ele>1106.88</ele>
 <time>2010-08-11T08:33:54Z</time>
 </trkpt>
 <trkpt lat="47.293678" lon="12.438797">
 <ele>1106.42</ele>
 <time>2010-08-11T08:33:55Z</time>
 </trkpt>
 <trkpt lat="47.293575" lon="12.439496">
 <ele>1103.58</ele>
 <time>2010-08-11T08:34:00Z</time>
 </trkpt>
 <trkpt lat="47.293484" lon="12.440933">
 <ele>1097.90</ele>
 <time>2010-08-11T08:34:09Z</time>
 </trkpt>
 <trkpt lat="47.293415" lon="12.442046">
 <ele>1093.26</ele>
 <time>2010-08-11T08:34:16Z</time>
 </trkpt>
 <trkpt lat="47.293365" lon="12.442476">
 <ele>1091.53</ele>
 <time>2010-08-11T08:34:19Z</time>
 </trkpt>
 <trkpt lat="47.293266" lon="12.442939">
 <ele>1089.40</ele>
 <time>2010-08-11T08:34:23Z</time>
 </trkpt>
 <trkpt lat="47.293232" lon="12.443284">
 <ele>1088.34</ele>
 <time>2010-08-11T08:34:27Z</time>
 </trkpt>
 <trkpt lat="47.293312" lon="12.443540">
 <ele>1087.26</ele>
 <time>2010-08-11T08:34:30Z</time>
 </trkpt>
 <trkpt lat="47.293537" lon="12.443754">
 <ele>1085.70</ele>
 <time>2010-08-11T08:34:34Z</time>
 </trkpt>
 <trkpt lat="47.293701" lon="12.443910">
 <ele>1084.40</ele>
 <time>2010-08-11T08:34:37Z</time>
 </trkpt>
 <trkpt lat="47.293793" lon="12.444177">
 <ele>1083.16</ele>
 <time>2010-08-11T08:34:40Z</time>
 </trkpt>
 <trkpt lat="47.293667" lon="12.444657">
 <ele>1082.23</ele>
 <time>2010-08-11T08:34:44Z</time>
 </trkpt>
 <trkpt lat="47.293556" lon="12.444827">
 <ele>1081.41</ele>
 <time>2010-08-11T08:34:46Z</time>
 </trkpt>
 <trkpt lat="47.293278" lon="12.445265">
 <ele>1079.66</ele>
 <time>2010-08-11T08:34:51Z</time>
 </trkpt>
 <trkpt lat="47.292915" lon="12.445825">
 <ele>1077.57</ele>
 <time>2010-08-11T08:34:57Z</time>
 </trkpt>
 <trkpt lat="47.292850" lon="12.445920">
 <ele>1077.07</ele>
 <time>2010-08-11T08:34:58Z</time>
 </trkpt>
 <trkpt lat="47.292511" lon="12.446138">
 <ele>1075.42</ele>
 <time>2010-08-11T08:35:02Z</time>
 </trkpt>
 <trkpt lat="47.292244" lon="12.446263">
 <ele>1074.22</ele>
 <time>2010-08-11T08:35:05Z</time>
 </trkpt>
 <trkpt lat="47.291950" lon="12.446325">
 <ele>1072.69</ele>
 <time>2010-08-11T08:35:08Z</time>
 </trkpt>
 <trkpt lat="47.291599" lon="12.446472">
 <ele>1071.03</ele>
 <time>2010-08-11T08:35:12Z</time>
 </trkpt>
 <trkpt lat="47.291264" lon="12.446728">
 <ele>1069.61</ele>
 <time>2010-08-11T08:35:16Z</time>
 </trkpt>
 <trkpt lat="47.290997" lon="12.446832">
 <ele>1068.86</ele>
 <time>2010-08-11T08:35:19Z</time>
 </trkpt>
 <trkpt lat="47.290756" lon="12.447179">
 <ele>1067.00</ele>
 <time>2010-08-11T08:35:23Z</time>
 </trkpt>
 <trkpt lat="47.290623" lon="12.447504">
 <ele>1065.94</ele>
 <time>2010-08-11T08:35:26Z</time>
 </trkpt>
 <trkpt lat="47.290421" lon="12.448128">
 <ele>1063.73</ele>
 <time>2010-08-11T08:35:31Z</time>
 </trkpt>
 <trkpt lat="47.290344" lon="12.448804">
 <ele>1061.58</ele>
 <time>2010-08-11T08:35:36Z</time>
 </trkpt>
 <trkpt lat="47.290356" lon="12.449748">
 <ele>1059.22</ele>
 <time>2010-08-11T08:35:43Z</time>
 </trkpt>
 <trkpt lat="47.290371" lon="12.450425">
 <ele>1057.36</ele>
 <time>2010-08-11T08:35:48Z</time>
 </trkpt>
 <trkpt lat="47.290337" lon="12.451227">
 <ele>1055.02</ele>
 <time>2010-08-11T08:35:54Z</time>
 </trkpt>
 <trkpt lat="47.290154" lon="12.452023">
 <ele>1052.93</ele>
 <time>2010-08-11T08:36:00Z</time>
 </trkpt>
 <trkpt lat="47.289810" lon="12.453009">
 <ele>1049.90</ele>
 <time>2010-08-11T08:36:08Z</time>
 </trkpt>
 <trkpt lat="47.289619" lon="12.453761">
 <ele>1047.16</ele>
 <time>2010-08-11T08:36:14Z</time>
 </trkpt>
 <trkpt lat="47.289490" lon="12.454741">
 <ele>1043.92</ele>
 <time>2010-08-11T08:36:21Z</time>
 </trkpt>
 <trkpt lat="47.289265" lon="12.456453">
 <ele>1039.14</ele>
 <time>2010-08-11T08:36:33Z</time>
 </trkpt>
 <trkpt lat="47.289101" lon="12.457721">
 <ele>1034.47</ele>
 <time>2010-08-11T08:36:42Z</time>
 </trkpt>
 <trkpt lat="47.288860" lon="12.459555">
 <ele>1029.04</ele>
 <time>2010-08-11T08:36:55Z</time>
 </trkpt>
 <trkpt lat="47.288651" lon="12.461126">
 <ele>1024.90</ele>
 <time>2010-08-11T08:37:06Z</time>
 </trkpt>
 <trkpt lat="47.288471" lon="12.462440">
 <ele>1020.77</ele>
 <time>2010-08-11T08:37:15Z</time>
 </trkpt>
 <trkpt lat="47.288307" lon="12.463659">
 <ele>1017.47</ele>
 <time>2010-08-11T08:37:23Z</time>
 </trkpt>
 <trkpt lat="47.288097" lon="12.465014">
 <ele>1013.55</ele>
 <time>2010-08-11T08:37:32Z</time>
 </trkpt>
 <trkpt lat="47.287937" lon="12.466046">
 <ele>1009.97</ele>
 <time>2010-08-11T08:37:39Z</time>
 </trkpt>
 <trkpt lat="47.287796" lon="12.467174">
 <ele>1007.08</ele>
 <time>2010-08-11T08:37:47Z</time>
 </trkpt>
 <trkpt lat="47.287766" lon="12.467464">
 <ele>1006.41</ele>
 <time>2010-08-11T08:37:50Z</time>
 </trkpt>
 <trkpt lat="47.287750" lon="12.467670">
 <ele>1006.12</ele>
 <time>2010-08-11T08:37:55Z</time>
 </trkpt>
 <trkpt lat="47.287594" lon="12.467659">
 <ele>1005.92</ele>
 <time>2010-08-11T08:38:00Z</time>
 </trkpt>
 <trkpt lat="47.287590" lon="12.467653">
 <ele>1005.65</ele>
 <time>2010-08-11T08:38:02Z</time>
 </trkpt>
 <trkpt lat="47.287754" lon="12.467657">
 <ele>1006.05</ele>
 <time>2010-08-11T08:39:27Z</time>
 </trkpt>
 <trkpt lat="47.287743" lon="12.467783">
 <ele>1005.86</ele>
 <time>2010-08-11T08:39:32Z</time>
 </trkpt>
 <trkpt lat="47.287716" lon="12.468181">
 <ele>1004.81</ele>
 <time>2010-08-11T08:39:38Z</time>
 </trkpt>
 <trkpt lat="47.287708" lon="12.468772">
 <ele>1002.80</ele>
 <time>2010-08-11T08:39:44Z</time>
 </trkpt>
 <trkpt lat="47.287788" lon="12.469435">
 <ele>1000.75</ele>
 <time>2010-08-11T08:39:50Z</time>
 </trkpt>
 <trkpt lat="47.287922" lon="12.470543">
 <ele>997.39</ele>
 <time>2010-08-11T08:39:59Z</time>
 </trkpt>
 <trkpt lat="47.287991" lon="12.471318">
 <ele>995.21</ele>
 <time>2010-08-11T08:40:05Z</time>
 </trkpt>
 <trkpt lat="47.287991" lon="12.471585">
 <ele>994.53</ele>
 <time>2010-08-11T08:40:07Z</time>
 </trkpt>
 <trkpt lat="47.287991" lon="12.472940">
 <ele>990.62</ele>
 <time>2010-08-11T08:40:17Z</time>
 </trkpt>
 <trkpt lat="47.287991" lon="12.474055">
 <ele>987.51</ele>
 <time>2010-08-11T08:40:25Z</time>
 </trkpt>
 <trkpt lat="47.287991" lon="12.474903">
 <ele>985.07</ele>
 <time>2010-08-11T08:40:31Z</time>
 </trkpt>
 <trkpt lat="47.288010" lon="12.476426">
 <ele>980.65</ele>
 <time>2010-08-11T08:40:42Z</time>
 </trkpt>
 <trkpt lat="47.288025" lon="12.477596">
 <ele>974.63</ele>
 <time>2010-08-11T08:40:50Z</time>
 </trkpt>
 <trkpt lat="47.288090" lon="12.479026">
 <ele>967.30</ele>
 <time>2010-08-11T08:40:59Z</time>
 </trkpt>
 <trkpt lat="47.288174" lon="12.480348">
 <ele>960.77</ele>
 <time>2010-08-11T08:41:07Z</time>
 </trkpt>
 <trkpt lat="47.288364" lon="12.481797">
 <ele>953.40</ele>
 <time>2010-08-11T08:41:16Z</time>
 </trkpt>
 <trkpt lat="47.288582" lon="12.483324">
 <ele>944.97</ele>
 <time>2010-08-11T08:41:26Z</time>
 </trkpt>
 <trkpt lat="47.288712" lon="12.484199">
 <ele>941.72</ele>
 <time>2010-08-11T08:41:32Z</time>
 </trkpt>
 <trkpt lat="47.288776" lon="12.485092">
 <ele>936.58</ele>
 <time>2010-08-11T08:41:38Z</time>
 </trkpt>
 <trkpt lat="47.288746" lon="12.485544">
 <ele>933.68</ele>
 <time>2010-08-11T08:41:41Z</time>
 </trkpt>
 <trkpt lat="47.288563" lon="12.486158">
 <ele>930.32</ele>
 <time>2010-08-11T08:41:46Z</time>
 </trkpt>
 <trkpt lat="47.288349" lon="12.486435">
 <ele>928.28</ele>
 <time>2010-08-11T08:41:49Z</time>
 </trkpt>
 <trkpt lat="47.287987" lon="12.486666">
 <ele>925.56</ele>
 <time>2010-08-11T08:41:53Z</time>
 </trkpt>
 <trkpt lat="47.287628" lon="12.486637">
 <ele>923.18</ele>
 <time>2010-08-11T08:41:57Z</time>
 </trkpt>
 <trkpt lat="47.287422" lon="12.486554">
 <ele>922.12</ele>
 <time>2010-08-11T08:41:59Z</time>
 </trkpt>
 <trkpt lat="47.287270" lon="12.486402">
 <ele>920.89</ele>
 <time>2010-08-11T08:42:01Z</time>
 </trkpt>
 <trkpt lat="47.287033" lon="12.485953">
 <ele>918.27</ele>
 <time>2010-08-11T08:42:05Z</time>
 </trkpt>
 <trkpt lat="47.286564" lon="12.484994">
 <ele>913.07</ele>
 <time>2010-08-11T08:42:13Z</time>
 </trkpt>
 <trkpt lat="47.286404" lon="12.484657">
 <ele>911.60</ele>
 <time>2010-08-11T08:42:16Z</time>
 </trkpt>
 <trkpt lat="47.286007" lon="12.483842">
 <ele>907.85</ele>
 <time>2010-08-11T08:42:23Z</time>
 </trkpt>
 <trkpt lat="47.285866" lon="12.483360">
 <ele>905.77</ele>
 <time>2010-08-11T08:42:27Z</time>
 </trkpt>
 <trkpt lat="47.285774" lon="12.482222">
 <ele>900.18</ele>
 <time>2010-08-11T08:42:35Z</time>
 </trkpt>
 <trkpt lat="47.285725" lon="12.481631">
 <ele>898.19</ele>
 <time>2010-08-11T08:42:39Z</time>
 </trkpt>
 <trkpt lat="47.285458" lon="12.480901">
 <ele>894.31</ele>
 <time>2010-08-11T08:42:45Z</time>
 </trkpt>
 <trkpt lat="47.285313" lon="12.480239">
 <ele>892.07</ele>
 <time>2010-08-11T08:42:50Z</time>
 </trkpt>
 <trkpt lat="47.285194" lon="12.479392">
 <ele>888.21</ele>
 <time>2010-08-11T08:42:56Z</time>
 </trkpt>
 <trkpt lat="47.285145" lon="12.478682">
 <ele>884.99</ele>
 <time>2010-08-11T08:43:01Z</time>
 </trkpt>
 <trkpt lat="47.285145" lon="12.477916">
 <ele>882.23</ele>
 <time>2010-08-11T08:43:06Z</time>
 </trkpt>
 <trkpt lat="47.285126" lon="12.477116">
 <ele>878.65</ele>
 <time>2010-08-11T08:43:12Z</time>
 </trkpt>
 <trkpt lat="47.285194" lon="12.476631">
 <ele>877.10</ele>
 <time>2010-08-11T08:43:16Z</time>
 </trkpt>
 <trkpt lat="47.285137" lon="12.476373">
 <ele>877.02</ele>
 <time>2010-08-11T08:43:20Z</time>
 </trkpt>
 <trkpt lat="47.285049" lon="12.476312">
 <ele>876.32</ele>
 <time>2010-08-11T08:43:23Z</time>
 </trkpt>
 <trkpt lat="47.284958" lon="12.476384">
 <ele>875.86</ele>
 <time>2010-08-11T08:43:26Z</time>
 </trkpt>
 <trkpt lat="47.284901" lon="12.476547">
 <ele>875.21</ele>
 <time>2010-08-11T08:43:29Z</time>
 </trkpt>
 <trkpt lat="47.284966" lon="12.477216">
 <ele>873.57</ele>
 <time>2010-08-11T08:43:36Z</time>
 </trkpt>
 <trkpt lat="47.284943" lon="12.477915">
 <ele>871.02</ele>
 <time>2010-08-11T08:43:42Z</time>
 </trkpt>
 <trkpt lat="47.284924" lon="12.478869">
 <ele>867.03</ele>
 <time>2010-08-11T08:43:49Z</time>
 </trkpt>
 <trkpt lat="47.284935" lon="12.480037">
 <ele>861.96</ele>
 <time>2010-08-11T08:43:57Z</time>
 </trkpt>
 <trkpt lat="47.284950" lon="12.481471">
 <ele>856.82</ele>
 <time>2010-08-11T08:44:06Z</time>
 </trkpt>
 <trkpt lat="47.284973" lon="12.482938">
 <ele>850.69</ele>
 <time>2010-08-11T08:44:15Z</time>
 </trkpt>
 <trkpt lat="47.285084" lon="12.483561">
 <ele>848.39</ele>
 <time>2010-08-11T08:44:19Z</time>
 </trkpt>
 <trkpt lat="47.285175" lon="12.484339">
 <ele>845.61</ele>
 <time>2010-08-11T08:44:24Z</time>
 </trkpt>
 <trkpt lat="47.285164" lon="12.484973">
 <ele>843.48</ele>
 <time>2010-08-11T08:44:28Z</time>
 </trkpt>
 <trkpt lat="47.285175" lon="12.485964">
 <ele>839.39</ele>
 <time>2010-08-11T08:44:35Z</time>
 </trkpt>
 <trkpt lat="47.285252" lon="12.487172">
 <ele>834.94</ele>
 <time>2010-08-11T08:44:43Z</time>
 </trkpt>
 <trkpt lat="47.285355" lon="12.487752">
 <ele>832.85</ele>
 <time>2010-08-11T08:44:47Z</time>
 </trkpt>
 <trkpt lat="47.285503" lon="12.488236">
 <ele>831.34</ele>
 <time>2010-08-11T08:44:51Z</time>
 </trkpt>
 <trkpt lat="47.285564" lon="12.488435">
 <ele>831.15</ele>
 <time>2010-08-11T08:44:53Z</time>
 </trkpt>
 <trkpt lat="47.285690" lon="12.489005">
 <ele>829.25</ele>
 <time>2010-08-11T08:44:59Z</time>
 </trkpt>
 <trkpt lat="47.285671" lon="12.489554">
 <ele>827.88</ele>
 <time>2010-08-11T08:45:04Z</time>
 </trkpt>
 <trkpt lat="47.285606" lon="12.489846">
 <ele>826.71</ele>
 <time>2010-08-11T08:45:09Z</time>
 </trkpt>
 <trkpt lat="47.285275" lon="12.490225">
 <ele>826.26</ele>
 <time>2010-08-11T08:45:13Z</time>
 </trkpt>
 <trkpt lat="47.285225" lon="12.490290">
 <ele>826.07</ele>
 <time>2010-08-11T08:45:15Z</time>
 </trkpt>
 <trkpt lat="47.285061" lon="12.490367">
 <ele>825.06</ele>
 <time>2010-08-11T08:45:19Z</time>
 </trkpt>
 <trkpt lat="47.284790" lon="12.490231">
 <ele>823.11</ele>
 <time>2010-08-11T08:45:24Z</time>
 </trkpt>
 <trkpt lat="47.284698" lon="12.489948">
 <ele>821.89</ele>
 <time>2010-08-11T08:45:27Z</time>
 </trkpt>
 <trkpt lat="47.284595" lon="12.489407">
 <ele>820.35</ele>
 <time>2010-08-11T08:45:33Z</time>
 </trkpt>
 <trkpt lat="47.284554" lon="12.489176">
 <ele>819.45</ele>
 <time>2010-08-11T08:45:38Z</time>
 </trkpt>
 <trkpt lat="47.284550" lon="12.489155">
 <ele>819.34</ele>
 <time>2010-08-11T08:45:40Z</time>
 </trkpt>
 <trkpt lat="47.284534" lon="12.489073">
 <ele>818.85</ele>
 <time>2010-08-11T08:45:55Z</time>
 </trkpt>
 <trkpt lat="47.284706" lon="12.488773">
 <ele>817.29</ele>
 <time>2010-08-11T08:46:01Z</time>
 </trkpt>
 <trkpt lat="47.284138" lon="12.488616">
 <ele>816.19</ele>
 <time>2010-08-11T08:46:05Z</time>
 </trkpt>
 <trkpt lat="47.284451" lon="12.487863">
 <ele>815.59</ele>
 <time>2010-08-11T08:46:17Z</time>
 </trkpt>
 <trkpt lat="47.284439" lon="12.487824">
 <ele>815.60</ele>
 <time>2010-08-11T08:46:18Z</time>
 </trkpt>
 <trkpt lat="47.284397" lon="12.487659">
 <ele>816.20</ele>
 <time>2010-08-11T08:46:24Z</time>
 </trkpt>
 <trkpt lat="47.284367" lon="12.487537">
 <ele>815.90</ele>
 <time>2010-08-11T08:46:30Z</time>
 </trkpt>
 <trkpt lat="47.284367" lon="12.487537">
 <ele>815.92</ele>
 <time>2010-08-11T08:46:31Z</time>
 </trkpt>
 <trkpt lat="47.284382" lon="12.487589">
 <ele>816.22</ele>
 <time>2010-08-11T08:46:36Z</time>
 </trkpt>
 <trkpt lat="47.284397" lon="12.487670">
 <ele>816.57</ele>
 <time>2010-08-11T08:46:39Z</time>
 </trkpt>
 <trkpt lat="47.284149" lon="12.488617">
 <ele>815.67</ele>
 <time>2010-08-11T08:47:02Z</time>
 </trkpt>
 <trkpt lat="47.284317" lon="12.488632">
 <ele>816.79</ele>
 <time>2010-08-11T08:47:08Z</time>
 </trkpt>
 <trkpt lat="47.284534" lon="12.489073">
 <ele>818.08</ele>
 <time>2010-08-11T08:47:15Z</time>
 </trkpt>
 <trkpt lat="47.284534" lon="12.489077">
 <ele>818.98</ele>
 <time>2010-08-11T08:47:19Z</time>
 </trkpt>
 <trkpt lat="47.284534" lon="12.489077">
 <ele>819.23</ele>
 <time>2010-08-11T08:47:21Z</time>
 </trkpt>
 <trkpt lat="47.284534" lon="12.489073">
 <ele>819.25</ele>
 <time>2010-08-11T08:47:26Z</time>
 </trkpt>
 <trkpt lat="47.284634" lon="12.488897">
 <ele>818.57</ele>
 <time>2010-08-11T08:47:33Z</time>
 </trkpt>
 <trkpt lat="47.284695" lon="12.488796">
 <ele>817.83</ele>
 <time>2010-08-11T08:47:37Z</time>
 </trkpt>
 <trkpt lat="47.284649" lon="12.488565">
 <ele>817.02</ele>
 <time>2010-08-11T08:47:41Z</time>
 </trkpt>
 <trkpt lat="47.284492" lon="12.488011">
 <ele>815.65</ele>
 <time>2010-08-11T08:47:49Z</time>
 </trkpt>
 <trkpt lat="47.284359" lon="12.487500">
 <ele>814.70</ele>
 <time>2010-08-11T08:47:55Z</time>
 </trkpt>
 <trkpt lat="47.284176" lon="12.486813">
 <ele>813.76</ele>
 <time>2010-08-11T08:48:02Z</time>
 </trkpt>
 <trkpt lat="47.284004" lon="12.486067">
 <ele>813.96</ele>
 <time>2010-08-11T08:48:10Z</time>
 </trkpt>
 <trkpt lat="47.283913" lon="12.485402">
 <ele>814.23</ele>
 <time>2010-08-11T08:48:18Z</time>
 </trkpt>
 <trkpt lat="47.283905" lon="12.485327">
 <ele>814.26</ele>
 <time>2010-08-11T08:48:19Z</time>
 </trkpt>
 <trkpt lat="47.283859" lon="12.484913">
 <ele>814.54</ele>
 <time>2010-08-11T08:48:25Z</time>
 </trkpt>
 <trkpt lat="47.283821" lon="12.484412">
 <ele>814.31</ele>
 <time>2010-08-11T08:48:32Z</time>
 </trkpt>
 <trkpt lat="47.283806" lon="12.484089">
 <ele>814.49</ele>
 <time>2010-08-11T08:48:38Z</time>
 </trkpt>
 <trkpt lat="47.283802" lon="12.483914">
 <ele>814.76</ele>
 <time>2010-08-11T08:48:43Z</time>
 </trkpt>
 <trkpt lat="47.283798" lon="12.483724">
 <ele>814.38</ele>
 <time>2010-08-11T08:48:48Z</time>
 </trkpt>
 <trkpt lat="47.283791" lon="12.483355">
 <ele>814.50</ele>
 <time>2010-08-11T08:48:53Z</time>
 </trkpt>
 <trkpt lat="47.283787" lon="12.483013">
 <ele>814.66</ele>
 <time>2010-08-11T08:48:58Z</time>
 </trkpt>
 <trkpt lat="47.283730" lon="12.482843">
 <ele>814.96</ele>
 <time>2010-08-11T08:49:02Z</time>
 </trkpt>
 <trkpt lat="47.283630" lon="12.482829">
 <ele>815.31</ele>
 <time>2010-08-11T08:49:05Z</time>
 </trkpt>
 <trkpt lat="47.283337" lon="12.482787">
 <ele>816.29</ele>
 <time>2010-08-11T08:49:12Z</time>
 </trkpt>
 <trkpt lat="47.283215" lon="12.482806">
 <ele>815.73</ele>
 <time>2010-08-11T08:49:16Z</time>
 </trkpt>
 <trkpt lat="47.283115" lon="12.482822">
 <ele>815.25</ele>
 <time>2010-08-11T08:49:23Z</time>
 </trkpt>
 <trkpt lat="47.283115" lon="12.482822">
 <ele>815.07</ele>
 <time>2010-08-11T08:49:25Z</time>
 </trkpt>
 <trkpt lat="47.283115" lon="12.482822">
 <ele>815.04</ele>
 <time>2010-08-11T08:50:20Z</time>
 </trkpt>
 <trkpt lat="47.283100" lon="12.482825">
 <ele>814.95</ele>
 <time>2010-08-11T08:50:21Z</time>
 </trkpt>
 <trkpt lat="47.282974" lon="12.482846">
 <ele>814.03</ele>
 <time>2010-08-11T08:50:27Z</time>
 </trkpt>
 <trkpt lat="47.282944" lon="12.482851">
 <ele>814.29</ele>
 <time>2010-08-11T08:50:31Z</time>
 </trkpt>
 <trkpt lat="47.282944" lon="12.482851">
 <ele>814.23</ele>
 <time>2010-08-11T08:50:39Z</time>
 </trkpt>
 <trkpt lat="47.282944" lon="12.482851">
 <ele>814.21</ele>
 <time>2010-08-11T08:50:40Z</time>
 </trkpt>
 <trkpt lat="47.282871" lon="12.482863">
 <ele>814.44</ele>
 <time>2010-08-11T08:50:49Z</time>
 </trkpt>
 <trkpt lat="47.282856" lon="12.482865">
 <ele>814.37</ele>
 <time>2010-08-11T08:50:50Z</time>
 </trkpt>
 <trkpt lat="47.282776" lon="12.482841">
 <ele>814.23</ele>
 <time>2010-08-11T08:50:55Z</time>
 </trkpt>
 <trkpt lat="47.282677" lon="12.482771">
 <ele>814.00</ele>
 <time>2010-08-11T08:51:01Z</time>
 </trkpt>
 <trkpt lat="47.282597" lon="12.482710">
 <ele>814.01</ele>
 <time>2010-08-11T08:51:08Z</time>
 </trkpt>
 <trkpt lat="47.282455" lon="12.482605">
 <ele>814.49</ele>
 <time>2010-08-11T08:51:19Z</time>
 </trkpt>
 <trkpt lat="47.282383" lon="12.482551">
 <ele>814.50</ele>
 <time>2010-08-11T08:51:24Z</time>
 </trkpt>
 <trkpt lat="47.282238" lon="12.482443">
 <ele>814.19</ele>
 <time>2010-08-11T08:51:29Z</time>
 </trkpt>
 <trkpt lat="47.282032" lon="12.482302">
 <ele>814.31</ele>
 <time>2010-08-11T08:51:35Z</time>
 </trkpt>
 <trkpt lat="47.281898" lon="12.482201">
 <ele>813.94</ele>
 <time>2010-08-11T08:51:39Z</time>
 </trkpt>
 <trkpt lat="47.281609" lon="12.482099">
 <ele>814.20</ele>
 <time>2010-08-11T08:51:45Z</time>
 </trkpt>
 <trkpt lat="47.281437" lon="12.482033">
 <ele>814.63</ele>
 <time>2010-08-11T08:51:50Z</time>
 </trkpt>
 <trkpt lat="47.281258" lon="12.481961">
 <ele>814.02</ele>
 <time>2010-08-11T08:51:55Z</time>
 </trkpt>
 <trkpt lat="47.281242" lon="12.481955">
 <ele>814.11</ele>
 <time>2010-08-11T08:51:57Z</time>
 </trkpt>
 <trkpt lat="47.281254" lon="12.481959">
 <ele>814.43</ele>
 <time>2010-08-11T08:52:03Z</time>
 </trkpt>
 <trkpt lat="47.281002" lon="12.482478">
 <ele>814.50</ele>
 <time>2010-08-11T08:52:04Z</time>
 </trkpt>
 <trkpt lat="47.281013" lon="12.481864">
 <ele>814.51</ele>
 <time>2010-08-11T08:52:10Z</time>
 </trkpt>
 <trkpt lat="47.280987" lon="12.481873">
 <ele>814.19</ele>
 <time>2010-08-11T08:52:16Z</time>
 </trkpt>
 <trkpt lat="47.280952" lon="12.481883">
 <ele>814.19</ele>
 <time>2010-08-11T08:52:18Z</time>
 </trkpt>
 <trkpt lat="47.280846" lon="12.481915">
 <ele>814.41</ele>
 <time>2010-08-11T08:52:23Z</time>
 </trkpt>
 <trkpt lat="47.280731" lon="12.482450">
 <ele>814.38</ele>
 <time>2010-08-11T08:52:29Z</time>
 </trkpt>
 <trkpt lat="47.280685" lon="12.482765">
 <ele>814.56</ele>
 <time>2010-08-11T08:52:34Z</time>
 </trkpt>
 <trkpt lat="47.280636" lon="12.483281">
 <ele>814.82</ele>
 <time>2010-08-11T08:52:42Z</time>
 </trkpt>
 <trkpt lat="47.280632" lon="12.483417">
 <ele>814.48</ele>
 <time>2010-08-11T08:52:45Z</time>
 </trkpt>
 <trkpt lat="47.280628" lon="12.483452">
 <ele>814.58</ele>
 <time>2010-08-11T08:52:52Z</time>
 </trkpt>
 <trkpt lat="47.280819" lon="12.484348">
 <ele>814.29</ele>
 <time>2010-08-11T08:52:59Z</time>
 </trkpt>
 <trkpt lat="47.280811" lon="12.484518">
 <ele>814.40</ele>
 <time>2010-08-11T08:53:01Z</time>
 </trkpt>
 <trkpt lat="47.280792" lon="12.484708">
 <ele>814.44</ele>
 <time>2010-08-11T08:53:04Z</time>
 </trkpt>
 <trkpt lat="47.280704" lon="12.485409">
 <ele>814.90</ele>
 <time>2010-08-11T08:53:14Z</time>
 </trkpt>
 <trkpt lat="47.280670" lon="12.485576">
 <ele>814.94</ele>
 <time>2010-08-11T08:53:18Z</time>
 </trkpt>
 <trkpt lat="47.280529" lon="12.485666">
 <ele>815.04</ele>
 <time>2010-08-11T08:53:19Z</time>
 </trkpt>
 <trkpt lat="47.280125" lon="12.485854">
 <ele>815.43</ele>
 <time>2010-08-11T08:53:28Z</time>
 </trkpt>
 <trkpt lat="47.279808" lon="12.485984">
 <ele>815.51</ele>
 <time>2010-08-11T08:53:35Z</time>
 </trkpt>
 <trkpt lat="47.279537" lon="12.486075">
 <ele>815.74</ele>
 <time>2010-08-11T08:53:41Z</time>
 </trkpt>
 <trkpt lat="47.279121" lon="12.486110">
 <ele>816.49</ele>
 <time>2010-08-11T08:53:50Z</time>
 </trkpt>
 <trkpt lat="47.278824" lon="12.486149">
 <ele>816.90</ele>
 <time>2010-08-11T08:53:57Z</time>
 </trkpt>
 <trkpt lat="47.278591" lon="12.486295">
 <ele>817.69</ele>
 <time>2010-08-11T08:54:03Z</time>
 </trkpt>
 <trkpt lat="47.278423" lon="12.486439">
 <ele>819.14</ele>
 <time>2010-08-11T08:54:09Z</time>
 </trkpt>
 <trkpt lat="47.278217" lon="12.486683">
 <ele>820.63</ele>
 <time>2010-08-11T08:54:18Z</time>
 </trkpt>
 <trkpt lat="47.278088" lon="12.486890">
 <ele>819.89</ele>
 <time>2010-08-11T08:54:23Z</time>
 </trkpt>
 <trkpt lat="47.277973" lon="12.487141">
 <ele>818.52</ele>
 <time>2010-08-11T08:54:27Z</time>
 </trkpt>
 <trkpt lat="47.277935" lon="12.487229">
 <ele>818.25</ele>
 <time>2010-08-11T08:54:29Z</time>
 </trkpt>
 <trkpt lat="47.277931" lon="12.487509">
 <ele>817.63</ele>
 <time>2010-08-11T08:54:33Z</time>
 </trkpt>
 <trkpt lat="47.277939" lon="12.487964">
 <ele>816.38</ele>
 <time>2010-08-11T08:54:38Z</time>
 </trkpt>
 <trkpt lat="47.277973" lon="12.488503">
 <ele>816.21</ele>
 <time>2010-08-11T08:54:45Z</time>
 </trkpt>
 <trkpt lat="47.278053" lon="12.489077">
 <ele>815.75</ele>
 <time>2010-08-11T08:54:52Z</time>
 </trkpt>
 <trkpt lat="47.278091" lon="12.489409">
 <ele>815.68</ele>
 <time>2010-08-11T08:54:56Z</time>
 </trkpt>
 <trkpt lat="47.278145" lon="12.490017">
 <ele>815.20</ele>
 <time>2010-08-11T08:55:04Z</time>
 </trkpt>
 <trkpt lat="47.278172" lon="12.490320">
 <ele>815.11</ele>
 <time>2010-08-11T08:55:08Z</time>
 </trkpt>
 <trkpt lat="47.278183" lon="12.490447">
 <ele>815.16</ele>
 <time>2010-08-11T08:55:12Z</time>
 </trkpt>
 <trkpt lat="47.277809" lon="12.490902">
 <ele>815.26</ele>
 <time>2010-08-11T08:55:17Z</time>
 </trkpt>
 <trkpt lat="47.277737" lon="12.491622">
 <ele>814.74</ele>
 <time>2010-08-11T08:55:27Z</time>
 </trkpt>
 <trkpt lat="47.277710" lon="12.492120">
 <ele>813.89</ele>
 <time>2010-08-11T08:55:35Z</time>
 </trkpt>
 <trkpt lat="47.277710" lon="12.492120">
 <ele>813.61</ele>
 <time>2010-08-11T08:55:39Z</time>
 </trkpt>
 <trkpt lat="47.278160" lon="12.492842">
 <ele>812.94</ele>
 <time>2010-08-11T08:55:43Z</time>
 </trkpt>
 <trkpt lat="47.278160" lon="12.492936">
 <ele>812.50</ele>
 <time>2010-08-11T08:55:45Z</time>
 </trkpt>
 <trkpt lat="47.278198" lon="12.492954">
 <ele>812.13</ele>
 <time>2010-08-11T08:55:48Z</time>
 </trkpt>
 <trkpt lat="47.278507" lon="12.493006">
 <ele>811.09</ele>
 <time>2010-08-11T08:55:54Z</time>
 </trkpt>
 <trkpt lat="47.278683" lon="12.493074">
 <ele>810.51</ele>
 <time>2010-08-11T08:55:58Z</time>
 </trkpt>
 <trkpt lat="47.278763" lon="12.493162">
 <ele>810.37</ele>
 <time>2010-08-11T08:56:00Z</time>
 </trkpt>
 <trkpt lat="47.279049" lon="12.493816">
 <ele>809.89</ele>
 <time>2010-08-11T08:56:10Z</time>
 </trkpt>
 <trkpt lat="47.279156" lon="12.494386">
 <ele>810.06</ele>
 <time>2010-08-11T08:56:17Z</time>
 </trkpt>
 <trkpt lat="47.279194" lon="12.494971">
 <ele>809.77</ele>
 <time>2010-08-11T08:56:24Z</time>
 </trkpt>
 <trkpt lat="47.279217" lon="12.495611">
 <ele>809.97</ele>
 <time>2010-08-11T08:56:32Z</time>
 </trkpt>
 <trkpt lat="47.279305" lon="12.496074">
 <ele>809.66</ele>
 <time>2010-08-11T08:56:38Z</time>
 </trkpt>
 <trkpt lat="47.279541" lon="12.496702">
 <ele>809.27</ele>
 <time>2010-08-11T08:56:47Z</time>
 </trkpt>
 <trkpt lat="47.279816" lon="12.497411">
 <ele>808.94</ele>
 <time>2010-08-11T08:56:57Z</time>
 </trkpt>
 <trkpt lat="47.280045" lon="12.498063">
 <ele>809.01</ele>
 <time>2010-08-11T08:57:06Z</time>
 </trkpt>
 <trkpt lat="47.280231" lon="12.498584">
 <ele>808.98</ele>
 <time>2010-08-11T08:57:13Z</time>
 </trkpt>
 <trkpt lat="47.280285" lon="12.498966">
 <ele>808.80</ele>
 <time>2010-08-11T08:57:18Z</time>
 </trkpt>
 <trkpt lat="47.280247" lon="12.499115">
 <ele>808.79</ele>
 <time>2010-08-11T08:57:20Z</time>
 </trkpt>
 <trkpt lat="47.280090" lon="12.499478">
 <ele>808.65</ele>
 <time>2010-08-11T08:57:25Z</time>
 </trkpt>
 <trkpt lat="47.280014" lon="12.499912">
 <ele>808.49</ele>
 <time>2010-08-11T08:57:30Z</time>
 </trkpt>
 <trkpt lat="47.280140" lon="12.500168">
 <ele>808.57</ele>
 <time>2010-08-11T08:57:34Z</time>
 </trkpt>
 <trkpt lat="47.280186" lon="12.500211">
 <ele>808.66</ele>
 <time>2010-08-11T08:57:35Z</time>
 </trkpt>
 <trkpt lat="47.280373" lon="12.500354">
 <ele>808.98</ele>
 <time>2010-08-11T08:57:39Z</time>
 </trkpt>
 <trkpt lat="47.280525" lon="12.500646">
 <ele>809.09</ele>
 <time>2010-08-11T08:57:44Z</time>
 </trkpt>
 <trkpt lat="47.280613" lon="12.500977">
 <ele>809.60</ele>
 <time>2010-08-11T08:57:50Z</time>
 </trkpt>
 <trkpt lat="47.280621" lon="12.501005">
 <ele>809.71</ele>
 <time>2010-08-11T08:57:54Z</time>
 </trkpt>
 <trkpt lat="47.280621" lon="12.501005">
 <ele>809.53</ele>
 <time>2010-08-11T08:57:58Z</time>
 </trkpt>
 <trkpt lat="47.280621" lon="12.501005">
 <ele>809.67</ele>
 <time>2010-08-11T08:58:31Z</time>
 </trkpt>
 <trkpt lat="47.280621" lon="12.501005">
 <ele>809.75</ele>
 <time>2010-08-11T08:58:32Z</time>
 </trkpt>
 <trkpt lat="47.280621" lon="12.501005">
 <ele>810.01</ele>
 <time>2010-08-11T09:00:46Z</time>
 </trkpt>
 <trkpt lat="47.280659" lon="12.501137">
 <ele>810.18</ele>
 <time>2010-08-11T09:00:54Z</time>
 </trkpt>
 <trkpt lat="47.280731" lon="12.501407">
 <ele>810.03</ele>
 <time>2010-08-11T09:01:00Z</time>
 </trkpt>
 <trkpt lat="47.280807" lon="12.501626">
 <ele>810.10</ele>
 <time>2010-08-11T09:01:04Z</time>
 </trkpt>
 <trkpt lat="47.280827" lon="12.501684">
 <ele>810.08</ele>
 <time>2010-08-11T09:01:05Z</time>
 </trkpt>
 <trkpt lat="47.281029" lon="12.502244">
 <ele>810.05</ele>
 <time>2010-08-11T09:01:14Z</time>
 </trkpt>
 <trkpt lat="47.281174" lon="12.502636">
 <ele>809.89</ele>
 <time>2010-08-11T09:01:20Z</time>
 </trkpt>
 <trkpt lat="47.281204" lon="12.502909">
 <ele>810.06</ele>
 <time>2010-08-11T09:01:24Z</time>
 </trkpt>
 <trkpt lat="47.281151" lon="12.503655">
 <ele>810.23</ele>
 <time>2010-08-11T09:01:34Z</time>
 </trkpt>
 <trkpt lat="47.281094" lon="12.504368">
 <ele>809.79</ele>
 <time>2010-08-11T09:01:43Z</time>
 </trkpt>
 <trkpt lat="47.281055" lon="12.504996">
 <ele>809.79</ele>
 <time>2010-08-11T09:01:51Z</time>
 </trkpt>
 <trkpt lat="47.280991" lon="12.505797">
 <ele>810.00</ele>
 <time>2010-08-11T09:02:01Z</time>
 </trkpt>
 <trkpt lat="47.280903" lon="12.506507">
 <ele>809.80</ele>
 <time>2010-08-11T09:02:10Z</time>
 </trkpt>
 <trkpt lat="47.280781" lon="12.507460">
 <ele>809.68</ele>
 <time>2010-08-11T09:02:22Z</time>
 </trkpt>
 <trkpt lat="47.280666" lon="12.508445">
 <ele>809.91</ele>
 <time>2010-08-11T09:02:34Z</time>
 </trkpt>
 <trkpt lat="47.280640" lon="12.509111">
 <ele>809.71</ele>
 <time>2010-08-11T09:02:42Z</time>
 </trkpt>
 <trkpt lat="47.280605" lon="12.509927">
 <ele>809.80</ele>
 <time>2010-08-11T09:02:52Z</time>
 </trkpt>
 <trkpt lat="47.280602" lon="12.510841">
 <ele>809.65</ele>
 <time>2010-08-11T09:03:03Z</time>
 </trkpt>
 <trkpt lat="47.280594" lon="12.511775">
 <ele>809.20</ele>
 <time>2010-08-11T09:03:14Z</time>
 </trkpt>
 <trkpt lat="47.280590" lon="12.512685">
 <ele>809.56</ele>
 <time>2010-08-11T09:03:25Z</time>
 </trkpt>
 <trkpt lat="47.280640" lon="12.513336">
 <ele>809.66</ele>
 <time>2010-08-11T09:03:33Z</time>
 </trkpt>
 <trkpt lat="47.280788" lon="12.513989">
 <ele>808.87</ele>
 <time>2010-08-11T09:03:41Z</time>
 </trkpt>
 <trkpt lat="47.280827" lon="12.514487">
 <ele>808.58</ele>
 <time>2010-08-11T09:03:47Z</time>
 </trkpt>
 <trkpt lat="47.280773" lon="12.515408">
 <ele>808.78</ele>
 <time>2010-08-11T09:03:58Z</time>
 </trkpt>
 <trkpt lat="47.280758" lon="12.516322">
 <ele>808.62</ele>
 <time>2010-08-11T09:04:09Z</time>
 </trkpt>
 <trkpt lat="47.280804" lon="12.516967">
 <ele>808.69</ele>
 <time>2010-08-11T09:04:17Z</time>
 </trkpt>
 <trkpt lat="47.280823" lon="12.517777">
 <ele>808.82</ele>
 <time>2010-08-11T09:04:27Z</time>
 </trkpt>
 <trkpt lat="47.280804" lon="12.518439">
 <ele>808.28</ele>
 <time>2010-08-11T09:04:35Z</time>
 </trkpt>
 <trkpt lat="47.280743" lon="12.519088">
 <ele>808.38</ele>
 <time>2010-08-11T09:04:43Z</time>
 </trkpt>
 <trkpt lat="47.280674" lon="12.519868">
 <ele>808.69</ele>
 <time>2010-08-11T09:04:53Z</time>
 </trkpt>
 <trkpt lat="47.280704" lon="12.520501">
 <ele>808.75</ele>
 <time>2010-08-11T09:05:01Z</time>
 </trkpt>
 <trkpt lat="47.280621" lon="12.521366">
 <ele>808.67</ele>
 <time>2010-08-11T09:05:12Z</time>
 </trkpt>
 <trkpt lat="47.280575" lon="12.522203">
 <ele>808.96</ele>
 <time>2010-08-11T09:05:23Z</time>
 </trkpt>
 <trkpt lat="47.280563" lon="12.522454">
 <ele>808.92</ele>
 <time>2010-08-11T09:05:27Z</time>
 </trkpt>
 <trkpt lat="47.280544" lon="12.522715">
 <ele>808.64</ele>
 <time>2010-08-11T09:05:33Z</time>
 </trkpt>
 <trkpt lat="47.280598" lon="12.522924">
 <ele>808.89</ele>
 <time>2010-08-11T09:05:39Z</time>
 </trkpt>
 <trkpt lat="47.280609" lon="12.522955">
 <ele>808.74</ele>
 <time>2010-08-11T09:05:43Z</time>
 </trkpt>
 <trkpt lat="47.280922" lon="12.523375">
 <ele>808.66</ele>
 <time>2010-08-11T09:05:50Z</time>
 </trkpt>
 <trkpt lat="47.281166" lon="12.523780">
 <ele>808.16</ele>
 <time>2010-08-11T09:05:57Z</time>
 </trkpt>
 <trkpt lat="47.281326" lon="12.524266">
 <ele>807.97</ele>
 <time>2010-08-11T09:06:04Z</time>
 </trkpt>
 <trkpt lat="47.281490" lon="12.524743">
 <ele>807.89</ele>
 <time>2010-08-11T09:06:11Z</time>
 </trkpt>
 <trkpt lat="47.281818" lon="12.525449">
 <ele>808.05</ele>
 <time>2010-08-11T09:06:22Z</time>
 </trkpt>
 <trkpt lat="47.282101" lon="12.526013">
 <ele>808.15</ele>
 <time>2010-08-11T09:06:31Z</time>
 </trkpt>
 <trkpt lat="47.282406" lon="12.526635">
 <ele>807.88</ele>
 <time>2010-08-11T09:06:41Z</time>
 </trkpt>
 <trkpt lat="47.282436" lon="12.526694">
 <ele>808.02</ele>
 <time>2010-08-11T09:06:42Z</time>
 </trkpt>
 <trkpt lat="47.282520" lon="12.526869">
 <ele>807.97</ele>
 <time>2010-08-11T09:06:45Z</time>
 </trkpt>
 <trkpt lat="47.282696" lon="12.527034">
 <ele>808.59</ele>
 <time>2010-08-11T09:06:49Z</time>
 </trkpt>
 <trkpt lat="47.283146" lon="12.527102">
 <ele>809.64</ele>
 <time>2010-08-11T09:06:59Z</time>
 </trkpt>
 <trkpt lat="47.283447" lon="12.527109">
 <ele>810.21</ele>
 <time>2010-08-11T09:07:06Z</time>
 </trkpt>
 <trkpt lat="47.283916" lon="12.527144">
 <ele>809.12</ele>
 <time>2010-08-11T09:07:15Z</time>
 </trkpt>
 <trkpt lat="47.284176" lon="12.527218">
 <ele>808.27</ele>
 <time>2010-08-11T09:07:20Z</time>
 </trkpt>
 <trkpt lat="47.284512" lon="12.527393">
 <ele>808.09</ele>
 <time>2010-08-11T09:07:27Z</time>
 </trkpt>
 <trkpt lat="47.284637" lon="12.527457">
 <ele>808.08</ele>
 <time>2010-08-11T09:07:30Z</time>
 </trkpt>
 <trkpt lat="47.284912" lon="12.527526">
 <ele>808.43</ele>
 <time>2010-08-11T09:07:37Z</time>
 </trkpt>
 <trkpt lat="47.285137" lon="12.527537">
 <ele>808.68</ele>
 <time>2010-08-11T09:07:43Z</time>
 </trkpt>
 <trkpt lat="47.285412" lon="12.527476">
 <ele>809.01</ele>
 <time>2010-08-11T09:07:50Z</time>
 </trkpt>
 <trkpt lat="47.285728" lon="12.527486">
 <ele>809.86</ele>
 <time>2010-08-11T09:07:58Z</time>
 </trkpt>
 <trkpt lat="47.285976" lon="12.527519">
 <ele>810.92</ele>
 <time>2010-08-11T09:08:05Z</time>
 </trkpt>
 <trkpt lat="47.286266" lon="12.527592">
 <ele>812.37</ele>
 <time>2010-08-11T09:08:14Z</time>
 </trkpt>
 <trkpt lat="47.286503" lon="12.527690">
 <ele>813.46</ele>
 <time>2010-08-11T09:08:22Z</time>
 </trkpt>
 <trkpt lat="47.286572" lon="12.527719">
 <ele>814.37</ele>
 <time>2010-08-11T09:08:27Z</time>
 </trkpt>
 <trkpt lat="47.286671" lon="12.527906">
 <ele>814.90</ele>
 <time>2010-08-11T09:08:31Z</time>
 </trkpt>
 <trkpt lat="47.286652" lon="12.528161">
 <ele>815.50</ele>
 <time>2010-08-11T09:08:38Z</time>
 </trkpt>
 <trkpt lat="47.286648" lon="12.528207">
 <ele>815.90</ele>
 <time>2010-08-11T09:08:41Z</time>
 </trkpt>
 <trkpt lat="47.286636" lon="12.528343">
 <ele>816.06</ele>
 <time>2010-08-11T09:08:51Z</time>
 </trkpt>
 <trkpt lat="47.286636" lon="12.528343">
 <ele>816.10</ele>
 <time>2010-08-11T09:08:53Z</time>
 </trkpt>
 <trkpt lat="47.286629" lon="12.528454">
 <ele>815.80</ele>
 <time>2010-08-11T09:09:04Z</time>
 </trkpt>
 <trkpt lat="47.286850" lon="12.528519">
 <ele>816.41</ele>
 <time>2010-08-11T09:09:10Z</time>
 </trkpt>
 <trkpt lat="47.287029" lon="12.528653">
 <ele>817.43</ele>
 <time>2010-08-11T09:09:17Z</time>
 </trkpt>
 <trkpt lat="47.287338" lon="12.528822">
 <ele>819.02</ele>
 <time>2010-08-11T09:09:28Z</time>
 </trkpt>
 <trkpt lat="47.287533" lon="12.528879">
 <ele>819.76</ele>
 <time>2010-08-11T09:09:35Z</time>
 </trkpt>
 <trkpt lat="47.287735" lon="12.528900">
 <ele>821.19</ele>
 <time>2010-08-11T09:09:42Z</time>
 </trkpt>
 <trkpt lat="47.287979" lon="12.528920">
 <ele>823.12</ele>
 <time>2010-08-11T09:09:51Z</time>
 </trkpt>
 <trkpt lat="47.288265" lon="12.528904">
 <ele>825.44</ele>
 <time>2010-08-11T09:10:03Z</time>
 </trkpt>
 <trkpt lat="47.288391" lon="12.528941">
 <ele>826.44</ele>
 <time>2010-08-11T09:10:09Z</time>
 </trkpt>
 <trkpt lat="47.288448" lon="12.529025">
 <ele>827.19</ele>
 <time>2010-08-11T09:10:13Z</time>
 </trkpt>
 <trkpt lat="47.288532" lon="12.529141">
 <ele>828.34</ele>
 <time>2010-08-11T09:10:20Z</time>
 </trkpt>
 <trkpt lat="47.288631" lon="12.529285">
 <ele>828.87</ele>
 <time>2010-08-11T09:10:26Z</time>
 </trkpt>
 <trkpt lat="47.288631" lon="12.529285">
 <ele>829.80</ele>
 <time>2010-08-11T09:10:32Z</time>
 </trkpt>
 <trkpt lat="47.288700" lon="12.529822">
 <ele>829.92</ele>
 <time>2010-08-11T09:10:39Z</time>
 </trkpt>
 <trkpt lat="47.288750" lon="12.530272">
 <ele>829.55</ele>
 <time>2010-08-11T09:10:47Z</time>
 </trkpt>
 <trkpt lat="47.288803" lon="12.530781">
 <ele>828.94</ele>
 <time>2010-08-11T09:10:55Z</time>
 </trkpt>
 <trkpt lat="47.288857" lon="12.531248">
 <ele>826.89</ele>
 <time>2010-08-11T09:11:00Z</time>
 </trkpt>
 <trkpt lat="47.288876" lon="12.531889">
 <ele>826.51</ele>
 <time>2010-08-11T09:11:07Z</time>
 </trkpt>
 <trkpt lat="47.288933" lon="12.532465">
 <ele>826.34</ele>
 <time>2010-08-11T09:11:14Z</time>
 </trkpt>
 <trkpt lat="47.288933" lon="12.532806">
 <ele>825.87</ele>
 <time>2010-08-11T09:11:18Z</time>
 </trkpt>
 <trkpt lat="47.288933" lon="12.532892">
 <ele>825.70</ele>
 <time>2010-08-11T09:11:19Z</time>
 </trkpt>
 <trkpt lat="47.288921" lon="12.533360">
 <ele>824.39</ele>
 <time>2010-08-11T09:11:24Z</time>
 </trkpt>
 <trkpt lat="47.288872" lon="12.534060">
 <ele>823.17</ele>
 <time>2010-08-11T09:11:31Z</time>
 </trkpt>
 <trkpt lat="47.288895" lon="12.534411">
 <ele>822.95</ele>
 <time>2010-08-11T09:11:35Z</time>
 </trkpt>
 <trkpt lat="47.288918" lon="12.534674">
 <ele>822.85</ele>
 <time>2010-08-11T09:11:38Z</time>
 </trkpt>
 <trkpt lat="47.288963" lon="12.534959">
 <ele>822.55</ele>
 <time>2010-08-11T09:11:42Z</time>
 </trkpt>
 <trkpt lat="47.288799" lon="12.535565">
 <ele>820.91</ele>
 <time>2010-08-11T09:11:48Z</time>
 </trkpt>
 <trkpt lat="47.288677" lon="12.535906">
 <ele>819.88</ele>
 <time>2010-08-11T09:11:53Z</time>
 </trkpt>
 <trkpt lat="47.288589" lon="12.536152">
 <ele>819.22</ele>
 <time>2010-08-11T09:11:58Z</time>
 </trkpt>
 <trkpt lat="47.288624" lon="12.536526">
 <ele>820.77</ele>
 <time>2010-08-11T09:12:03Z</time>
 </trkpt>
 <trkpt lat="47.288631" lon="12.536699">
 <ele>821.76</ele>
 <time>2010-08-11T09:12:07Z</time>
 </trkpt>
 <trkpt lat="47.288631" lon="12.536745">
 <ele>821.97</ele>
 <time>2010-08-11T09:12:08Z</time>
 </trkpt>
 <trkpt lat="47.288631" lon="12.537031">
 <ele>823.72</ele>
 <time>2010-08-11T09:12:14Z</time>
 </trkpt>
 <trkpt lat="47.288631" lon="12.537339">
 <ele>825.79</ele>
 <time>2010-08-11T09:12:21Z</time>
 </trkpt>
 <trkpt lat="47.288631" lon="12.537643">
 <ele>827.57</ele>
 <time>2010-08-11T09:12:29Z</time>
 </trkpt>
 <trkpt lat="47.288631" lon="12.537867">
 <ele>828.90</ele>
 <time>2010-08-11T09:12:35Z</time>
 </trkpt>
 <trkpt lat="47.288597" lon="12.538199">
 <ele>830.54</ele>
 <time>2010-08-11T09:12:44Z</time>
 </trkpt>
 <trkpt lat="47.288548" lon="12.538495">
 <ele>832.31</ele>
 <time>2010-08-11T09:12:52Z</time>
 </trkpt>
 <trkpt lat="47.288490" lon="12.538818">
 <ele>832.78</ele>
 <time>2010-08-11T09:13:00Z</time>
 </trkpt>
 <trkpt lat="47.288433" lon="12.539209">
 <ele>833.04</ele>
 <time>2010-08-11T09:13:09Z</time>
 </trkpt>
 <trkpt lat="47.288429" lon="12.539691">
 <ele>832.65</ele>
 <time>2010-08-11T09:13:17Z</time>
 </trkpt>
 <trkpt lat="47.288460" lon="12.540150">
 <ele>833.51</ele>
 <time>2010-08-11T09:13:25Z</time>
 </trkpt>
 <trkpt lat="47.288460" lon="12.540666">
 <ele>834.37</ele>
 <time>2010-08-11T09:13:34Z</time>
 </trkpt>
 <trkpt lat="47.288433" lon="12.541221">
 <ele>835.69</ele>
 <time>2010-08-11T09:13:44Z</time>
 </trkpt>
 <trkpt lat="47.288418" lon="12.541528">
 <ele>835.24</ele>
 <time>2010-08-11T09:13:49Z</time>
 </trkpt>
 <trkpt lat="47.288383" lon="12.542017">
 <ele>834.63</ele>
 <time>2010-08-11T09:13:56Z</time>
 </trkpt>
 <trkpt lat="47.288364" lon="12.542251">
 <ele>833.80</ele>
 <time>2010-08-11T09:13:59Z</time>
 </trkpt>
 <trkpt lat="47.288353" lon="12.542761">
 <ele>832.82</ele>
 <time>2010-08-11T09:14:05Z</time>
 </trkpt>
 <trkpt lat="47.288353" lon="12.542838">
 <ele>832.96</ele>
 <time>2010-08-11T09:14:06Z</time>
 </trkpt>
 <trkpt lat="47.288296" lon="12.543338">
 <ele>833.00</ele>
 <time>2010-08-11T09:14:13Z</time>
 </trkpt>
 <trkpt lat="47.288242" lon="12.543566">
 <ele>833.51</ele>
 <time>2010-08-11T09:14:17Z</time>
 </trkpt>
 <trkpt lat="47.288170" lon="12.543707">
 <ele>833.16</ele>
 <time>2010-08-11T09:14:20Z</time>
 </trkpt>
 <trkpt lat="47.287838" lon="12.543868">
 <ele>830.50</ele>
 <time>2010-08-11T09:14:26Z</time>
 </trkpt>
 <trkpt lat="47.287647" lon="12.543928">
 <ele>829.02</ele>
 <time>2010-08-11T09:14:30Z</time>
 </trkpt>
 <trkpt lat="47.287540" lon="12.543962">
 <ele>828.12</ele>
 <time>2010-08-11T09:14:33Z</time>
 </trkpt>
 <trkpt lat="47.287392" lon="12.544004">
 <ele>826.71</ele>
 <time>2010-08-11T09:14:36Z</time>
 </trkpt>
 <trkpt lat="47.287025" lon="12.544090">
 <ele>824.44</ele>
 <time>2010-08-11T09:14:42Z</time>
 </trkpt>
 <trkpt lat="47.286999" lon="12.544125">
 <ele>824.22</ele>
 <time>2010-08-11T09:14:43Z</time>
 </trkpt>
 <trkpt lat="47.286888" lon="12.544300">
 <ele>823.36</ele>
 <time>2010-08-11T09:14:48Z</time>
 </trkpt>
 <trkpt lat="47.286793" lon="12.544597">
 <ele>820.79</ele>
 <time>2010-08-11T09:14:52Z</time>
 </trkpt>
 <trkpt lat="47.286713" lon="12.545186">
 <ele>816.91</ele>
 <time>2010-08-11T09:14:57Z</time>
 </trkpt>
 <trkpt lat="47.286530" lon="12.546126">
 <ele>812.38</ele>
 <time>2010-08-11T09:15:04Z</time>
 </trkpt>
 <trkpt lat="47.286469" lon="12.546556">
 <ele>811.07</ele>
 <time>2010-08-11T09:15:07Z</time>
 </trkpt>
 <trkpt lat="47.286392" lon="12.547282">
 <ele>808.78</ele>
 <time>2010-08-11T09:15:12Z</time>
 </trkpt>
 <trkpt lat="47.286407" lon="12.548256">
 <ele>806.59</ele>
 <time>2010-08-11T09:15:19Z</time>
 </trkpt>
 <trkpt lat="47.286438" lon="12.549266">
 <ele>805.99</ele>
 <time>2010-08-11T09:15:27Z</time>
 </trkpt>
 <trkpt lat="47.286430" lon="12.550080">
 <ele>806.00</ele>
 <time>2010-08-11T09:15:34Z</time>
 </trkpt>
 <trkpt lat="47.286366" lon="12.550825">
 <ele>806.54</ele>
 <time>2010-08-11T09:15:41Z</time>
 </trkpt>
 <trkpt lat="47.286285" lon="12.551499">
 <ele>806.84</ele>
 <time>2010-08-11T09:15:48Z</time>
 </trkpt>
 <trkpt lat="47.286263" lon="12.551860">
 <ele>807.35</ele>
 <time>2010-08-11T09:15:52Z</time>
 </trkpt>
 <trkpt lat="47.286236" lon="12.552443">
 <ele>808.38</ele>
 <time>2010-08-11T09:15:59Z</time>
 </trkpt>
 <trkpt lat="47.286209" lon="12.553012">
 <ele>809.76</ele>
 <time>2010-08-11T09:16:07Z</time>
 </trkpt>
 <trkpt lat="47.286190" lon="12.553601">
 <ele>811.32</ele>
 <time>2010-08-11T09:16:16Z</time>
 </trkpt>
 <trkpt lat="47.286167" lon="12.554256">
 <ele>812.73</ele>
 <time>2010-08-11T09:16:27Z</time>
 </trkpt>
 <trkpt lat="47.286163" lon="12.554964">
 <ele>814.45</ele>
 <time>2010-08-11T09:16:39Z</time>
 </trkpt>
 <trkpt lat="47.286163" lon="12.555475">
 <ele>816.05</ele>
 <time>2010-08-11T09:16:48Z</time>
 </trkpt>
 <trkpt lat="47.286144" lon="12.555883">
 <ele>817.43</ele>
 <time>2010-08-11T09:16:56Z</time>
 </trkpt>
 <trkpt lat="47.286098" lon="12.556358">
 <ele>818.40</ele>
 <time>2010-08-11T09:17:05Z</time>
 </trkpt>
 <trkpt lat="47.286037" lon="12.556725">
 <ele>818.77</ele>
 <time>2010-08-11T09:17:12Z</time>
 </trkpt>
 <trkpt lat="47.285873" lon="12.557175">
 <ele>818.52</ele>
 <time>2010-08-11T09:17:20Z</time>
 </trkpt>
 <trkpt lat="47.285652" lon="12.557582">
 <ele>817.73</ele>
 <time>2010-08-11T09:17:27Z</time>
 </trkpt>
 <trkpt lat="47.285385" lon="12.558071">
 <ele>816.38</ele>
 <time>2010-08-11T09:17:34Z</time>
 </trkpt>
 <trkpt lat="47.285065" lon="12.558654">
 <ele>815.50</ele>
 <time>2010-08-11T09:17:42Z</time>
 </trkpt>
 <trkpt lat="47.284801" lon="12.559160">
 <ele>814.94</ele>
 <time>2010-08-11T09:17:49Z</time>
 </trkpt>
 <trkpt lat="47.284676" lon="12.559813">
 <ele>815.10</ele>
 <time>2010-08-11T09:17:57Z</time>
 </trkpt>
 <trkpt lat="47.284618" lon="12.560506">
 <ele>815.76</ele>
 <time>2010-08-11T09:18:06Z</time>
 </trkpt>
 <trkpt lat="47.284618" lon="12.561075">
 <ele>816.74</ele>
 <time>2010-08-11T09:18:14Z</time>
 </trkpt>
 <trkpt lat="47.284618" lon="12.561589">
 <ele>818.24</ele>
 <time>2010-08-11T09:18:22Z</time>
 </trkpt>
 <trkpt lat="47.284561" lon="12.562040">
 <ele>819.63</ele>
 <time>2010-08-11T09:18:30Z</time>
 </trkpt>
 <trkpt lat="47.284481" lon="12.562335">
 <ele>819.44</ele>
 <time>2010-08-11T09:18:35Z</time>
 </trkpt>
 <trkpt lat="47.284443" lon="12.562913">
 <ele>817.01</ele>
 <time>2010-08-11T09:18:41Z</time>
 </trkpt>
 <trkpt lat="47.284348" lon="12.563807">
 <ele>813.90</ele>
 <time>2010-08-11T09:18:49Z</time>
 </trkpt>
 <trkpt lat="47.284180" lon="12.564885">
 <ele>812.25</ele>
 <time>2010-08-11T09:18:59Z</time>
 </trkpt>
 <trkpt lat="47.284096" lon="12.565500">
 <ele>812.05</ele>
 <time>2010-08-11T09:19:05Z</time>
 </trkpt>
 <trkpt lat="47.284081" lon="12.566498">
 <ele>811.79</ele>
 <time>2010-08-11T09:19:15Z</time>
 </trkpt>
 <trkpt lat="47.284107" lon="12.567169">
 <ele>811.12</ele>
 <time>2010-08-11T09:19:22Z</time>
 </trkpt>
 <trkpt lat="47.284126" lon="12.568100">
 <ele>811.03</ele>
 <time>2010-08-11T09:19:32Z</time>
 </trkpt>
 <trkpt lat="47.284149" lon="12.569168">
 <ele>810.99</ele>
 <time>2010-08-11T09:19:44Z</time>
 </trkpt>
 <trkpt lat="47.284164" lon="12.569971">
 <ele>809.88</ele>
 <time>2010-08-11T09:19:53Z</time>
 </trkpt>
 <trkpt lat="47.284168" lon="12.570151">
 <ele>809.62</ele>
 <time>2010-08-11T09:19:55Z</time>
 </trkpt>
 <trkpt lat="47.284184" lon="12.570594">
 <ele>809.42</ele>
 <time>2010-08-11T09:20:00Z</time>
 </trkpt>
 <trkpt lat="47.284229" lon="12.570847">
 <ele>809.23</ele>
 <time>2010-08-11T09:20:03Z</time>
 </trkpt>
 <trkpt lat="47.284348" lon="12.571416">
 <ele>809.66</ele>
 <time>2010-08-11T09:20:10Z</time>
 </trkpt>
 <trkpt lat="47.284393" lon="12.571741">
 <ele>811.48</ele>
 <time>2010-08-11T09:20:16Z</time>
 </trkpt>
 <trkpt lat="47.284451" lon="12.572115">
 <ele>813.48</ele>
 <time>2010-08-11T09:20:24Z</time>
 </trkpt>
 <trkpt lat="47.284470" lon="12.572136">
 <ele>814.85</ele>
 <time>2010-08-11T09:20:29Z</time>
 </trkpt>
 <trkpt lat="47.284534" lon="12.572458">
 <ele>813.53</ele>
 <time>2010-08-11T09:20:35Z</time>
 </trkpt>
 <trkpt lat="47.284534" lon="12.572458">
 <ele>812.87</ele>
 <time>2010-08-11T09:20:37Z</time>
 </trkpt>
 <trkpt lat="47.284534" lon="12.572458">
 <ele>812.03</ele>
 <time>2010-08-11T09:20:39Z</time>
 </trkpt>
 <trkpt lat="47.284534" lon="12.572458">
 <ele>809.58</ele>
 <time>2010-08-11T09:20:46Z</time>
 </trkpt>
 <trkpt lat="47.284470" lon="12.572630">
 <ele>809.37</ele>
 <time>2010-08-11T09:20:47Z</time>
 </trkpt>
 <trkpt lat="47.285305" lon="12.574720">
 <ele>806.94</ele>
 <time>2010-08-11T09:20:57Z</time>
 </trkpt>
 <trkpt lat="47.285435" lon="12.575236">
 <ele>805.73</ele>
 <time>2010-08-11T09:21:02Z</time>
 </trkpt>
 <trkpt lat="47.285568" lon="12.576004">
 <ele>803.61</ele>
 <time>2010-08-11T09:21:09Z</time>
 </trkpt>
 <trkpt lat="47.285683" lon="12.576758">
 <ele>802.66</ele>
 <time>2010-08-11T09:21:16Z</time>
 </trkpt>
 <trkpt lat="47.285686" lon="12.577371">
 <ele>802.30</ele>
 <time>2010-08-11T09:21:22Z</time>
 </trkpt>
 <trkpt lat="47.285637" lon="12.578205">
 <ele>802.58</ele>
 <time>2010-08-11T09:21:31Z</time>
 </trkpt>
 <trkpt lat="47.285625" lon="12.578892">
 <ele>802.70</ele>
 <time>2010-08-11T09:21:39Z</time>
 </trkpt>
 <trkpt lat="47.285633" lon="12.579146">
 <ele>802.95</ele>
 <time>2010-08-11T09:21:42Z</time>
 </trkpt>
 <trkpt lat="47.285629" lon="12.579477">
 <ele>803.15</ele>
 <time>2010-08-11T09:21:46Z</time>
 </trkpt>
 <trkpt lat="47.285645" lon="12.580104">
 <ele>803.44</ele>
 <time>2010-08-11T09:21:54Z</time>
 </trkpt>
 <trkpt lat="47.285690" lon="12.580806">
 <ele>804.53</ele>
 <time>2010-08-11T09:22:04Z</time>
 </trkpt>
 <trkpt lat="47.285706" lon="12.581272">
 <ele>806.21</ele>
 <time>2010-08-11T09:22:12Z</time>
 </trkpt>
 <trkpt lat="47.285618" lon="12.581679">
 <ele>807.66</ele>
 <time>2010-08-11T09:22:20Z</time>
 </trkpt>
 <trkpt lat="47.285538" lon="12.582003">
 <ele>809.42</ele>
 <time>2010-08-11T09:22:27Z</time>
 </trkpt>
 <trkpt lat="47.285465" lon="12.582396">
 <ele>811.90</ele>
 <time>2010-08-11T09:22:36Z</time>
 </trkpt>
 <trkpt lat="47.285446" lon="12.582681">
 <ele>813.52</ele>
 <time>2010-08-11T09:22:43Z</time>
 </trkpt>
 <trkpt lat="47.285435" lon="12.583124">
 <ele>816.83</ele>
 <time>2010-08-11T09:22:55Z</time>
 </trkpt>
 <trkpt lat="47.285408" lon="12.583407">
 <ele>819.01</ele>
 <time>2010-08-11T09:23:04Z</time>
 </trkpt>
 <trkpt lat="47.285374" lon="12.583676">
 <ele>821.07</ele>
 <time>2010-08-11T09:23:13Z</time>
 </trkpt>
 <trkpt lat="47.285336" lon="12.583912">
 <ele>822.27</ele>
 <time>2010-08-11T09:23:21Z</time>
 </trkpt>
 <trkpt lat="47.285301" lon="12.584165">
 <ele>823.63</ele>
 <time>2010-08-11T09:23:29Z</time>
 </trkpt>
 <trkpt lat="47.285236" lon="12.584404">
 <ele>824.21</ele>
 <time>2010-08-11T09:23:36Z</time>
 </trkpt>
 <trkpt lat="47.285130" lon="12.584726">
 <ele>823.20</ele>
 <time>2010-08-11T09:23:43Z</time>
 </trkpt>
 <trkpt lat="47.285000" lon="12.585194">
 <ele>821.70</ele>
 <time>2010-08-11T09:23:50Z</time>
 </trkpt>
 <trkpt lat="47.284962" lon="12.585425">
 <ele>821.20</ele>
 <time>2010-08-11T09:23:53Z</time>
 </trkpt>
 <trkpt lat="47.284992" lon="12.585932">
 <ele>820.41</ele>
 <time>2010-08-11T09:23:59Z</time>
 </trkpt>
 <trkpt lat="47.285168" lon="12.586577">
 <ele>818.44</ele>
 <time>2010-08-11T09:24:06Z</time>
 </trkpt>
 <trkpt lat="47.285324" lon="12.586922">
 <ele>817.46</ele>
 <time>2010-08-11T09:24:10Z</time>
 </trkpt>
 <trkpt lat="47.285496" lon="12.587450">
 <ele>814.81</ele>
 <time>2010-08-11T09:24:15Z</time>
 </trkpt>
 <trkpt lat="47.285519" lon="12.587923">
 <ele>812.52</ele>
 <time>2010-08-11T09:24:19Z</time>
 </trkpt>
 <trkpt lat="47.285166" lon="12.588812">
 <ele>783.47</ele>
 <time>1970-01-01T00:00:00Z</time>
 </trkpt>
 <trkpt lat="47.285215" lon="12.589282">
 <ele>782.08</ele>
 <time>1970-01-01T00:00:00Z</time>
 </trkpt>
 <trkpt lat="47.285194" lon="12.590162">
 <ele>803.04</ele>
 <time>2010-08-11T09:24:34Z</time>
 </trkpt>
 <trkpt lat="47.285263" lon="12.589752">
 <ele>784.75</ele>
 <time>1970-01-01T00:00:00Z</time>
 </trkpt>
 <trkpt lat="47.285343" lon="12.590794">
 <ele>802.35</ele>
 <time>2010-08-11T09:24:43Z</time>
 </trkpt>
 <trkpt lat="47.285397" lon="12.591080">
 <ele>802.48</ele>
 <time>2010-08-11T09:24:47Z</time>
 </trkpt>
 <trkpt lat="47.285408" lon="12.591149">
 <ele>802.52</ele>
 <time>2010-08-11T09:24:48Z</time>
 </trkpt>
 <trkpt lat="47.285423" lon="12.591220">
 <ele>802.64</ele>
 <time>2010-08-11T09:24:49Z</time>
 </trkpt>
 <trkpt lat="47.285534" lon="12.591820">
 <ele>802.18</ele>
 <time>2010-08-11T09:24:57Z</time>
 </trkpt>
 <trkpt lat="47.285645" lon="12.592561">
 <ele>802.08</ele>
 <time>2010-08-11T09:25:06Z</time>
 </trkpt>
 <trkpt lat="47.285622" lon="12.593186">
 <ele>801.47</ele>
 <time>2010-08-11T09:25:14Z</time>
 </trkpt>
 <trkpt lat="47.285599" lon="12.593786">
 <ele>802.45</ele>
 <time>2010-08-11T09:25:22Z</time>
 </trkpt>
 <trkpt lat="47.285576" lon="12.594449">
 <ele>803.49</ele>
 <time>2010-08-11T09:25:31Z</time>
 </trkpt>
 <trkpt lat="47.285557" lon="12.594874">
 <ele>804.17</ele>
 <time>2010-08-11T09:25:37Z</time>
 </trkpt>
 <trkpt lat="47.285545" lon="12.595242">
 <ele>805.02</ele>
 <time>2010-08-11T09:25:43Z</time>
 </trkpt>
 <trkpt lat="47.285610" lon="12.595545">
 <ele>806.12</ele>
 <time>2010-08-11T09:25:49Z</time>
 </trkpt>
 <trkpt lat="47.285931" lon="12.595464">
 <ele>807.44</ele>
 <time>2010-08-11T09:25:53Z</time>
 </trkpt>
 <trkpt lat="47.285988" lon="12.595501">
 <ele>807.26</ele>
 <time>2010-08-11T09:25:56Z</time>
 </trkpt>
 <trkpt lat="47.285824" lon="12.595396">
 <ele>805.71</ele>
 <time>2010-08-11T09:26:00Z</time>
 </trkpt>
 <trkpt lat="47.285721" lon="12.595990">
 <ele>804.41</ele>
 <time>2010-08-11T09:26:03Z</time>
 </trkpt>
 <trkpt lat="47.285671" lon="12.595799">
 <ele>802.89</ele>
 <time>2010-08-11T09:26:06Z</time>
 </trkpt>
 <trkpt lat="47.285637" lon="12.595655">
 <ele>801.93</ele>
 <time>2010-08-11T09:26:08Z</time>
 </trkpt>
 <trkpt lat="47.285610" lon="12.595549">
 <ele>801.31</ele>
 <time>2010-08-11T09:26:10Z</time>
 </trkpt>
 <trkpt lat="47.285400" lon="12.595275">
 <ele>800.68</ele>
 <time>2010-08-11T09:26:14Z</time>
 </trkpt>
 <trkpt lat="47.285194" lon="12.595286">
 <ele>801.67</ele>
 <time>2010-08-11T09:26:19Z</time>
 </trkpt>
 <trkpt lat="47.285133" lon="12.595289">
 <ele>802.38</ele>
 <time>2010-08-11T09:26:22Z</time>
 </trkpt>
 <trkpt lat="47.285133" lon="12.595289">
 <ele>802.27</ele>
 <time>2010-08-11T09:26:26Z</time>
 </trkpt>
 <trkpt lat="47.285133" lon="12.595289">
 <ele>800.81</ele>
 <time>2010-08-11T09:26:35Z</time>
 </trkpt>
 <trkpt lat="47.284096" lon="12.595510">
 <ele>800.61</ele>
 <time>2010-08-11T09:26:42Z</time>
 </trkpt>
 <trkpt lat="47.283916" lon="12.595712">
 <ele>800.67</ele>
 <time>2010-08-11T09:26:46Z</time>
 </trkpt>
 <trkpt lat="47.283604" lon="12.595923">
 <ele>800.20</ele>
 <time>2010-08-11T09:26:52Z</time>
 </trkpt>
 <trkpt lat="47.282902" lon="12.596252">
 <ele>800.34</ele>
 <time>2010-08-11T09:27:05Z</time>
 </trkpt>
 <trkpt lat="47.282791" lon="12.596288">
 <ele>800.42</ele>
 <time>2010-08-11T09:27:07Z</time>
 </trkpt>
 <trkpt lat="47.282505" lon="12.596275">
 <ele>800.34</ele>
 <time>2010-08-11T09:27:12Z</time>
 </trkpt>
 <trkpt lat="47.282127" lon="12.596428">
 <ele>800.07</ele>
 <time>2010-08-11T09:27:19Z</time>
 </trkpt>
 <trkpt lat="47.281971" lon="12.596523">
 <ele>800.26</ele>
 <time>2010-08-11T09:27:22Z</time>
 </trkpt>
 <trkpt lat="47.281693" lon="12.596534">
 <ele>800.48</ele>
 <time>2010-08-11T09:27:27Z</time>
 </trkpt>
 <trkpt lat="47.281639" lon="12.596508">
 <ele>800.53</ele>
 <time>2010-08-11T09:27:28Z</time>
 </trkpt>
 <trkpt lat="47.281036" lon="12.596207">
 <ele>800.45</ele>
 <time>2010-08-11T09:27:39Z</time>
 </trkpt>
 <trkpt lat="47.280071" lon="12.595911">
 <ele>800.51</ele>
 <time>2010-08-11T09:27:49Z</time>
 </trkpt>
 <trkpt lat="47.280071" lon="12.595911">
 <ele>801.95</ele>
 <time>2010-08-11T09:27:55Z</time>
 </trkpt>
 <trkpt lat="47.279991" lon="12.595902">
 <ele>803.21</ele>
 <time>2010-08-11T09:28:02Z</time>
 </trkpt>
 <trkpt lat="47.279686" lon="12.596001">
 <ele>802.95</ele>
 <time>2010-08-11T09:28:06Z</time>
 </trkpt>
 <trkpt lat="47.279686" lon="12.596065">
 <ele>802.77</ele>
 <time>2010-08-11T09:28:07Z</time>
 </trkpt>
 <trkpt lat="47.279694" lon="12.596748">
 <ele>802.06</ele>
 <time>2010-08-11T09:28:16Z</time>
 </trkpt>
 <trkpt lat="47.279701" lon="12.597560">
 <ele>801.64</ele>
 <time>2010-08-11T09:28:26Z</time>
 </trkpt>
 <trkpt lat="47.279713" lon="12.598390">
 <ele>801.93</ele>
 <time>2010-08-11T09:28:36Z</time>
 </trkpt>
 <trkpt lat="47.279720" lon="12.599318">
 <ele>801.76</ele>
 <time>2010-08-11T09:28:47Z</time>
 </trkpt>
 <trkpt lat="47.279728" lon="12.599900">
 <ele>801.66</ele>
 <time>2010-08-11T09:28:54Z</time>
 </trkpt>
 <trkpt lat="47.279736" lon="12.600824">
 <ele>801.96</ele>
 <time>2010-08-11T09:29:05Z</time>
 </trkpt>
 <trkpt lat="47.279747" lon="12.601771">
 <ele>801.70</ele>
 <time>2010-08-11T09:29:16Z</time>
 </trkpt>
 <trkpt lat="47.279793" lon="12.602461">
 <ele>801.57</ele>
 <time>2010-08-11T09:29:24Z</time>
 </trkpt>
 <trkpt lat="47.279861" lon="12.603137">
 <ele>801.39</ele>
 <time>2010-08-11T09:29:32Z</time>
 </trkpt>
 <trkpt lat="47.279942" lon="12.603957">
 <ele>801.27</ele>
 <time>2010-08-11T09:29:42Z</time>
 </trkpt>
 <trkpt lat="47.280083" lon="12.604677">
 <ele>801.22</ele>
 <time>2010-08-11T09:29:51Z</time>
 </trkpt>
 <trkpt lat="47.280209" lon="12.605325">
 <ele>801.26</ele>
 <time>2010-08-11T09:29:59Z</time>
 </trkpt>
 <trkpt lat="47.280334" lon="12.605974">
 <ele>801.29</ele>
 <time>2010-08-11T09:30:07Z</time>
 </trkpt>
 <trkpt lat="47.280357" lon="12.606869">
 <ele>801.16</ele>
 <time>2010-08-11T09:30:18Z</time>
 </trkpt>
 <trkpt lat="47.280369" lon="12.607817">
 <ele>800.88</ele>
 <time>2010-08-11T09:30:29Z</time>
 </trkpt>
 <trkpt lat="47.280376" lon="12.608700">
 <ele>800.72</ele>
 <time>2010-08-11T09:30:39Z</time>
 </trkpt>
 <trkpt lat="47.280388" lon="12.609730">
 <ele>800.45</ele>
 <time>2010-08-11T09:30:51Z</time>
 </trkpt>
 <trkpt lat="47.280399" lon="12.610659">
 <ele>800.42</ele>
 <time>2010-08-11T09:31:02Z</time>
 </trkpt>
 <trkpt lat="47.280411" lon="12.611583">
 <ele>800.57</ele>
 <time>2010-08-11T09:31:13Z</time>
 </trkpt>
 <trkpt lat="47.280411" lon="12.611839">
 <ele>800.67</ele>
 <time>2010-08-11T09:31:16Z</time>
 </trkpt>
 <trkpt lat="47.280361" lon="12.612214">
 <ele>800.59</ele>
 <time>2010-08-11T09:31:20Z</time>
 </trkpt>
 <trkpt lat="47.280186" lon="12.612481">
 <ele>799.03</ele>
 <time>2010-08-11T09:31:24Z</time>
 </trkpt>
 <trkpt lat="47.279800" lon="12.613072">
 <ele>798.67</ele>
 <time>2010-08-11T09:31:33Z</time>
 </trkpt>
 <trkpt lat="47.279434" lon="12.613627">
 <ele>798.78</ele>
 <time>2010-08-11T09:31:42Z</time>
 </trkpt>
 <trkpt lat="47.279118" lon="12.614214">
 <ele>798.95</ele>
 <time>2010-08-11T09:31:51Z</time>
 </trkpt>
 <trkpt lat="47.279091" lon="12.614290">
 <ele>798.96</ele>
 <time>2010-08-11T09:31:52Z</time>
 </trkpt>
 <trkpt lat="47.278900" lon="12.614901">
 <ele>798.68</ele>
 <time>2010-08-11T09:32:00Z</time>
 </trkpt>
 <trkpt lat="47.278831" lon="12.615476">
 <ele>798.65</ele>
 <time>2010-08-11T09:32:07Z</time>
 </trkpt>
 <trkpt lat="47.278873" lon="12.616059">
 <ele>798.77</ele>
 <time>2010-08-11T09:32:14Z</time>
 </trkpt>
 <trkpt lat="47.278927" lon="12.616803">
 <ele>798.66</ele>
 <time>2010-08-11T09:32:23Z</time>
 </trkpt>
 <trkpt lat="47.278969" lon="12.617443">
 <ele>798.99</ele>
 <time>2010-08-11T09:32:31Z</time>
 </trkpt>
 <trkpt lat="47.279037" lon="12.618021">
 <ele>799.11</ele>
 <time>2010-08-11T09:32:38Z</time>
 </trkpt>
 <trkpt lat="47.279110" lon="12.618567">
 <ele>799.62</ele>
 <time>2010-08-11T09:32:45Z</time>
 </trkpt>
 <trkpt lat="47.279144" lon="12.618854">
 <ele>800.37</ele>
 <time>2010-08-11T09:32:49Z</time>
 </trkpt>
 <trkpt lat="47.279041" lon="12.619686">
 <ele>800.23</ele>
 <time>2010-08-11T09:32:59Z</time>
 </trkpt>
 <trkpt lat="47.278919" lon="12.620614">
 <ele>800.30</ele>
 <time>2010-08-11T09:33:10Z</time>
 </trkpt>
 <trkpt lat="47.278854" lon="12.621110">
 <ele>800.16</ele>
 <time>2010-08-11T09:33:16Z</time>
 </trkpt>
 <trkpt lat="47.278912" lon="12.621381">
 <ele>800.34</ele>
 <time>2010-08-11T09:33:20Z</time>
 </trkpt>
 <trkpt lat="47.278934" lon="12.621381">
 <ele>800.52</ele>
 <time>2010-08-11T09:33:22Z</time>
 </trkpt>
 <trkpt lat="47.279236" lon="12.621403">
 <ele>799.77</ele>
 <time>2010-08-11T09:33:30Z</time>
 </trkpt>
 <trkpt lat="47.279751" lon="12.621410">
 <ele>800.02</ele>
 <time>2010-08-11T09:33:39Z</time>
 </trkpt>
 <trkpt lat="47.280224" lon="12.621417">
 <ele>801.10</ele>
 <time>2010-08-11T09:33:49Z</time>
 </trkpt>
 <trkpt lat="47.280647" lon="12.621424">
 <ele>801.68</ele>
 <time>2010-08-11T09:33:58Z</time>
 </trkpt>
 <trkpt lat="47.280781" lon="12.621454">
 <ele>801.55</ele>
 <time>2010-08-11T09:34:01Z</time>
 </trkpt>
 <trkpt lat="47.280972" lon="12.621575">
 <ele>802.22</ele>
 <time>2010-08-11T09:34:09Z</time>
 </trkpt>
 <trkpt lat="47.281395" lon="12.622077">
 <ele>802.85</ele>
 <time>2010-08-11T09:34:17Z</time>
 </trkpt>
 <trkpt lat="47.281681" lon="12.622417">
 <ele>803.59</ele>
 <time>2010-08-11T09:34:25Z</time>
 </trkpt>
 <trkpt lat="47.281788" lon="12.622562">
 <ele>804.53</ele>
 <time>2010-08-11T09:34:29Z</time>
 </trkpt>
 <trkpt lat="47.281761" lon="12.622610">
 <ele>804.33</ele>
 <time>2010-08-11T09:34:31Z</time>
 </trkpt>
 <trkpt lat="47.281586" lon="12.622910">
 <ele>801.44</ele>
 <time>2010-08-11T09:34:36Z</time>
 </trkpt>
 <trkpt lat="47.281460" lon="12.623125">
 <ele>800.21</ele>
 <time>2010-08-11T09:34:39Z</time>
 </trkpt>
 <trkpt lat="47.281429" lon="12.623245">
 <ele>800.02</ele>
 <time>2010-08-11T09:34:40Z</time>
 </trkpt>
 <trkpt lat="47.281548" lon="12.624022">
 <ele>799.68</ele>
 <time>2010-08-11T09:34:49Z</time>
 </trkpt>
 <trkpt lat="47.281654" lon="12.624467">
 <ele>800.23</ele>
 <time>2010-08-11T09:34:55Z</time>
 </trkpt>
 <trkpt lat="47.281815" lon="12.625099">
 <ele>801.01</ele>
 <time>2010-08-11T09:35:04Z</time>
 </trkpt>
 <trkpt lat="47.282085" lon="12.625381">
 <ele>801.81</ele>
 <time>2010-08-11T09:35:11Z</time>
 </trkpt>
 <trkpt lat="47.282333" lon="12.625631">
 <ele>802.59</ele>
 <time>2010-08-11T09:35:18Z</time>
 </trkpt>
 <trkpt lat="47.282360" lon="12.625655">
 <ele>802.85</ele>
 <time>2010-08-11T09:35:19Z</time>
 </trkpt>
 <trkpt lat="47.282345" lon="12.625994">
 <ele>802.20</ele>
 <time>2010-08-11T09:35:23Z</time>
 </trkpt>
 <trkpt lat="47.282345" lon="12.626080">
 <ele>802.00</ele>
 <time>2010-08-11T09:35:24Z</time>
 </trkpt>
 <trkpt lat="47.282211" lon="12.626424">
 <ele>803.18</ele>
 <time>2010-08-11T09:35:30Z</time>
 </trkpt>
 <trkpt lat="47.281975" lon="12.626918">
 <ele>801.79</ele>
 <time>2010-08-11T09:35:37Z</time>
 </trkpt>
 <trkpt lat="47.281715" lon="12.627458">
 <ele>800.56</ele>
 <time>2010-08-11T09:35:44Z</time>
 </trkpt>
 <trkpt lat="47.281563" lon="12.627774">
 <ele>799.79</ele>
 <time>2010-08-11T09:35:48Z</time>
 </trkpt>
 <trkpt lat="47.281540" lon="12.627964">
 <ele>799.52</ele>
 <time>2010-08-11T09:35:52Z</time>
 </trkpt>
 <trkpt lat="47.281593" lon="12.628095">
 <ele>799.59</ele>
 <time>2010-08-11T09:35:55Z</time>
 </trkpt>
 <trkpt lat="47.281666" lon="12.628285">
 <ele>799.65</ele>
 <time>2010-08-11T09:35:59Z</time>
 </trkpt>
 <trkpt lat="47.281712" lon="12.628403">
 <ele>799.47</ele>
 <time>2010-08-11T09:36:01Z</time>
 </trkpt>
 <trkpt lat="47.281883" lon="12.628939">
 <ele>798.69</ele>
 <time>2010-08-11T09:36:09Z</time>
 </trkpt>
 <trkpt lat="47.282082" lon="12.629521">
 <ele>798.56</ele>
 <time>2010-08-11T09:36:17Z</time>
 </trkpt>
 <trkpt lat="47.282299" lon="12.630388">
 <ele>797.71</ele>
 <time>2010-08-11T09:36:27Z</time>
 </trkpt>
 <trkpt lat="47.282413" lon="12.631154">
 <ele>797.15</ele>
 <time>2010-08-11T09:36:36Z</time>
 </trkpt>
 <trkpt lat="47.282383" lon="12.631844">
 <ele>797.17</ele>
 <time>2010-08-11T09:36:44Z</time>
 </trkpt>
 <trkpt lat="47.282337" lon="12.632356">
 <ele>797.90</ele>
 <time>2010-08-11T09:36:51Z</time>
 </trkpt>
 <trkpt lat="47.282330" lon="12.632458">
 <ele>797.91</ele>
 <time>2010-08-11T09:36:53Z</time>
 </trkpt>
 <trkpt lat="47.282215" lon="12.632455">
 <ele>797.89</ele>
 <time>2010-08-11T09:36:57Z</time>
 </trkpt>
 <trkpt lat="47.282043" lon="12.632389">
 <ele>799.08</ele>
 <time>2010-08-11T09:37:05Z</time>
 </trkpt>
 <trkpt lat="47.282043" lon="12.632389">
 <ele>799.39</ele>
 <time>2010-08-11T09:37:10Z</time>
 </trkpt>
 <trkpt lat="47.281654" lon="12.632441">
 <ele>798.48</ele>
 <time>2010-08-11T09:37:14Z</time>
 </trkpt>
 <trkpt lat="47.281647" lon="12.632507">
 <ele>798.18</ele>
 <time>2010-08-11T09:37:15Z</time>
 </trkpt>
 <trkpt lat="47.281551" lon="12.633111">
 <ele>797.36</ele>
 <time>2010-08-11T09:37:23Z</time>
 </trkpt>
 <trkpt lat="47.281422" lon="12.633904">
 <ele>797.66</ele>
 <time>2010-08-11T09:37:33Z</time>
 </trkpt>
 <trkpt lat="47.281311" lon="12.634859">
 <ele>797.25</ele>
 <time>2010-08-11T09:37:45Z</time>
 </trkpt>
 <trkpt lat="47.281307" lon="12.635688">
 <ele>797.03</ele>
 <time>2010-08-11T09:37:55Z</time>
 </trkpt>
 <trkpt lat="47.281384" lon="12.636564">
 <ele>796.95</ele>
 <time>2010-08-11T09:38:06Z</time>
 </trkpt>
 <trkpt lat="47.281522" lon="12.637413">
 <ele>778.00</ele>
 <time>1970-01-01T00:00:00Z</time>
 </trkpt>
 <trkpt lat="47.281595" lon="12.638118">
 <ele>778.00</ele>
 <time>1970-01-01T00:00:00Z</time>
 </trkpt>
 <trkpt lat="47.281603" lon="12.638865">
 <ele>778.00</ele>
 <time>1970-01-01T00:00:00Z</time>
 </trkpt>
 <trkpt lat="47.281492" lon="12.639371">
 <ele>778.00</ele>
 <time>1970-01-01T00:00:00Z</time>
 </trkpt>
 <trkpt lat="47.281349" lon="12.640177">
 <ele>796.69</ele>
 <time>2010-08-11T09:38:52Z</time>
 </trkpt>
 <trkpt lat="47.281188" lon="12.640937">
 <ele>778.61</ele>
 <time>1970-01-01T00:00:00Z</time>
 </trkpt>
 <trkpt lat="47.281006" lon="12.641671">
 <ele>778.64</ele>
 <time>1970-01-01T00:00:00Z</time>
 </trkpt>
 <trkpt lat="47.280887" lon="12.642409">
 <ele>779.00</ele>
 <time>1970-01-01T00:00:00Z</time>
 </trkpt>
 <trkpt lat="47.280560" lon="12.643543">
 <ele>796.59</ele>
 <time>2010-08-11T09:39:33Z</time>
 </trkpt>
 <trkpt lat="47.280479" lon="12.644274">
 <ele>796.34</ele>
 <time>2010-08-11T09:39:42Z</time>
 </trkpt>
 <trkpt lat="47.280483" lon="12.644912">
 <ele>796.50</ele>
 <time>2010-08-11T09:39:50Z</time>
 </trkpt>
 <trkpt lat="47.280525" lon="12.645337">
 <ele>797.28</ele>
 <time>2010-08-11T09:39:56Z</time>
 </trkpt>
 <trkpt lat="47.280571" lon="12.645738">
 <ele>796.44</ele>
 <time>2010-08-11T09:40:01Z</time>
 </trkpt>
 <trkpt lat="47.280716" lon="12.646258">
 <ele>796.31</ele>
 <time>2010-08-11T09:40:08Z</time>
 </trkpt>
 <trkpt lat="47.280922" lon="12.646732">
 <ele>796.70</ele>
 <time>2010-08-11T09:40:15Z</time>
 </trkpt>
 <trkpt lat="47.281078" lon="12.646980">
 <ele>796.39</ele>
 <time>2010-08-11T09:40:19Z</time>
 </trkpt>
 <trkpt lat="47.281441" lon="12.647366">
 <ele>796.09</ele>
 <time>2010-08-11T09:40:27Z</time>
 </trkpt>
 <trkpt lat="47.282429" lon="12.647452">
 <ele>795.86</ele>
 <time>2010-08-11T09:40:35Z</time>
 </trkpt>
 <trkpt lat="47.282455" lon="12.647641">
 <ele>795.67</ele>
 <time>2010-08-11T09:40:39Z</time>
 </trkpt>
 <trkpt lat="47.282494" lon="12.647886">
 <ele>796.09</ele>
 <time>2010-08-11T09:40:44Z</time>
 </trkpt>
 <trkpt lat="47.282501" lon="12.647933">
 <ele>796.13</ele>
 <time>2010-08-11T09:40:45Z</time>
 </trkpt>
 <trkpt lat="47.282536" lon="12.648163">
 <ele>796.16</ele>
 <time>2010-08-11T09:40:50Z</time>
 </trkpt>
 <trkpt lat="47.282566" lon="12.648372">
 <ele>795.57</ele>
 <time>2010-08-11T09:40:54Z</time>
 </trkpt>
 <trkpt lat="47.282646" lon="12.648914">
 <ele>795.53</ele>
 <time>2010-08-11T09:41:02Z</time>
 </trkpt>
 <trkpt lat="47.282658" lon="12.648987">
 <ele>795.53</ele>
 <time>2010-08-11T09:41:03Z</time>
 </trkpt>
 <trkpt lat="47.282700" lon="12.649278">
 <ele>795.16</ele>
 <time>2010-08-11T09:41:07Z</time>
 </trkpt>
 <trkpt lat="47.282730" lon="12.649486">
 <ele>795.17</ele>
 <time>2010-08-11T09:41:10Z</time>
 </trkpt>
 <trkpt lat="47.282799" lon="12.649949">
 <ele>794.94</ele>
 <time>2010-08-11T09:41:16Z</time>
 </trkpt>
 <trkpt lat="47.282909" lon="12.650693">
 <ele>794.84</ele>
 <time>2010-08-11T09:41:25Z</time>
 </trkpt>
 <trkpt lat="47.283016" lon="12.651428">
 <ele>794.82</ele>
 <time>2010-08-11T09:41:34Z</time>
 </trkpt>
 <trkpt lat="47.283131" lon="12.652193">
 <ele>795.68</ele>
 <time>2010-08-11T09:41:44Z</time>
 </trkpt>
 <trkpt lat="47.283257" lon="12.653035">
 <ele>796.65</ele>
 <time>2010-08-11T09:41:55Z</time>
 </trkpt>
 <trkpt lat="47.283363" lon="12.653763">
 <ele>796.19</ele>
 <time>2010-08-11T09:42:04Z</time>
 </trkpt>
 <trkpt lat="47.283329" lon="12.654653">
 <ele>796.30</ele>
 <time>2010-08-11T09:42:14Z</time>
 </trkpt>
 <trkpt lat="47.283283" lon="12.655182">
 <ele>796.53</ele>
 <time>2010-08-11T09:42:21Z</time>
 </trkpt>
 <trkpt lat="47.283073" lon="12.655636">
 <ele>796.46</ele>
 <time>2010-08-11T09:42:27Z</time>
 </trkpt>
 <trkpt lat="47.282909" lon="12.655879">
 <ele>796.32</ele>
 <time>2010-08-11T09:42:32Z</time>
 </trkpt>
 <trkpt lat="47.282784" lon="12.656069">
 <ele>796.70</ele>
 <time>2010-08-11T09:42:36Z</time>
 </trkpt>
 <trkpt lat="47.282516" lon="12.656376">
 <ele>796.63</ele>
 <time>2010-08-11T09:42:44Z</time>
 </trkpt>
 <trkpt lat="47.282207" lon="12.656674">
 <ele>796.78</ele>
 <time>2010-08-11T09:42:51Z</time>
 </trkpt>
 <trkpt lat="47.281906" lon="12.657084">
 <ele>797.16</ele>
 <time>2010-08-11T09:42:58Z</time>
 </trkpt>
 <trkpt lat="47.281776" lon="12.657415">
 <ele>797.88</ele>
 <time>2010-08-11T09:43:04Z</time>
 </trkpt>
 <trkpt lat="47.281590" lon="12.657889">
 <ele>798.19</ele>
 <time>2010-08-11T09:43:12Z</time>
 </trkpt>
 <trkpt lat="47.281380" lon="12.658422">
 <ele>797.90</ele>
 <time>2010-08-11T09:43:20Z</time>
 </trkpt>
 <trkpt lat="47.281116" lon="12.659086">
 <ele>797.99</ele>
 <time>2010-08-11T09:43:30Z</time>
 </trkpt>
 <trkpt lat="47.280956" lon="12.659486">
 <ele>798.33</ele>
 <time>2010-08-11T09:43:36Z</time>
 </trkpt>
 <trkpt lat="47.280708" lon="12.660122">
 <ele>798.38</ele>
 <time>2010-08-11T09:43:45Z</time>
 </trkpt>
 <trkpt lat="47.280575" lon="12.660657">
 <ele>798.65</ele>
 <time>2010-08-11T09:43:52Z</time>
 </trkpt>
 <trkpt lat="47.280392" lon="12.661434">
 <ele>798.31</ele>
 <time>2010-08-11T09:44:02Z</time>
 </trkpt>
 <trkpt lat="47.280167" lon="12.662371">
 <ele>798.45</ele>
 <time>2010-08-11T09:44:14Z</time>
 </trkpt>
 <trkpt lat="47.279984" lon="12.663153">
 <ele>799.03</ele>
 <time>2010-08-11T09:44:24Z</time>
 </trkpt>
 <trkpt lat="47.279747" lon="12.663677">
 <ele>799.05</ele>
 <time>2010-08-11T09:44:31Z</time>
 </trkpt>
 <trkpt lat="47.279263" lon="12.663998">
 <ele>799.37</ele>
 <time>2010-08-11T09:44:41Z</time>
 </trkpt>
 <trkpt lat="47.279240" lon="12.664434">
 <ele>778.41</ele>
 <time>1970-01-01T00:00:00Z</time>
 </trkpt>
 <trkpt lat="47.279472" lon="12.664123">
 <ele>777.16</ele>
 <time>1970-01-01T00:00:00Z</time>
 </trkpt>
 <trkpt lat="47.279070" lon="12.664796">
 <ele>779.00</ele>
 <time>1970-01-01T00:00:00Z</time>
 </trkpt>
 <trkpt lat="47.278966" lon="12.665068">
 <ele>779.00</ele>
 <time>1970-01-01T00:00:00Z</time>
 </trkpt>
 <trkpt lat="47.278604" lon="12.665463">
 <ele>779.00</ele>
 <time>1970-01-01T00:00:00Z</time>
 </trkpt>
 <trkpt lat="47.278275" lon="12.665485">
 <ele>799.58</ele>
 <time>2010-08-11T09:45:08Z</time>
 </trkpt>
 <trkpt lat="47.278145" lon="12.665756">
 <ele>799.41</ele>
 <time>2010-08-11T09:45:12Z</time>
 </trkpt>
 <trkpt lat="47.278027" lon="12.666061">
 <ele>798.79</ele>
 <time>2010-08-11T09:45:17Z</time>
 </trkpt>
 <trkpt lat="47.278000" lon="12.666422">
 <ele>798.58</ele>
 <time>2010-08-11T09:45:21Z</time>
 </trkpt>
 <trkpt lat="47.277946" lon="12.667122">
 <ele>797.72</ele>
 <time>2010-08-11T09:45:29Z</time>
 </trkpt>
 <trkpt lat="47.277901" lon="12.667730">
 <ele>797.42</ele>
 <time>2010-08-11T09:45:36Z</time>
 </trkpt>
 <trkpt lat="47.277763" lon="12.668420">
 <ele>797.55</ele>
 <time>2010-08-11T09:45:44Z</time>
 </trkpt>
 <trkpt lat="47.277615" lon="12.669167">
 <ele>797.21</ele>
 <time>2010-08-11T09:45:53Z</time>
 </trkpt>
 <trkpt lat="47.277401" lon="12.669893">
 <ele>796.48</ele>
 <time>2010-08-11T09:46:02Z</time>
 </trkpt>
 <trkpt lat="47.277107" lon="12.670741">
 <ele>797.05</ele>
 <time>2010-08-11T09:46:13Z</time>
 </trkpt>
 <trkpt lat="47.277088" lon="12.670799">
 <ele>797.12</ele>
 <time>2010-08-11T09:46:14Z</time>
 </trkpt>
 <trkpt lat="47.276829" lon="12.671029">
 <ele>797.96</ele>
 <time>2010-08-11T09:46:20Z</time>
 </trkpt>
 <trkpt lat="47.276527" lon="12.671457">
 <ele>799.47</ele>
 <time>2010-08-11T09:46:28Z</time>
 </trkpt>
 <trkpt lat="47.276539" lon="12.671488">
 <ele>799.68</ele>
 <time>2010-08-11T09:46:32Z</time>
 </trkpt>
 <trkpt lat="47.276562" lon="12.671635">
 <ele>799.69</ele>
 <time>2010-08-11T09:46:34Z</time>
 </trkpt>
 <trkpt lat="47.276688" lon="12.672430">
 <ele>798.51</ele>
 <time>2010-08-11T09:46:43Z</time>
 </trkpt>
 <trkpt lat="47.276833" lon="12.673365">
 <ele>797.58</ele>
 <time>2010-08-11T09:46:53Z</time>
 </trkpt>
 <trkpt lat="47.277008" lon="12.674456">
 <ele>796.86</ele>
 <time>2010-08-11T09:47:05Z</time>
 </trkpt>
 <trkpt lat="47.277157" lon="12.675403">
 <ele>795.30</ele>
 <time>2010-08-11T09:47:15Z</time>
 </trkpt>
 <trkpt lat="47.277332" lon="12.676503">
 <ele>794.95</ele>
 <time>2010-08-11T09:47:27Z</time>
 </trkpt>
 <trkpt lat="47.277515" lon="12.677672">
 <ele>794.61</ele>
 <time>2010-08-11T09:47:40Z</time>
 </trkpt>
 <trkpt lat="47.277687" lon="12.678746">
 <ele>793.40</ele>
 <time>2010-08-11T09:47:52Z</time>
 </trkpt>
 <trkpt lat="47.277840" lon="12.679698">
 <ele>793.45</ele>
 <time>2010-08-11T09:48:03Z</time>
 </trkpt>
 <trkpt lat="47.278015" lon="12.680818">
 <ele>793.29</ele>
 <time>2010-08-11T09:48:16Z</time>
 </trkpt>
 <trkpt lat="47.278011" lon="12.680929">
 <ele>793.29</ele>
 <time>2010-08-11T09:48:20Z</time>
 </trkpt>
 <trkpt lat="47.277962" lon="12.680937">
 <ele>793.19</ele>
 <time>2010-08-11T09:48:21Z</time>
 </trkpt>
 <trkpt lat="47.277599" lon="12.680989">
 <ele>792.51</ele>
 <time>2010-08-11T09:48:27Z</time>
 </trkpt>
 <trkpt lat="47.277161" lon="12.681053">
 <ele>792.78</ele>
 <time>2010-08-11T09:48:34Z</time>
 </trkpt>
 <trkpt lat="47.276562" lon="12.681288">
 <ele>794.82</ele>
 <time>2010-08-11T09:48:44Z</time>
 </trkpt>
 <trkpt lat="47.276077" lon="12.681605">
 <ele>796.96</ele>
 <time>2010-08-11T09:48:53Z</time>
 </trkpt>
 <trkpt lat="47.275883" lon="12.681731">
 <ele>798.16</ele>
 <time>2010-08-11T09:48:57Z</time>
 </trkpt>
 <trkpt lat="47.275803" lon="12.681785">
 <ele>799.07</ele>
 <time>2010-08-11T09:49:01Z</time>
 </trkpt>
 <trkpt lat="47.275829" lon="12.681954">
 <ele>799.58</ele>
 <time>2010-08-11T09:49:04Z</time>
 </trkpt>
 <trkpt lat="47.275951" lon="12.682710">
 <ele>800.44</ele>
 <time>2010-08-11T09:49:13Z</time>
 </trkpt>
 <trkpt lat="47.276047" lon="12.683284">
 <ele>800.72</ele>
 <time>2010-08-11T09:49:20Z</time>
 </trkpt>
 <trkpt lat="47.276154" lon="12.683930">
 <ele>799.51</ele>
 <time>2010-08-11T09:49:27Z</time>
 </trkpt>
 <trkpt lat="47.276237" lon="12.684472">
 <ele>797.40</ele>
 <time>2010-08-11T09:49:32Z</time>
 </trkpt>
 <trkpt lat="47.276413" lon="12.685312">
 <ele>794.47</ele>
 <time>2010-08-11T09:49:39Z</time>
 </trkpt>
 <trkpt lat="47.276657" lon="12.686029">
 <ele>793.79</ele>
 <time>2010-08-11T09:49:46Z</time>
 </trkpt>
 <trkpt lat="47.276745" lon="12.686727">
 <ele>794.41</ele>
 <time>2010-08-11T09:49:53Z</time>
 </trkpt>
 <trkpt lat="47.276787" lon="12.687213">
 <ele>794.12</ele>
 <time>2010-08-11T09:49:58Z</time>
 </trkpt>
 <trkpt lat="47.276695" lon="12.688023">
 <ele>793.29</ele>
 <time>2010-08-11T09:50:06Z</time>
 </trkpt>
 <trkpt lat="47.276672" lon="12.688211">
 <ele>793.58</ele>
 <time>2010-08-11T09:50:08Z</time>
 </trkpt>
 <trkpt lat="47.276749" lon="12.688634">
 <ele>793.26</ele>
 <time>2010-08-11T09:50:12Z</time>
 </trkpt>
 <trkpt lat="47.276955" lon="12.688837">
 <ele>792.93</ele>
 <time>2010-08-11T09:50:16Z</time>
 </trkpt>
 <trkpt lat="47.276869" lon="12.688815">
 <ele>779.00</ele>
 <time>1970-01-01T00:00:00Z</time>
 </trkpt>
 <trkpt lat="47.276843" lon="12.689607">
 <ele>779.00</ele>
 <time>1970-01-01T00:00:00Z</time>
 </trkpt>
 <trkpt lat="47.277308" lon="12.689966">
 <ele>779.00</ele>
 <time>1970-01-01T00:00:00Z</time>
 </trkpt>
 <trkpt lat="47.277561" lon="12.690155">
 <ele>792.17</ele>
 <time>2010-08-11T09:50:34Z</time>
 </trkpt>
 <trkpt lat="47.277653" lon="12.690614">
 <ele>793.11</ele>
 <time>2010-08-11T09:50:40Z</time>
 </trkpt>
 <trkpt lat="47.277798" lon="12.691361">
 <ele>794.64</ele>
 <time>2010-08-11T09:50:50Z</time>
 </trkpt>
 <trkpt lat="47.277912" lon="12.691943">
 <ele>796.07</ele>
 <time>2010-08-11T09:50:58Z</time>
 </trkpt>
 <trkpt lat="47.278004" lon="12.692426">
 <ele>797.69</ele>
 <time>2010-08-11T09:51:05Z</time>
 </trkpt>
 <trkpt lat="47.278130" lon="12.693051">
 <ele>799.06</ele>
 <time>2010-08-11T09:51:14Z</time>
 </trkpt>
 <trkpt lat="47.278271" lon="12.693579">
 <ele>799.76</ele>
 <time>2010-08-11T09:51:22Z</time>
 </trkpt>
 <trkpt lat="47.278400" lon="12.694036">
 <ele>799.93</ele>
 <time>2010-08-11T09:51:29Z</time>
 </trkpt>
 <trkpt lat="47.278530" lon="12.694499">
 <ele>799.10</ele>
 <time>2010-08-11T09:51:35Z</time>
 </trkpt>
 <trkpt lat="47.278675" lon="12.695010">
 <ele>797.87</ele>
 <time>2010-08-11T09:51:41Z</time>
 </trkpt>
 <trkpt lat="47.278816" lon="12.695508">
 <ele>797.63</ele>
 <time>2010-08-11T09:51:47Z</time>
 </trkpt>
 <trkpt lat="47.278843" lon="12.695594">
 <ele>797.45</ele>
 <time>2010-08-11T09:51:48Z</time>
 </trkpt>
 <trkpt lat="47.278984" lon="12.696098">
 <ele>796.15</ele>
 <time>2010-08-11T09:51:54Z</time>
 </trkpt>
 <trkpt lat="47.279068" lon="12.696935">
 <ele>795.72</ele>
 <time>2010-08-11T09:52:02Z</time>
 </trkpt>
 <trkpt lat="47.279072" lon="12.697661">
 <ele>796.12</ele>
 <time>2010-08-11T09:52:10Z</time>
 </trkpt>
 <trkpt lat="47.279079" lon="12.698420">
 <ele>795.64</ele>
 <time>2010-08-11T09:52:19Z</time>
 </trkpt>
 <trkpt lat="47.279083" lon="12.698844">
 <ele>795.99</ele>
 <time>2010-08-11T09:52:24Z</time>
 </trkpt>
 <trkpt lat="47.279224" lon="12.699005">
 <ele>795.73</ele>
 <time>2010-08-11T09:52:28Z</time>
 </trkpt>
 <trkpt lat="47.279396" lon="12.699072">
 <ele>794.79</ele>
 <time>2010-08-11T09:52:31Z</time>
 </trkpt>
 <trkpt lat="47.279964" lon="12.699293">
 <ele>791.57</ele>
 <time>2010-08-11T09:52:39Z</time>
 </trkpt>
 <trkpt lat="47.280464" lon="12.699487">
 <ele>790.77</ele>
 <time>2010-08-11T09:52:46Z</time>
 </trkpt>
 <trkpt lat="47.280838" lon="12.699632">
 <ele>790.34</ele>
 <time>2010-08-11T09:52:52Z</time>
 </trkpt>
 <trkpt lat="47.281048" lon="12.699714">
 <ele>789.33</ele>
 <time>2010-08-11T09:52:55Z</time>
 </trkpt>
 <trkpt lat="47.281296" lon="12.699919">
 <ele>789.46</ele>
 <time>2010-08-11T09:52:59Z</time>
 </trkpt>
 <trkpt lat="47.281300" lon="12.700011">
 <ele>789.60</ele>
 <time>2010-08-11T09:53:00Z</time>
 </trkpt>
 <trkpt lat="47.281311" lon="12.700571">
 <ele>789.79</ele>
 <time>2010-08-11T09:53:06Z</time>
 </trkpt>
 <trkpt lat="47.281326" lon="12.701418">
 <ele>789.49</ele>
 <time>2010-08-11T09:53:15Z</time>
 </trkpt>
 <trkpt lat="47.281345" lon="12.702255">
 <ele>788.38</ele>
 <time>2010-08-11T09:53:24Z</time>
 </trkpt>
 <trkpt lat="47.281364" lon="12.703160">
 <ele>788.00</ele>
 <time>2010-08-11T09:53:34Z</time>
 </trkpt>
 <trkpt lat="47.281380" lon="12.703948">
 <ele>788.09</ele>
 <time>2010-08-11T09:53:43Z</time>
 </trkpt>
 <trkpt lat="47.281395" lon="12.704641">
 <ele>787.89</ele>
 <time>2010-08-11T09:53:51Z</time>
 </trkpt>
 <trkpt lat="47.281399" lon="12.704816">
 <ele>787.96</ele>
 <time>2010-08-11T09:53:53Z</time>
 </trkpt>
 <trkpt lat="47.281517" lon="12.705038">
 <ele>788.05</ele>
 <time>2010-08-11T09:53:57Z</time>
 </trkpt>
 <trkpt lat="47.281620" lon="12.705111">
 <ele>787.71</ele>
 <time>2010-08-11T09:53:59Z</time>
 </trkpt>
 <trkpt lat="47.282303" lon="12.705585">
 <ele>787.32</ele>
 <time>2010-08-11T09:54:11Z</time>
 </trkpt>
 <trkpt lat="47.282688" lon="12.705854">
 <ele>787.22</ele>
 <time>2010-08-11T09:54:18Z</time>
 </trkpt>
 <trkpt lat="47.283176" lon="12.706194">
 <ele>787.13</ele>
 <time>2010-08-11T09:54:27Z</time>
 </trkpt>
 <trkpt lat="47.283672" lon="12.706476">
 <ele>787.06</ele>
 <time>2010-08-11T09:54:36Z</time>
 </trkpt>
 <trkpt lat="47.283985" lon="12.706629">
 <ele>786.97</ele>
 <time>2010-08-11T09:54:42Z</time>
 </trkpt>
 <trkpt lat="47.284359" lon="12.707084">
 <ele>787.18</ele>
 <time>2010-08-11T09:54:50Z</time>
 </trkpt>
 <trkpt lat="47.284767" lon="12.707694">
 <ele>786.79</ele>
 <time>2010-08-11T09:55:00Z</time>
 </trkpt>
 <trkpt lat="47.285164" lon="12.708284">
 <ele>787.03</ele>
 <time>2010-08-11T09:55:10Z</time>
 </trkpt>
 <trkpt lat="47.285553" lon="12.708747">
 <ele>787.09</ele>
 <time>2010-08-11T09:55:19Z</time>
 </trkpt>
 <trkpt lat="47.286034" lon="12.709177">
 <ele>786.93</ele>
 <time>2010-08-11T09:55:29Z</time>
 </trkpt>
 <trkpt lat="47.286369" lon="12.709479">
 <ele>787.09</ele>
 <time>2010-08-11T09:55:36Z</time>
 </trkpt>
 <trkpt lat="47.286865" lon="12.709992">
 <ele>787.26</ele>
 <time>2010-08-11T09:55:47Z</time>
 </trkpt>
 <trkpt lat="47.286896" lon="12.710064">
 <ele>787.32</ele>
 <time>2010-08-11T09:55:48Z</time>
 </trkpt>
 <trkpt lat="47.287079" lon="12.710565">
 <ele>787.68</ele>
 <time>2010-08-11T09:55:55Z</time>
 </trkpt>
 <trkpt lat="47.287216" lon="12.711234">
 <ele>787.41</ele>
 <time>2010-08-11T09:56:03Z</time>
 </trkpt>
 <trkpt lat="47.287441" lon="12.711698">
 <ele>787.64</ele>
 <time>2010-08-11T09:56:10Z</time>
 </trkpt>
 <trkpt lat="47.287766" lon="12.712243">
 <ele>787.54</ele>
 <time>2010-08-11T09:56:19Z</time>
 </trkpt>
 <trkpt lat="47.288017" lon="12.712616">
 <ele>788.36</ele>
 <time>2010-08-11T09:56:26Z</time>
 </trkpt>
 <trkpt lat="47.288086" lon="12.712694">
 <ele>788.77</ele>
 <time>2010-08-11T09:56:28Z</time>
 </trkpt>
 <trkpt lat="47.288219" lon="12.712844">
 <ele>789.35</ele>
 <time>2010-08-11T09:56:32Z</time>
 </trkpt>
 <trkpt lat="47.288414" lon="12.713060">
 <ele>789.37</ele>
 <time>2010-08-11T09:56:37Z</time>
 </trkpt>
 <trkpt lat="47.288727" lon="12.713485">
 <ele>789.92</ele>
 <time>2010-08-11T09:56:46Z</time>
 </trkpt>
 <trkpt lat="47.288788" lon="12.713599">
 <ele>790.22</ele>
 <time>2010-08-11T09:56:48Z</time>
 </trkpt>
 <trkpt lat="47.288860" lon="12.713796">
 <ele>791.31</ele>
 <time>2010-08-11T09:56:52Z</time>
 </trkpt>
 <trkpt lat="47.288845" lon="12.713853">
 <ele>791.68</ele>
 <time>2010-08-11T09:56:53Z</time>
 </trkpt>
 <trkpt lat="47.288609" lon="12.714327">
 <ele>791.88</ele>
 <time>2010-08-11T09:57:01Z</time>
 </trkpt>
 <trkpt lat="47.288528" lon="12.714429">
 <ele>791.78</ele>
 <time>2010-08-11T09:57:03Z</time>
 </trkpt>
 <trkpt lat="47.288445" lon="12.714649">
 <ele>791.98</ele>
 <time>2010-08-11T09:57:07Z</time>
 </trkpt>
 <trkpt lat="47.288464" lon="12.714706">
 <ele>792.11</ele>
 <time>2010-08-11T09:57:08Z</time>
 </trkpt>
 <trkpt lat="47.288502" lon="12.714819">
 <ele>792.67</ele>
 <time>2010-08-11T09:57:10Z</time>
 </trkpt>
 <trkpt lat="47.288441" lon="12.715001">
 <ele>793.56</ele>
 <time>2010-08-11T09:57:14Z</time>
 </trkpt>
 <trkpt lat="47.288410" lon="12.715042">
 <ele>793.24</ele>
 <time>2010-08-11T09:57:15Z</time>
 </trkpt>
 <trkpt lat="47.288162" lon="12.715360">
 <ele>791.69</ele>
 <time>2010-08-11T09:57:21Z</time>
 </trkpt>
 <trkpt lat="47.288071" lon="12.715640">
 <ele>792.43</ele>
 <time>2010-08-11T09:57:26Z</time>
 </trkpt>
 <trkpt lat="47.288044" lon="12.715735">
 <ele>793.17</ele>
 <time>2010-08-11T09:57:28Z</time>
 </trkpt>
 <trkpt lat="47.287930" lon="12.715878">
 <ele>792.77</ele>
 <time>2010-08-11T09:57:32Z</time>
 </trkpt>
 <trkpt lat="47.287781" lon="12.716027">
 <ele>791.18</ele>
 <time>2010-08-11T09:57:35Z</time>
 </trkpt>
 <trkpt lat="47.287453" lon="12.716354">
 <ele>790.22</ele>
 <time>2010-08-11T09:57:41Z</time>
 </trkpt>
 <trkpt lat="47.287170" lon="12.716520">
 <ele>789.55</ele>
 <time>2010-08-11T09:57:46Z</time>
 </trkpt>
 <trkpt lat="47.286919" lon="12.716608">
 <ele>789.52</ele>
 <time>2010-08-11T09:57:52Z</time>
 </trkpt>
 <trkpt lat="47.286594" lon="12.716719">
 <ele>790.77</ele>
 <time>2010-08-11T09:58:00Z</time>
 </trkpt>
 <trkpt lat="47.286312" lon="12.716816">
 <ele>790.07</ele>
 <time>2010-08-11T09:58:06Z</time>
 </trkpt>
 <trkpt lat="47.285919" lon="12.716946">
 <ele>788.80</ele>
 <time>2010-08-11T09:58:13Z</time>
 </trkpt>
 <trkpt lat="47.285366" lon="12.717117">
 <ele>787.94</ele>
 <time>2010-08-11T09:58:22Z</time>
 </trkpt>
 <trkpt lat="47.284801" lon="12.717292">
 <ele>787.20</ele>
 <time>2010-08-11T09:58:31Z</time>
 </trkpt>
 <trkpt lat="47.284401" lon="12.717482">
 <ele>787.69</ele>
 <time>2010-08-11T09:58:38Z</time>
 </trkpt>
 <trkpt lat="47.283855" lon="12.717915">
 <ele>787.04</ele>
 <time>2010-08-11T09:58:48Z</time>
 </trkpt>
 <trkpt lat="47.283817" lon="12.717982">
 <ele>787.00</ele>
 <time>2010-08-11T09:58:49Z</time>
 </trkpt>
 <trkpt lat="47.283535" lon="12.718469">
 <ele>786.47</ele>
 <time>2010-08-11T09:58:56Z</time>
 </trkpt>
 <trkpt lat="47.283195" lon="12.718993">
 <ele>786.29</ele>
 <time>2010-08-11T09:59:04Z</time>
 </trkpt>
 <trkpt lat="47.282764" lon="12.719665">
 <ele>785.88</ele>
 <time>2010-08-11T09:59:14Z</time>
 </trkpt>
 <trkpt lat="47.282284" lon="12.720384">
 <ele>786.04</ele>
 <time>2010-08-11T09:59:25Z</time>
 </trkpt>
 <trkpt lat="47.281940" lon="12.720899">
 <ele>786.09</ele>
 <time>2010-08-11T09:59:33Z</time>
 </trkpt>
 <trkpt lat="47.281776" lon="12.721147">
 <ele>786.07</ele>
 <time>2010-08-11T09:59:37Z</time>
 </trkpt>
 <trkpt lat="47.281681" lon="12.721130">
 <ele>786.26</ele>
 <time>2010-08-11T09:59:39Z</time>
 </trkpt>
 <trkpt lat="47.281197" lon="12.720963">
 <ele>786.06</ele>
 <time>2010-08-11T09:59:47Z</time>
 </trkpt>
 <trkpt lat="47.280872" lon="12.720850">
 <ele>785.31</ele>
 <time>2010-08-11T09:59:52Z</time>
 </trkpt>
 <trkpt lat="47.280312" lon="12.720829">
 <ele>785.45</ele>
 <time>2010-08-11T10:00:00Z</time>
 </trkpt>
 <trkpt lat="47.280018" lon="12.720912">
 <ele>785.87</ele>
 <time>2010-08-11T10:00:05Z</time>
 </trkpt>
 <trkpt lat="47.279469" lon="12.720794">
 <ele>785.01</ele>
 <time>2010-08-11T10:00:14Z</time>
 </trkpt>
 <trkpt lat="47.279045" lon="12.720777">
 <ele>785.67</ele>
 <time>2010-08-11T10:00:21Z</time>
 </trkpt>
 <trkpt lat="47.278778" lon="12.720795">
 <ele>787.87</ele>
 <time>2010-08-11T10:00:27Z</time>
 </trkpt>
 <trkpt lat="47.278591" lon="12.720817">
 <ele>788.41</ele>
 <time>2010-08-11T10:00:32Z</time>
 </trkpt>
 <trkpt lat="47.278423" lon="12.720946">
 <ele>787.87</ele>
 <time>2010-08-11T10:00:36Z</time>
 </trkpt>
 <trkpt lat="47.278427" lon="12.721017">
 <ele>787.60</ele>
 <time>2010-08-11T10:00:37Z</time>
 </trkpt>
 <trkpt lat="47.278458" lon="12.721825">
 <ele>785.93</ele>
 <time>2010-08-11T10:00:46Z</time>
 </trkpt>
 <trkpt lat="47.278488" lon="12.722663">
 <ele>785.38</ele>
 <time>2010-08-11T10:00:55Z</time>
 </trkpt>
 <trkpt lat="47.278522" lon="12.723578">
 <ele>785.20</ele>
 <time>2010-08-11T10:01:05Z</time>
 </trkpt>
 <trkpt lat="47.278534" lon="12.724366">
 <ele>785.54</ele>
 <time>2010-08-11T10:01:14Z</time>
 </trkpt>
 <trkpt lat="47.278542" lon="12.724986">
 <ele>785.09</ele>
 <time>2010-08-11T10:01:21Z</time>
 </trkpt>
 <trkpt lat="47.278545" lon="12.725704">
 <ele>785.53</ele>
 <time>2010-08-11T10:01:29Z</time>
 </trkpt>
 <trkpt lat="47.278503" lon="12.726798">
 <ele>785.04</ele>
 <time>2010-08-11T10:01:41Z</time>
 </trkpt>
 <trkpt lat="47.278500" lon="12.727715">
 <ele>785.00</ele>
 <time>2010-08-11T10:01:51Z</time>
 </trkpt>
 <trkpt lat="47.278488" lon="12.729072">
 <ele>785.05</ele>
 <time>2010-08-11T10:02:06Z</time>
 </trkpt>
 <trkpt lat="47.278484" lon="12.730144">
 <ele>784.92</ele>
 <time>2010-08-11T10:02:18Z</time>
 </trkpt>
 <trkpt lat="47.278492" lon="12.730773">
 <ele>784.65</ele>
 <time>2010-08-11T10:02:25Z</time>
 </trkpt>
 <trkpt lat="47.278503" lon="12.731673">
 <ele>784.42</ele>
 <time>2010-08-11T10:02:35Z</time>
 </trkpt>
 <trkpt lat="47.278458" lon="12.731965">
 <ele>784.80</ele>
 <time>2010-08-11T10:02:39Z</time>
 </trkpt>
 <trkpt lat="47.278370" lon="12.731992">
 <ele>784.78</ele>
 <time>2010-08-11T10:02:41Z</time>
 </trkpt>
 <trkpt lat="47.277786" lon="12.731897">
 <ele>785.03</ele>
 <time>2010-08-11T10:02:52Z</time>
 </trkpt>
 <trkpt lat="47.277542" lon="12.731898">
 <ele>786.62</ele>
 <time>2010-08-11T10:02:58Z</time>
 </trkpt>
 <trkpt lat="47.277302" lon="12.732309">
 <ele>788.53</ele>
 <time>2010-08-11T10:03:07Z</time>
 </trkpt>
 <trkpt lat="47.277058" lon="12.732809">
 <ele>789.65</ele>
 <time>2010-08-11T10:03:17Z</time>
 </trkpt>
 <trkpt lat="47.276840" lon="12.733184">
 <ele>790.35</ele>
 <time>2010-08-11T10:03:25Z</time>
 </trkpt>
 <trkpt lat="47.276714" lon="12.733428">
 <ele>790.96</ele>
 <time>2010-08-11T10:03:30Z</time>
 </trkpt>
 <trkpt lat="47.276657" lon="12.733590">
 <ele>791.25</ele>
 <time>2010-08-11T10:03:33Z</time>
 </trkpt>
 <trkpt lat="47.276581" lon="12.734112">
 <ele>791.34</ele>
 <time>2010-08-11T10:03:41Z</time>
 </trkpt>
 <trkpt lat="47.276566" lon="12.734256">
 <ele>791.09</ele>
 <time>2010-08-11T10:03:43Z</time>
 </trkpt>
 <trkpt lat="47.276596" lon="12.734657">
 <ele>790.27</ele>
 <time>2010-08-11T10:03:48Z</time>
 </trkpt>
 <trkpt lat="47.276550" lon="12.735218">
 <ele>788.34</ele>
 <time>2010-08-11T10:03:54Z</time>
 </trkpt>
 <trkpt lat="47.276428" lon="12.735837">
 <ele>786.80</ele>
 <time>2010-08-11T10:04:00Z</time>
 </trkpt>
 <trkpt lat="47.276390" lon="12.736400">
 <ele>787.03</ele>
 <time>2010-08-11T10:04:06Z</time>
 </trkpt>
 <trkpt lat="47.276363" lon="12.736818">
 <ele>789.28</ele>
 <time>2010-08-11T10:04:12Z</time>
 </trkpt>
 <trkpt lat="47.276360" lon="12.736929">
 <ele>790.04</ele>
 <time>2010-08-11T10:04:14Z</time>
 </trkpt>
 <trkpt lat="47.276367" lon="12.737043">
 <ele>790.51</ele>
 <time>2010-08-11T10:04:16Z</time>
 </trkpt>
 <trkpt lat="47.276379" lon="12.737278">
 <ele>791.23</ele>
 <time>2010-08-11T10:04:20Z</time>
 </trkpt>
 <trkpt lat="47.276260" lon="12.737674">
 <ele>791.86</ele>
 <time>2010-08-11T10:04:26Z</time>
 </trkpt>
 <trkpt lat="47.276230" lon="12.737727">
 <ele>791.73</ele>
 <time>2010-08-11T10:04:27Z</time>
 </trkpt>
 <trkpt lat="47.276157" lon="12.737922">
 <ele>791.27</ele>
 <time>2010-08-11T10:04:30Z</time>
 </trkpt>
 <trkpt lat="47.276123" lon="12.738218">
 <ele>790.67</ele>
 <time>2010-08-11T10:04:34Z</time>
 </trkpt>
 <trkpt lat="47.276218" lon="12.738862">
 <ele>791.09</ele>
 <time>2010-08-11T10:04:43Z</time>
 </trkpt>
 <trkpt lat="47.276268" lon="12.739071">
 <ele>791.30</ele>
 <time>2010-08-11T10:04:46Z</time>
 </trkpt>
 <trkpt lat="47.276272" lon="12.739369">
 <ele>791.25</ele>
 <time>2010-08-11T10:04:50Z</time>
 </trkpt>
 <trkpt lat="47.276134" lon="12.739971">
 <ele>789.34</ele>
 <time>2010-08-11T10:04:57Z</time>
 </trkpt>
 <trkpt lat="47.276028" lon="12.740405">
 <ele>787.45</ele>
 <time>2010-08-11T10:05:01Z</time>
 </trkpt>
 <trkpt lat="47.276043" lon="12.740990">
 <ele>786.08</ele>
 <time>2010-08-11T10:05:06Z</time>
 </trkpt>
 <trkpt lat="47.276138" lon="12.741256">
 <ele>786.20</ele>
 <time>2010-08-11T10:05:09Z</time>
 </trkpt>
 <trkpt lat="47.276203" lon="12.741423">
 <ele>786.22</ele>
 <time>2010-08-11T10:05:11Z</time>
 </trkpt>
 <trkpt lat="47.276325" lon="12.741779">
 <ele>786.16</ele>
 <time>2010-08-11T10:05:15Z</time>
 </trkpt>
 <trkpt lat="47.276279" lon="12.742488">
 <ele>786.24</ele>
 <time>2010-08-11T10:05:23Z</time>
 </trkpt>
 <trkpt lat="47.276337" lon="12.743088">
 <ele>786.01</ele>
 <time>2010-08-11T10:05:30Z</time>
 </trkpt>
 <trkpt lat="47.276421" lon="12.744044">
 <ele>785.28</ele>
 <time>2010-08-11T10:05:41Z</time>
 </trkpt>
 <trkpt lat="47.276405" lon="12.744907">
 <ele>785.33</ele>
 <time>2010-08-11T10:05:51Z</time>
 </trkpt>
 <trkpt lat="47.276325" lon="12.745669">
 <ele>785.39</ele>
 <time>2010-08-11T10:06:00Z</time>
 </trkpt>
 <trkpt lat="47.276260" lon="12.746240">
 <ele>785.56</ele>
 <time>2010-08-11T10:06:07Z</time>
 </trkpt>
 <trkpt lat="47.276222" lon="12.746652">
 <ele>785.51</ele>
 <time>2010-08-11T10:06:12Z</time>
 </trkpt>
 <trkpt lat="47.276138" lon="12.746954">
 <ele>785.59</ele>
 <time>2010-08-11T10:06:16Z</time>
 </trkpt>
 <trkpt lat="47.275833" lon="12.747803">
 <ele>785.11</ele>
 <time>2010-08-11T10:06:27Z</time>
 </trkpt>
 <trkpt lat="47.275593" lon="12.748602">
 <ele>785.48</ele>
 <time>2010-08-11T10:06:37Z</time>
 </trkpt>
 <trkpt lat="47.275345" lon="12.749349">
 <ele>785.90</ele>
 <time>2010-08-11T10:06:47Z</time>
 </trkpt>
 <trkpt lat="47.275249" lon="12.749632">
 <ele>785.93</ele>
 <time>2010-08-11T10:06:51Z</time>
 </trkpt>
 <trkpt lat="47.275196" lon="12.750060">
 <ele>786.52</ele>
 <time>2010-08-11T10:06:57Z</time>
 </trkpt>
 <trkpt lat="47.275150" lon="12.750567">
 <ele>786.52</ele>
 <time>2010-08-11T10:07:04Z</time>
 </trkpt>
 <trkpt lat="47.275139" lon="12.750720">
 <ele>786.51</ele>
 <time>2010-08-11T10:07:06Z</time>
 </trkpt>
 <trkpt lat="47.275059" lon="12.751326">
 <ele>786.94</ele>
 <time>2010-08-11T10:07:14Z</time>
 </trkpt>
 <trkpt lat="47.274971" lon="12.751773">
 <ele>786.76</ele>
 <time>2010-08-11T10:07:20Z</time>
 </trkpt>
 <trkpt lat="47.274872" lon="12.752313">
 <ele>786.91</ele>
 <time>2010-08-11T10:07:27Z</time>
 </trkpt>
 <trkpt lat="47.274757" lon="12.752941">
 <ele>787.04</ele>
 <time>2010-08-11T10:07:35Z</time>
 </trkpt>
 <trkpt lat="47.274586" lon="12.753910">
 <ele>786.73</ele>
 <time>2010-08-11T10:07:47Z</time>
 </trkpt>
 <trkpt lat="47.274452" lon="12.754848">
 <ele>787.08</ele>
 <time>2010-08-11T10:07:59Z</time>
 </trkpt>
 <trkpt lat="47.274395" lon="12.755549">
 <ele>787.32</ele>
 <time>2010-08-11T10:08:08Z</time>
 </trkpt>
 <trkpt lat="47.274323" lon="12.755993">
 <ele>788.01</ele>
 <time>2010-08-11T10:08:14Z</time>
 </trkpt>
 <trkpt lat="47.274204" lon="12.756438">
 <ele>788.00</ele>
 <time>2010-08-11T10:08:20Z</time>
 </trkpt>
 <trkpt lat="47.274029" lon="12.757107">
 <ele>788.57</ele>
 <time>2010-08-11T10:08:29Z</time>
 </trkpt>
 <trkpt lat="47.273987" lon="12.757625">
 <ele>788.41</ele>
 <time>2010-08-11T10:08:36Z</time>
 </trkpt>
 <trkpt lat="47.274044" lon="12.758038">
 <ele>788.66</ele>
 <time>2010-08-11T10:08:42Z</time>
 </trkpt>
 <trkpt lat="47.274162" lon="12.758453">
 <ele>789.67</ele>
 <time>2010-08-11T10:08:49Z</time>
 </trkpt>
 <trkpt lat="47.274185" lon="12.758545">
 <ele>790.38</ele>
 <time>2010-08-11T10:08:51Z</time>
 </trkpt>
 <trkpt lat="47.274200" lon="12.758592">
 <ele>791.30</ele>
 <time>2010-08-11T10:08:54Z</time>
 </trkpt>
 <trkpt lat="47.274231" lon="12.758698">
 <ele>791.11</ele>
 <time>2010-08-11T10:09:06Z</time>
 </trkpt>
 <trkpt lat="47.274235" lon="12.758711">
 <ele>790.86</ele>
 <time>2010-08-11T10:09:09Z</time>
 </trkpt>
 <trkpt lat="47.274258" lon="12.759075">
 <ele>790.69</ele>
 <time>2010-08-11T10:09:16Z</time>
 </trkpt>
 <trkpt lat="47.274258" lon="12.759075">
 <ele>790.60</ele>
 <time>2010-08-11T10:09:21Z</time>
 </trkpt>
 <trkpt lat="47.274258" lon="12.759075">
 <ele>790.40</ele>
 <time>2010-08-11T10:09:46Z</time>
 </trkpt>
 <trkpt lat="47.274441" lon="12.759692">
 <ele>788.90</ele>
 <time>2010-08-11T10:09:52Z</time>
 </trkpt>
 <trkpt lat="47.274471" lon="12.759955">
 <ele>788.82</ele>
 <time>2010-08-11T10:09:56Z</time>
 </trkpt>
 <trkpt lat="47.274513" lon="12.760191">
 <ele>788.39</ele>
 <time>2010-08-11T10:10:00Z</time>
 </trkpt>
 <trkpt lat="47.274643" lon="12.760513">
 <ele>788.90</ele>
 <time>2010-08-11T10:10:07Z</time>
 </trkpt>
 <trkpt lat="47.274643" lon="12.760513">
 <ele>789.80</ele>
 <time>2010-08-11T10:10:14Z</time>
 </trkpt>
 <trkpt lat="47.274681" lon="12.760960">
 <ele>789.92</ele>
 <time>2010-08-11T10:10:15Z</time>
 </trkpt>
 <trkpt lat="47.274738" lon="12.761169">
 <ele>789.77</ele>
 <time>2010-08-11T10:10:19Z</time>
 </trkpt>
 <trkpt lat="47.274857" lon="12.761572">
 <ele>789.73</ele>
 <time>2010-08-11T10:10:25Z</time>
 </trkpt>
 <trkpt lat="47.275047" lon="12.762233">
 <ele>789.19</ele>
 <time>2010-08-11T10:10:34Z</time>
 </trkpt>
 <trkpt lat="47.275158" lon="12.762766">
 <ele>789.26</ele>
 <time>2010-08-11T10:10:44Z</time>
 </trkpt>
 <trkpt lat="47.275345" lon="12.763634">
 <ele>789.23</ele>
 <time>2010-08-11T10:10:52Z</time>
 </trkpt>
 <trkpt lat="47.275394" lon="12.764219">
 <ele>788.52</ele>
 <time>2010-08-11T10:10:59Z</time>
 </trkpt>
 <trkpt lat="47.275471" lon="12.765072">
 <ele>788.52</ele>
 <time>2010-08-11T10:11:09Z</time>
 </trkpt>
 <trkpt lat="47.275536" lon="12.765811">
 <ele>788.64</ele>
 <time>2010-08-11T10:11:18Z</time>
 </trkpt>
 <trkpt lat="47.275627" lon="12.766897">
 <ele>788.36</ele>
 <time>2010-08-11T10:11:31Z</time>
 </trkpt>
 <trkpt lat="47.275715" lon="12.767555">
 <ele>788.29</ele>
 <time>2010-08-11T10:11:39Z</time>
 </trkpt>
 <trkpt lat="47.275906" lon="12.768285">
 <ele>787.99</ele>
 <time>2010-08-11T10:11:48Z</time>
 </trkpt>
 <trkpt lat="47.276131" lon="12.768881">
 <ele>787.49</ele>
 <time>2010-08-11T10:11:56Z</time>
 </trkpt>
 <trkpt lat="47.276459" lon="12.769492">
 <ele>787.04</ele>
 <time>2010-08-11T10:12:05Z</time>
 </trkpt>
 <trkpt lat="47.276852" lon="12.770230">
 <ele>787.03</ele>
 <time>2010-08-11T10:12:16Z</time>
 </trkpt>
 <trkpt lat="47.277100" lon="12.770690">
 <ele>786.88</ele>
 <time>2010-08-11T10:12:23Z</time>
 </trkpt>
 <trkpt lat="47.277309" lon="12.771085">
 <ele>787.02</ele>
 <time>2010-08-11T10:12:29Z</time>
 </trkpt>
 <trkpt lat="47.277496" lon="12.771408">
 <ele>786.07</ele>
 <time>2010-08-11T10:12:34Z</time>
 </trkpt>
 <trkpt lat="47.277615" lon="12.771495">
 <ele>785.39</ele>
 <time>2010-08-11T10:12:36Z</time>
 </trkpt>
 <trkpt lat="47.277866" lon="12.771680">
 <ele>783.92</ele>
 <time>2010-08-11T10:12:40Z</time>
 </trkpt>
 <trkpt lat="47.278217" lon="12.772330">
 <ele>784.07</ele>
 <time>2010-08-11T10:12:48Z</time>
 </trkpt>
 <trkpt lat="47.278652" lon="12.773171">
 <ele>781.91</ele>
 <time>2010-08-11T10:12:58Z</time>
 </trkpt>
 <trkpt lat="47.279167" lon="12.774156">
 <ele>779.97</ele>
 <time>2010-08-11T10:13:09Z</time>
 </trkpt>
 <trkpt lat="47.279621" lon="12.775025">
 <ele>779.12</ele>
 <time>2010-08-11T10:13:19Z</time>
 </trkpt>
 <trkpt lat="47.280003" lon="12.775753">
 <ele>778.78</ele>
 <time>2010-08-11T10:13:28Z</time>
 </trkpt>
 <trkpt lat="47.280369" lon="12.776456">
 <ele>778.86</ele>
 <time>2010-08-11T10:13:37Z</time>
 </trkpt>
 <trkpt lat="47.280472" lon="12.776790">
 <ele>778.66</ele>
 <time>2010-08-11T10:13:41Z</time>
 </trkpt>
 <trkpt lat="47.280548" lon="12.777270">
 <ele>778.13</ele>
 <time>2010-08-11T10:13:46Z</time>
 </trkpt>
 <trkpt lat="47.280704" lon="12.778233">
 <ele>777.62</ele>
 <time>2010-08-11T10:13:56Z</time>
 </trkpt>
 <trkpt lat="47.280781" lon="12.778686">
 <ele>777.47</ele>
 <time>2010-08-11T10:14:01Z</time>
 </trkpt>
 <trkpt lat="47.280842" lon="12.778945">
 <ele>777.42</ele>
 <time>2010-08-11T10:14:05Z</time>
 </trkpt>
 <trkpt lat="47.280888" lon="12.778945">
 <ele>777.64</ele>
 <time>2010-08-11T10:14:06Z</time>
 </trkpt>
 <trkpt lat="47.281349" lon="12.778945">
 <ele>777.91</ele>
 <time>2010-08-11T10:14:15Z</time>
 </trkpt>
 <trkpt lat="47.281399" lon="12.778945">
 <ele>778.00</ele>
 <time>2010-08-11T10:14:16Z</time>
 </trkpt>
 <trkpt lat="47.281593" lon="12.778945">
 <ele>778.03</ele>
 <time>2010-08-11T10:14:20Z</time>
 </trkpt>
 <trkpt lat="47.281670" lon="12.779085">
 <ele>778.10</ele>
 <time>2010-08-11T10:14:22Z</time>
 </trkpt>
 <trkpt lat="47.281906" lon="12.779728">
 <ele>778.51</ele>
 <time>2010-08-11T10:14:31Z</time>
 </trkpt>
 <trkpt lat="47.281982" lon="12.779936">
 <ele>778.84</ele>
 <time>2010-08-11T10:14:34Z</time>
 </trkpt>
 <trkpt lat="47.282059" lon="12.780136">
 <ele>779.10</ele>
 <time>2010-08-11T10:14:37Z</time>
 </trkpt>
 <trkpt lat="47.282085" lon="12.780373">
 <ele>778.88</ele>
 <time>2010-08-11T10:14:41Z</time>
 </trkpt>
 <trkpt lat="47.281849" lon="12.781317">
 <ele>778.74</ele>
 <time>2010-08-11T10:14:53Z</time>
 </trkpt>
 <trkpt lat="47.281723" lon="12.782296">
 <ele>779.42</ele>
 <time>2010-08-11T10:15:04Z</time>
 </trkpt>
 <trkpt lat="47.281723" lon="12.783122">
 <ele>779.31</ele>
 <time>2010-08-11T10:15:14Z</time>
 </trkpt>
 <trkpt lat="47.281723" lon="12.783881">
 <ele>779.16</ele>
 <time>2010-08-11T10:15:23Z</time>
 </trkpt>
 <trkpt lat="47.281723" lon="12.784108">
 <ele>779.03</ele>
 <time>2010-08-11T10:15:26Z</time>
 </trkpt>
 <trkpt lat="47.281723" lon="12.784383">
 <ele>780.05</ele>
 <time>2010-08-11T10:15:31Z</time>
 </trkpt>
 <trkpt lat="47.281723" lon="12.784638">
 <ele>779.63</ele>
 <time>2010-08-11T10:15:35Z</time>
 </trkpt>
 <trkpt lat="47.281719" lon="12.785301">
 <ele>779.04</ele>
 <time>2010-08-11T10:15:43Z</time>
 </trkpt>
 <trkpt lat="47.281715" lon="12.785902">
 <ele>778.64</ele>
 <time>2010-08-11T10:15:50Z</time>
 </trkpt>
 <trkpt lat="47.281712" lon="12.786965">
 <ele>778.11</ele>
 <time>2010-08-11T10:16:02Z</time>
 </trkpt>
 <trkpt lat="47.281712" lon="12.787730">
 <ele>777.93</ele>
 <time>2010-08-11T10:16:11Z</time>
 </trkpt>
 <trkpt lat="47.281708" lon="12.788515">
 <ele>778.16</ele>
 <time>2010-08-11T10:16:20Z</time>
 </trkpt>
 <trkpt lat="47.281704" lon="12.789204">
 <ele>778.10</ele>
 <time>2010-08-11T10:16:28Z</time>
 </trkpt>
 <trkpt lat="47.281712" lon="12.790089">
 <ele>777.83</ele>
 <time>2010-08-11T10:16:38Z</time>
 </trkpt>
 <trkpt lat="47.281754" lon="12.790961">
 <ele>777.87</ele>
 <time>2010-08-11T10:16:48Z</time>
 </trkpt>
 <trkpt lat="47.281780" lon="12.791551">
 <ele>778.20</ele>
 <time>2010-08-11T10:16:55Z</time>
 </trkpt>
 <trkpt lat="47.281811" lon="12.792222">
 <ele>777.49</ele>
 <time>2010-08-11T10:17:03Z</time>
 </trkpt>
 <trkpt lat="47.281857" lon="12.793315">
 <ele>777.75</ele>
 <time>2010-08-11T10:17:16Z</time>
 </trkpt>
 <trkpt lat="47.281906" lon="12.794263">
 <ele>777.59</ele>
 <time>2010-08-11T10:17:27Z</time>
 </trkpt>
 <trkpt lat="47.281937" lon="12.794683">
 <ele>777.65</ele>
 <time>2010-08-11T10:17:32Z</time>
 </trkpt>
 <trkpt lat="47.281956" lon="12.794978">
 <ele>777.82</ele>
 <time>2010-08-11T10:17:36Z</time>
 </trkpt>
 <trkpt lat="47.281979" lon="12.795281">
 <ele>777.49</ele>
 <time>2010-08-11T10:17:40Z</time>
 </trkpt>
 <trkpt lat="47.282005" lon="12.795656">
 <ele>777.51</ele>
 <time>2010-08-11T10:17:45Z</time>
 </trkpt>
 <trkpt lat="47.282063" lon="12.796411">
 <ele>777.02</ele>
 <time>2010-08-11T10:17:54Z</time>
 </trkpt>
 <trkpt lat="47.282112" lon="12.797097">
 <ele>777.33</ele>
 <time>2010-08-11T10:18:02Z</time>
 </trkpt>
 <trkpt lat="47.282173" lon="12.797949">
 <ele>777.32</ele>
 <time>2010-08-11T10:18:12Z</time>
 </trkpt>
 <trkpt lat="47.282238" lon="12.798800">
 <ele>777.30</ele>
 <time>2010-08-11T10:18:22Z</time>
 </trkpt>
 <trkpt lat="47.282272" lon="12.799556">
 <ele>777.31</ele>
 <time>2010-08-11T10:18:31Z</time>
 </trkpt>
 <trkpt lat="47.282310" lon="12.800330">
 <ele>777.45</ele>
 <time>2010-08-11T10:18:40Z</time>
 </trkpt>
 <trkpt lat="47.282360" lon="12.801351">
 <ele>777.23</ele>
 <time>2010-08-11T10:18:52Z</time>
 </trkpt>
 <trkpt lat="47.282398" lon="12.802121">
 <ele>777.34</ele>
 <time>2010-08-11T10:19:01Z</time>
 </trkpt>
 <trkpt lat="47.282440" lon="12.802987">
 <ele>776.96</ele>
 <time>2010-08-11T10:19:11Z</time>
 </trkpt>
 <trkpt lat="47.282585" lon="12.804274">
 <ele>776.86</ele>
 <time>2010-08-11T10:19:24Z</time>
 </trkpt>
 <trkpt lat="47.282764" lon="12.805176">
 <ele>777.01</ele>
 <time>2010-08-11T10:19:35Z</time>
 </trkpt>
 <trkpt lat="47.282928" lon="12.806015">
 <ele>776.68</ele>
 <time>2010-08-11T10:19:45Z</time>
 </trkpt>
 <trkpt lat="47.283089" lon="12.806824">
 <ele>776.40</ele>
 <time>2010-08-11T10:19:55Z</time>
 </trkpt>
 <trkpt lat="47.283234" lon="12.807562">
 <ele>776.73</ele>
 <time>2010-08-11T10:20:04Z</time>
 </trkpt>
 <trkpt lat="47.283409" lon="12.808545">
 <ele>776.50</ele>
 <time>2010-08-11T10:20:16Z</time>
 </trkpt>
 <trkpt lat="47.283581" lon="12.809499">
 <ele>776.92</ele>
 <time>2010-08-11T10:20:28Z</time>
 </trkpt>
 <trkpt lat="47.283669" lon="12.810014">
 <ele>777.35</ele>
 <time>2010-08-11T10:20:35Z</time>
 </trkpt>
 <trkpt lat="47.283749" lon="12.810469">
 <ele>776.73</ele>
 <time>2010-08-11T10:20:41Z</time>
 </trkpt>
 <trkpt lat="47.283836" lon="12.810989">
 <ele>776.70</ele>
 <time>2010-08-11T10:20:47Z</time>
 </trkpt>
 <trkpt lat="47.283863" lon="12.811155">
 <ele>776.55</ele>
 <time>2010-08-11T10:20:49Z</time>
 </trkpt>
 <trkpt lat="47.283974" lon="12.811966">
 <ele>776.75</ele>
 <time>2010-08-11T10:20:58Z</time>
 </trkpt>
 <trkpt lat="47.284100" lon="12.812867">
 <ele>776.20</ele>
 <time>2010-08-11T10:21:08Z</time>
 </trkpt>
 <trkpt lat="47.284122" lon="12.813514">
 <ele>776.03</ele>
 <time>2010-08-11T10:21:16Z</time>
 </trkpt>
 <trkpt lat="47.284145" lon="12.814202">
 <ele>776.24</ele>
 <time>2010-08-11T10:21:24Z</time>
 </trkpt>
 <trkpt lat="47.284168" lon="12.814958">
 <ele>776.43</ele>
 <time>2010-08-11T10:21:33Z</time>
 </trkpt>
 <trkpt lat="47.284176" lon="12.815170">
 <ele>776.53</ele>
 <time>2010-08-11T10:21:36Z</time>
 </trkpt>
 <trkpt lat="47.284599" lon="12.815416">
 <ele>776.89</ele>
 <time>2010-08-11T10:21:41Z</time>
 </trkpt>
 <trkpt lat="47.284500" lon="12.815601">
 <ele>776.97</ele>
 <time>2010-08-11T10:21:45Z</time>
 </trkpt>
 <trkpt lat="47.284519" lon="12.815748">
 <ele>776.97</ele>
 <time>2010-08-11T10:21:47Z</time>
 </trkpt>
 <trkpt lat="47.284599" lon="12.816397">
 <ele>776.12</ele>
 <time>2010-08-11T10:21:55Z</time>
 </trkpt>
 <trkpt lat="47.284618" lon="12.816555">
 <ele>776.10</ele>
 <time>2010-08-11T10:21:57Z</time>
 </trkpt>
 <trkpt lat="47.284653" lon="12.816829">
 <ele>776.20</ele>
 <time>2010-08-11T10:22:01Z</time>
 </trkpt>
 <trkpt lat="47.284664" lon="12.816925">
 <ele>776.33</ele>
 <time>2010-08-11T10:22:05Z</time>
 </trkpt>
 <trkpt lat="47.284664" lon="12.816925">
 <ele>776.11</ele>
 <time>2010-08-11T10:22:07Z</time>
 </trkpt>
 <trkpt lat="47.284729" lon="12.817118">
 <ele>775.55</ele>
 <time>2010-08-11T10:22:13Z</time>
 </trkpt>
 <trkpt lat="47.285175" lon="12.818063">
 <ele>775.72</ele>
 <time>2010-08-11T10:22:21Z</time>
 </trkpt>
 <trkpt lat="47.285458" lon="12.818426">
 <ele>775.77</ele>
 <time>2010-08-11T10:22:28Z</time>
 </trkpt>
 <trkpt lat="47.285755" lon="12.818806">
 <ele>775.43</ele>
 <time>2010-08-11T10:22:35Z</time>
 </trkpt>
 <trkpt lat="47.286125" lon="12.819297">
 <ele>775.61</ele>
 <time>2010-08-11T10:22:44Z</time>
 </trkpt>
 <trkpt lat="47.286419" lon="12.819695">
 <ele>775.71</ele>
 <time>2010-08-11T10:22:51Z</time>
 </trkpt>
 <trkpt lat="47.286613" lon="12.819990">
 <ele>776.04</ele>
 <time>2010-08-11T10:22:56Z</time>
 </trkpt>
 <trkpt lat="47.286819" lon="12.820475">
 <ele>775.89</ele>
 <time>2010-08-11T10:23:03Z</time>
 </trkpt>
 <trkpt lat="47.287022" lon="12.821079">
 <ele>776.16</ele>
 <time>2010-08-11T10:23:11Z</time>
 </trkpt>
 <trkpt lat="47.287216" lon="12.821702">
 <ele>775.81</ele>
 <time>2010-08-11T10:23:19Z</time>
 </trkpt>
 <trkpt lat="47.287292" lon="12.822003">
 <ele>775.46</ele>
 <time>2010-08-11T10:23:23Z</time>
 </trkpt>
 <trkpt lat="47.287388" lon="12.822432">
 <ele>775.28</ele>
 <time>2010-08-11T10:23:28Z</time>
 </trkpt>
 <trkpt lat="47.287380" lon="12.822897">
 <ele>776.02</ele>
 <time>2010-08-11T10:23:34Z</time>
 </trkpt>
 <trkpt lat="47.287315" lon="12.823174">
 <ele>775.84</ele>
 <time>2010-08-11T10:23:38Z</time>
 </trkpt>
 <trkpt lat="47.287281" lon="12.823314">
 <ele>775.89</ele>
 <time>2010-08-11T10:23:40Z</time>
 </trkpt>
 <trkpt lat="47.287209" lon="12.823531">
 <ele>776.13</ele>
 <time>2010-08-11T10:23:44Z</time>
 </trkpt>
 <trkpt lat="47.286968" lon="12.823806">
 <ele>776.66</ele>
 <time>2010-08-11T10:23:51Z</time>
 </trkpt>
 <trkpt lat="47.286819" lon="12.823843">
 <ele>776.39</ele>
 <time>2010-08-11T10:23:56Z</time>
 </trkpt>
 <trkpt lat="47.286781" lon="12.823852">
 <ele>776.39</ele>
 <time>2010-08-11T10:23:58Z</time>
 </trkpt>
 <trkpt lat="47.286766" lon="12.823856">
 <ele>776.47</ele>
 <time>2010-08-11T10:24:03Z</time>
 </trkpt>
 <trkpt lat="47.286518" lon="12.823623">
 <ele>777.33</ele>
 <time>2010-08-11T10:24:10Z</time>
 </trkpt>
 <trkpt lat="47.286346" lon="12.823509">
 <ele>778.09</ele>
 <time>2010-08-11T10:24:15Z</time>
 </trkpt>
 <trkpt lat="47.286308" lon="12.823498">
 <ele>778.22</ele>
 <time>2010-08-11T10:24:16Z</time>
 </trkpt>
 <trkpt lat="47.285877" lon="12.823353">
 <ele>779.96</ele>
 <time>2010-08-11T10:24:27Z</time>
 </trkpt>
 <trkpt lat="47.285465" lon="12.823277">
 <ele>780.19</ele>
 <time>2010-08-11T10:24:36Z</time>
 </trkpt>
 <trkpt lat="47.285133" lon="12.823277">
 <ele>780.35</ele>
 <time>2010-08-11T10:24:43Z</time>
 </trkpt>
 <trkpt lat="47.284924" lon="12.823277">
 <ele>779.49</ele>
 <time>2010-08-11T10:24:47Z</time>
 </trkpt>
 <trkpt lat="47.284752" lon="12.823277">
 <ele>778.73</ele>
 <time>2010-08-11T10:24:51Z</time>
 </trkpt>
 <trkpt lat="47.284786" lon="12.823612">
 <ele>778.76</ele>
 <time>2010-08-11T10:24:54Z</time>
 </trkpt>
 <trkpt lat="47.284809" lon="12.824126">
 <ele>780.28</ele>
 <time>2010-08-11T10:25:03Z</time>
 </trkpt>
 <trkpt lat="47.284836" lon="12.824781">
 <ele>780.27</ele>
 <time>2010-08-11T10:25:13Z</time>
 </trkpt>
 <trkpt lat="47.284855" lon="12.825281">
 <ele>780.59</ele>
 <time>2010-08-11T10:25:20Z</time>
 </trkpt>
 <trkpt lat="47.284874" lon="12.825828">
 <ele>781.02</ele>
 <time>2010-08-11T10:25:28Z</time>
 </trkpt>
 <trkpt lat="47.284901" lon="12.826448">
 <ele>780.74</ele>
 <time>2010-08-11T10:25:37Z</time>
 </trkpt>
 <trkpt lat="47.284904" lon="12.826582">
 <ele>780.43</ele>
 <time>2010-08-11T10:25:39Z</time>
 </trkpt>
 <trkpt lat="47.284920" lon="12.826994">
 <ele>780.84</ele>
 <time>2010-08-11T10:25:46Z</time>
 </trkpt>
 <trkpt lat="47.284927" lon="12.827223">
 <ele>780.98</ele>
 <time>2010-08-11T10:25:50Z</time>
 </trkpt>
 <trkpt lat="47.285442" lon="12.827732">
 <ele>781.28</ele>
 <time>2010-08-11T10:25:54Z</time>
 </trkpt>
 <trkpt lat="47.284931" lon="12.827346">
 <ele>781.59</ele>
 <time>2010-08-11T10:25:58Z</time>
 </trkpt>
 <trkpt lat="47.284931" lon="12.827326">
 <ele>781.73</ele>
 <time>2010-08-11T10:26:01Z</time>
 </trkpt>
 </trkseg>
 </trk>
</gpx>
